Provisional Data: Grays Run near Gray, PA


Please select a monitoring station.
Please select start date.
Please select start date.

Toggle Unit: C/F Toggle Unit: C/F
Sample Time Temperature (C) Temperature (F) Specific Conductivity (mS/cm) pH   Turbidity (NTU+) DO (mg/L)
5/17/2022 12:00:00 AM 11.55 52.79 0.033 6.74 2.03 10.21
5/17/2022 12:15:00 AM 11.5 52.7 0.033 6.74 1.93 10.22
5/17/2022 12:30:00 AM 11.45 52.61 0.033 6.74 1.95 10.23
5/17/2022 12:45:00 AM 11.4 52.52 0.033 6.74 1.89 10.25
5/17/2022 1:00:00 AM 11.36 52.448 0.033 6.75 1.88 10.26
5/17/2022 1:15:00 AM 11.31 52.358 0.033 6.74 1.85 10.27
5/17/2022 1:30:00 AM 11.26 52.268 0.033 6.75 1.85 10.28
5/17/2022 1:45:00 AM 11.21 52.178 0.033 6.74 1.86 10.29
5/17/2022 2:00:00 AM 11.17 52.106 0.033 6.73 1.85 10.3
5/17/2022 2:15:00 AM 11.12 52.016 0.032 6.74 1.89 10.31
5/17/2022 2:30:00 AM 11.07 51.926 0.032 6.74 1.87 10.32
5/17/2022 2:45:00 AM 11.02 51.836 0.032 6.74 1.91 10.33
5/17/2022 3:00:00 AM 10.97 51.746 0.032 6.73 1.85 10.34
5/17/2022 3:15:00 AM 10.93 51.674 0.032 6.75 1.8 10.35
5/17/2022 3:30:00 AM 10.88 51.584 0.032 6.74 1.82 10.36
5/17/2022 3:45:00 AM 10.85 51.53 0.032 6.73 1.9 10.37
5/17/2022 4:00:00 AM 10.81 51.458 0.032 6.72 1.84 10.38
5/17/2022 4:15:00 AM 10.78 51.404 0.032 6.75 1.84 10.4
5/17/2022 4:30:00 AM 10.75 51.35 0.032 6.72 1.82 10.4
5/17/2022 4:45:00 AM 10.73 51.314 0.032 6.74 1.91 10.41
5/17/2022 5:00:00 AM 10.7 51.26 0.032 6.73 1.87 10.42
5/17/2022 5:15:00 AM 10.68 51.224 0.032 6.74 1.88 10.42
5/17/2022 5:30:00 AM 10.66 51.188 0.032 6.72 1.84 10.43
5/17/2022 5:45:00 AM 10.64 51.152 0.032 6.75 1.89 10.44
5/17/2022 6:00:00 AM 10.62 51.116 0.032 6.74 1.81 10.45
5/17/2022 6:15:00 AM 10.59 51.062 0.032 6.74 1.89 10.47
5/17/2022 6:30:00 AM 10.56 51.008 0.032 6.73 1.8 10.49
5/17/2022 6:45:00 AM 10.54 50.972 0.032 6.74 1.81 10.51
5/17/2022 7:00:00 AM 10.52 50.936 0.032 6.75 1.8 10.53
5/17/2022 7:15:00 AM 10.51 50.918 0.032 6.76 1.74 10.56
5/17/2022 7:30:00 AM 10.49 50.882 0.032 6.75 1.75 10.57
5/17/2022 7:45:00 AM 10.47 50.846 0.032 6.76 1.74 10.6
5/17/2022 8:00:00 AM 10.47 50.846 0.032 6.77 1.72 10.64
5/17/2022 8:15:00 AM 10.47 50.846 0.032 6.78 1.69 10.65
5/17/2022 8:30:00 AM 10.48 50.864 0.032 6.79 1.71 10.67
5/17/2022 8:45:00 AM 10.5 50.9 0.032 6.79 1.64 10.69
5/17/2022 9:00:00 AM 10.52 50.936 0.032 6.79 1.7 10.68
5/17/2022 9:15:00 AM 10.55 50.99 0.032 6.8 1.68 10.68
5/17/2022 9:30:00 AM 10.59 51.062 0.032 6.8 1.7 10.66
5/17/2022 9:45:00 AM 10.64 51.152 0.032 6.81 1.68 10.66
5/17/2022 10:00:00 AM 10.7 51.26 0.032 6.81 1.65 10.66
5/17/2022 10:15:00 AM 10.78 51.404 0.032 6.82 1.67 10.66
5/17/2022 10:30:00 AM 10.85 51.53 0.032 6.83 1.65 10.65
5/17/2022 10:45:00 AM 10.95 51.71 0.032 6.84 1.66 10.66
5/17/2022 11:00:00 AM 11.06 51.908 0.032 6.85 1.61 10.64
5/17/2022 11:15:00 AM 11.15 52.07 0.032 6.86 1.61 10.61
5/17/2022 11:30:00 AM 11.24 52.232 0.032 6.86 1.66 10.6
5/17/2022 11:45:00 AM 11.37 52.466 0.032 6.86 1.61 10.59
5/17/2022 12:00:00 PM 11.55 52.79 0.032 6.87 1.62 10.57
5/17/2022 12:15:00 PM 11.74 53.132 0.032 6.87 1.6 10.52
5/17/2022 12:30:00 PM 11.91 53.438 0.031 6.88 1.62 10.49
5/17/2022 12:45:00 PM 12.02 53.636 0.031 6.88 1.57 10.46
5/17/2022 1:00:00 PM 12.02 53.636 0.031 6.87 1.63 10.41
5/17/2022 1:15:00 PM 12.23 54.014 0.031 6.88 1.59 10.4
5/17/2022 1:30:00 PM 12.33 54.194 0.031 6.89 1.62 10.36
5/17/2022 1:45:00 PM 12.52 54.536 0.031 6.88 1.58 10.34
5/17/2022 2:00:00 PM 12.66 54.788 0.031 6.87 1.64 10.31
5/17/2022 2:15:00 PM 12.77 54.986 0.031 6.88 1.58 10.27
5/17/2022 2:30:00 PM 12.86 55.148 0.031 6.87 1.54 10.24
5/17/2022 2:45:00 PM 12.94 55.292 0.031 6.88 1.57 10.2
5/17/2022 3:00:00 PM 12.99 55.382 0.031 6.88 1.59 10.18
5/17/2022 3:15:00 PM 13.02 55.436 0.031 6.88 1.55 10.15
5/17/2022 3:30:00 PM 13.05 55.49 0.031 6.87 1.58 10.14
5/17/2022 3:45:00 PM 13.03 55.454 0.032 6.86 1.53 10.11
5/17/2022 4:00:00 PM 13 55.4 0.032 6.86 1.51 10.12
5/17/2022 4:15:00 PM 12.98 55.364 0.032 6.85 1.57 10.11
5/17/2022 4:30:00 PM 12.96 55.328 0.032 6.86 1.6 10.1
5/17/2022 4:45:00 PM 12.93 55.274 0.032 6.86 1.56 10.1
5/17/2022 5:00:00 PM 12.91 55.238 0.032 6.85 1.52 10.11
5/17/2022 5:15:00 PM 12.88 55.184 0.032 6.83 1.54 10.11
5/17/2022 5:30:00 PM 12.8 55.04 0.032 6.84 1.55 10.09
5/17/2022 5:45:00 PM 12.75 54.95 0.032 6.83 1.55 10.1
5/17/2022 6:00:00 PM 12.69 54.842 0.032 6.83 1.57 10.09
5/17/2022 6:15:00 PM 12.63 54.734 0.032 6.82 1.56 10.08
5/17/2022 6:30:00 PM 12.57 54.626 0.032 6.82 1.54 10.07
5/17/2022 6:45:00 PM 12.53 54.554 0.032 6.81 1.57 10.07
5/17/2022 7:00:00 PM 12.5 54.5 0.032 6.8 1.57 10.07
5/17/2022 7:15:00 PM 12.45 54.41 0.032 6.79 1.57 10.07
5/17/2022 7:30:00 PM 12.42 54.356 0.032 6.79 1.61 10.07
5/17/2022 7:45:00 PM 12.38 54.284 0.032 6.77 1.55 10.07
5/17/2022 8:00:00 PM 12.34 54.212 0.032 6.78 1.63 10.08
5/17/2022 8:15:00 PM 12.3 54.14 0.032 6.77 1.57 10.08
5/17/2022 8:30:00 PM 12.25 54.05 0.032 6.76 1.6 10.08
5/17/2022 8:45:00 PM 12.19 53.942 0.032 6.75 1.6 10.09
5/17/2022 9:00:00 PM 12.13 53.834 0.032 6.77 1.62 10.1
5/17/2022 9:15:00 PM 12.06 53.708 0.032 6.77 1.62 10.12
5/17/2022 9:30:00 PM 12 53.6 0.032 6.76 1.6 10.13
5/17/2022 9:45:00 PM 11.94 53.492 0.032 6.76 1.66 10.15
5/17/2022 10:00:00 PM 11.87 53.366 0.032 6.76 1.76 10.17
5/17/2022 10:15:00 PM 11.79 53.222 0.032 6.75 1.64 10.19
5/17/2022 10:30:00 PM 11.72 53.096 0.032 6.75 1.7 10.21
5/17/2022 10:45:00 PM 11.65 52.97 0.032 6.73 1.77 10.23
5/17/2022 11:00:00 PM 11.57 52.826 0.032 6.74 1.71 10.25
5/17/2022 11:15:00 PM 11.5 52.7 0.032 6.74 1.77 10.27
5/17/2022 11:30:00 PM 11.42 52.556 0.032 6.74 1.71 10.28
5/17/2022 11:45:00 PM 11.34 52.412 0.032 6.73 1.74 10.31
5/18/2022 12:00:00 AM 11.27 52.286 0.032 6.74 1.73 10.33
5/18/2022 12:15:00 AM 11.19 52.142 0.032 6.74 1.69 10.34
5/18/2022 12:30:00 AM 11.12 52.016 0.032 6.72 1.68 10.36
5/18/2022 12:45:00 AM 11.05 51.89 0.032 6.73 1.7 10.38
5/18/2022 1:00:00 AM 10.98 51.764 0.032 6.73 1.72 10.4
5/18/2022 1:15:00 AM 10.91 51.638 0.032 6.74 1.66 10.41
5/18/2022 1:30:00 AM 10.85 51.53 0.032 6.73 1.71 10.43
5/18/2022 1:45:00 AM 10.79 51.422 0.032 6.72 1.76 10.44
5/18/2022 2:00:00 AM 10.74 51.332 0.032 6.74 1.78 10.46
5/18/2022 2:15:00 AM 10.68 51.224 0.032 6.73 1.71 10.47
5/18/2022 2:30:00 AM 10.63 51.134 0.032 6.73 1.72 10.49
5/18/2022 2:45:00 AM 10.58 51.044 0.032 6.73 1.72 10.51
5/18/2022 3:00:00 AM 10.52 50.936 0.032 6.72 1.71 10.52
5/18/2022 3:15:00 AM 10.47 50.846 0.032 6.73 1.73 10.53
5/18/2022 3:30:00 AM 10.42 50.756 0.032 6.73 1.73 10.55
5/18/2022 3:45:00 AM 10.36 50.648 0.032 6.72 1.76 10.56
5/18/2022 4:00:00 AM 10.31 50.558 0.032 6.72 1.72 10.57
5/18/2022 4:15:00 AM 10.26 50.468 0.032 6.72 1.71 10.59
5/18/2022 4:30:00 AM 10.21 50.378 0.032 6.73 1.73 10.6
5/18/2022 4:45:00 AM 10.16 50.288 0.032 6.73 1.67 10.62
5/18/2022 5:00:00 AM 10.11 50.198 0.032 6.73 1.82 10.63
5/18/2022 5:15:00 AM 10.06 50.108 0.032 6.73 1.7 10.64
5/18/2022 5:30:00 AM 10.01 50.018 0.032 6.72 1.71 10.66
5/18/2022 5:45:00 AM 9.95 49.91 0.032 6.73 1.75 10.68
5/18/2022 6:00:00 AM 9.9 49.82 0.032 6.72 1.65 10.7
5/18/2022 6:15:00 AM 9.85 49.73 0.032 6.71 1.7 10.72
5/18/2022 6:30:00 AM 9.8 49.64 0.032 6.73 1.68 10.74
5/18/2022 6:45:00 AM 9.76 49.568 0.032 6.73 1.68 10.77
5/18/2022 7:00:00 AM 9.71 49.478 0.032 6.73 1.65 10.79
5/18/2022 7:15:00 AM 9.68 49.424 0.032 6.73 1.65 10.81
5/18/2022 7:30:00 AM 9.65 49.37 0.032 6.74 1.65 10.84
5/18/2022 7:45:00 AM 9.64 49.352 0.032 6.75 1.64 10.86
5/18/2022 8:00:00 AM 9.64 49.352 0.032 6.75 1.67 10.88
5/18/2022 8:15:00 AM 9.65 49.37 0.032 6.76 1.57 10.89
5/18/2022 8:30:00 AM 9.67 49.406 0.032 6.77 1.6 10.93
5/18/2022 8:45:00 AM 9.71 49.478 0.032 6.78 1.62 10.96
5/18/2022 9:00:00 AM 9.75 49.55 0.032 6.79 1.61 10.96
5/18/2022 9:15:00 AM 9.79 49.622 0.032 6.81 1.65 10.96
5/18/2022 9:30:00 AM 9.85 49.73 0.032 6.79 1.57 10.96
5/18/2022 9:45:00 AM 9.91 49.838 0.032 6.81 1.62 10.95
5/18/2022 10:00:00 AM 9.99 49.982 0.032 6.82 1.55 10.95
5/18/2022 10:15:00 AM 10.07 50.126 0.032 6.83 1.64 10.93
5/18/2022 10:30:00 AM 10.16 50.288 0.032 6.84 1.58 10.92
5/18/2022 10:45:00 AM 10.26 50.468 0.032 6.85 1.54 10.91
5/18/2022 11:00:00 AM 10.36 50.648 0.031 6.85 1.56 10.9
5/18/2022 11:15:00 AM 10.47 50.846 0.031 6.86 1.6 10.88
5/18/2022 11:30:00 AM 10.61 51.098 0.031 6.85 1.57 10.87
5/18/2022 11:45:00 AM 10.75 51.35 0.031 6.87 1.57 10.84
5/18/2022 12:00:00 PM 10.88 51.584 0.031 6.87 1.53 10.82
5/18/2022 12:15:00 PM 11.06 51.908 0.031 6.88 1.54 10.78
5/18/2022 12:30:00 PM 11.24 52.232 0.031 6.89 1.56 10.75
5/18/2022 12:45:00 PM 11.43 52.574 0.031 6.88 1.59 10.72
5/18/2022 1:00:00 PM 11.57 52.826 0.031 6.88 1.54 10.68
5/18/2022 1:15:00 PM 11.64 52.952 0.031 6.9 1.53 10.65
5/18/2022 1:30:00 PM 11.79 53.222 0.031 6.89 1.51 10.62
5/18/2022 1:45:00 PM 11.89 53.402 0.031 6.89 1.53 10.58
5/18/2022 2:00:00 PM 12.01 53.618 0.031 6.9 1.51 10.55
5/18/2022 2:15:00 PM 12.1 53.78 0.031 6.89 1.53 10.51
5/18/2022 2:30:00 PM 12.15 53.87 0.031 6.9 1.48 10.48
5/18/2022 2:45:00 PM 12.17 53.906 0.031 6.9 1.53 10.46
5/18/2022 3:00:00 PM 12.23 54.014 0.031 6.9 1.5 10.45
5/18/2022 3:15:00 PM 12.29 54.122 0.031 6.9 1.55 10.43
5/18/2022 3:30:00 PM 12.35 54.23 0.031 6.9 1.53 10.42
5/18/2022 3:45:00 PM 12.37 54.266 0.031 6.89 1.5 10.39
5/18/2022 4:00:00 PM 12.37 54.266 0.031 6.9 1.55 10.37
5/18/2022 4:15:00 PM 12.31 54.158 0.031 6.87 1.53 10.32
5/18/2022 4:30:00 PM 12.25 54.05 0.031 6.86 1.52 10.3
5/18/2022 4:45:00 PM 12.19 53.942 0.031 6.84 1.59 10.31
5/18/2022 5:00:00 PM 12.15 53.87 0.032 6.84 1.53 10.3
5/18/2022 5:15:00 PM 12.12 53.816 0.032 6.84 1.52 10.3
5/18/2022 5:30:00 PM 12.09 53.762 0.032 6.81 1.52 10.25
5/18/2022 5:45:00 PM 12.06 53.708 0.032 6.8 1.53 10.24
5/18/2022 6:00:00 PM 12.03 53.654 0.032 6.78 1.55 10.24
5/18/2022 6:15:00 PM 11.98 53.564 0.032 6.78 1.66 10.22
5/18/2022 6:30:00 PM 11.93 53.474 0.032 6.77 1.53 10.21
5/18/2022 6:45:00 PM 11.89 53.402 0.032 6.76 1.56 10.22
5/18/2022 7:00:00 PM 11.85 53.33 0.032 6.76 1.57 10.21
5/18/2022 7:15:00 PM 11.8 53.24 0.032 6.75 1.58 10.22
5/18/2022 7:30:00 PM 11.76 53.168 0.032 6.76 1.54 10.22
5/18/2022 7:45:00 PM 11.72 53.096 0.032 6.75 1.54 10.22
5/18/2022 8:00:00 PM 11.67 53.006 0.032 6.73 1.63 10.21
5/18/2022 8:15:00 PM 11.64 52.952 0.032 6.74 1.6 10.21
5/18/2022 8:30:00 PM 11.61 52.898 0.032 6.74 1.55 10.21
5/18/2022 8:45:00 PM 11.58 52.844 0.032 6.77 1.6 10.21
5/18/2022 9:00:00 PM 11.56 52.808 0.032 6.77 1.65 10.21
5/18/2022 9:15:00 PM 11.54 52.772 0.032 6.73 1.62 10.22
5/18/2022 9:30:00 PM 11.52 52.736 0.032 6.74 1.66 10.23
5/18/2022 9:45:00 PM 11.49 52.682 0.032 6.73 1.61 10.23
5/18/2022 10:00:00 PM 11.47 52.646 0.032 6.73 1.71 10.24
5/18/2022 10:15:00 PM 11.45 52.61 0.032 6.75 1.71 10.24
5/18/2022 10:30:00 PM 11.43 52.574 0.032 6.73 1.77 10.24
5/18/2022 10:45:00 PM 11.41 52.538 0.032 6.72 1.79 10.24
5/18/2022 11:00:00 PM 11.39 52.502 0.032 6.72 1.8 10.24
5/18/2022 11:15:00 PM 11.37 52.466 0.032 6.72 1.76 10.25
5/18/2022 11:30:00 PM 11.35 52.43 0.032 6.72 1.74 10.25
5/18/2022 11:45:00 PM 11.33 52.394 0.032 6.69 1.78 10.25
5/19/2022 12:00:00 AM 11.31 52.358 0.032 6.7 1.81 10.25
5/19/2022 12:15:00 AM 11.29 52.322 0.032 6.71 1.8 10.26
5/19/2022 12:30:00 AM 11.27 52.286 0.032 6.72 1.81 10.26
5/19/2022 12:45:00 AM 11.24 52.232 0.032 6.72 1.73 10.28
5/19/2022 1:00:00 AM 11.22 52.196 0.032 6.71 1.69 10.28
5/19/2022 1:15:00 AM 11.2 52.16 0.032 6.74 1.71 10.28
5/19/2022 1:30:00 AM 11.18 52.124 0.032 6.72 1.73 10.29
5/19/2022 1:45:00 AM 11.16 52.088 0.032 6.7 1.7 10.3
5/19/2022 2:00:00 AM 11.14 52.052 0.032 6.73 1.72 10.3
5/19/2022 2:15:00 AM 11.12 52.016 0.032 6.71 1.71 10.31
5/19/2022 2:30:00 AM 11.1 51.98 0.032 6.73 1.72 10.31
5/19/2022 2:45:00 AM 11.09 51.962 0.032 6.7 1.73 10.31
5/19/2022 3:00:00 AM 11.07 51.926 0.032 6.67 1.74 10.31
5/19/2022 3:15:00 AM 11.05 51.89 0.032 6.69 1.71 10.31
5/19/2022 3:30:00 AM 11.03 51.854 0.032 6.69 1.72 10.32
5/19/2022 3:45:00 AM 11.01 51.818 0.032 6.7 1.73 10.32
5/19/2022 4:00:00 AM 11 51.8 0.032 6.67 1.7 10.32
5/19/2022 4:15:00 AM 10.98 51.764 0.032 6.69 1.72 10.33
5/19/2022 4:30:00 AM 10.96 51.728 0.032 6.69 1.7 10.33
5/19/2022 4:45:00 AM 10.95 51.71 0.032 6.65 1.7 10.33
5/19/2022 5:00:00 AM 10.93 51.674 0.032 6.69 1.71 10.34
5/19/2022 5:15:00 AM 10.92 51.656 0.032 6.69 1.69 10.34
5/19/2022 5:30:00 AM 10.9 51.62 0.032 6.66 1.68 10.34
5/19/2022 5:45:00 AM 10.89 51.602 0.032 6.69 1.66 10.35
5/19/2022 6:00:00 AM 10.88 51.584 0.032 6.64 1.7 10.36
5/19/2022 6:15:00 AM 10.87 51.566 0.032 6.68 1.67 10.36
5/19/2022 6:30:00 AM 10.86 51.548 0.032 6.72 1.63 10.37
5/19/2022 6:45:00 AM 10.85 51.53 0.032 6.71 1.61 10.38
5/19/2022 7:00:00 AM 10.84 51.512 0.032 6.72 1.6 10.39
5/19/2022 7:15:00 AM 10.83 51.494 0.032 6.71 1.65 10.4
5/19/2022 7:30:00 AM 10.82 51.476 0.032 6.71 1.6 10.4
5/19/2022 7:45:00 AM 10.81 51.458 0.032 6.71 1.58 10.4
5/19/2022 8:00:00 AM 10.81 51.458 0.032 6.71 1.55 10.42
5/19/2022 8:15:00 AM 10.8 51.44 0.032 6.7 1.69 10.42
5/19/2022 8:30:00 AM 10.8 51.44 0.032 6.72 1.61 10.43
5/19/2022 8:45:00 AM 10.79 51.422 0.032 6.7 1.71 10.44
5/19/2022 9:00:00 AM 10.79 51.422 0.032 6.71 1.59 10.45
5/19/2022 9:15:00 AM 10.79 51.422 0.032 6.72 1.57 10.46
5/19/2022 9:30:00 AM 10.79 51.422 0.032 6.72 1.54 10.47
5/19/2022 9:45:00 AM 10.8 51.44 0.032 6.72 1.51 10.49
5/19/2022 10:00:00 AM 10.81 51.458 0.032 6.7 1.6 10.5
5/19/2022 10:15:00 AM 10.82 51.476 0.032 6.73 1.6 10.52
5/19/2022 10:30:00 AM 10.83 51.494 0.032 6.82 1.69 10.54
5/19/2022 10:45:00 AM 10.85 51.53 0.032 6.78 1.61 10.55
5/19/2022 11:00:00 AM 10.86 51.548 0.032 6.77 1.58 10.56
5/19/2022 11:15:00 AM 10.88 51.584 0.032 6.77 1.59 10.56
5/19/2022 11:30:00 AM 10.9 51.62 0.032 6.78 1.55 10.55
5/19/2022 11:45:00 AM 10.91 51.638 0.032 6.77 1.53 10.54
5/19/2022 12:00:00 PM 10.91 51.638 0.032 6.75 1.66 10.52
5/19/2022 12:15:00 PM 10.92 51.656 0.032 6.75 1.57 10.51
5/19/2022 12:30:00 PM 10.93 51.674 0.032 6.76 1.52 10.51
5/19/2022 12:45:00 PM 10.94 51.692 0.032 6.78 1.51 10.5
5/19/2022 1:00:00 PM 10.94 51.692 0.032 6.77 1.51 10.51
5/19/2022 1:15:00 PM 10.97 51.746 0.032 6.78 1.57 10.54
5/19/2022 1:30:00 PM 11.04 51.872 0.032 6.8 1.51 10.58
5/19/2022 1:45:00 PM 11.15 52.07 0.032 6.84 1.51 10.6
5/19/2022 2:00:00 PM 11.21 52.178 0.032 6.84 1.47 10.58
5/19/2022 2:15:00 PM 11.26 52.268 0.032 6.82 1.51 10.56
5/19/2022 2:30:00 PM 11.36 52.448 0.032 6.84 1.51 10.56
5/19/2022 2:45:00 PM 11.47 52.646 0.031 6.86 1.43 10.53
5/19/2022 3:00:00 PM 11.58 52.844 0.031 6.83 1.43 10.5
5/19/2022 3:15:00 PM 11.7 53.06 0.031 6.85 1.54 10.46
5/19/2022 3:30:00 PM 11.81 53.258 0.031 6.8 1.51 10.42
5/19/2022 3:45:00 PM 11.9 53.42 0.031 6.81 1.44 10.38
5/19/2022 4:00:00 PM 11.96 53.528 0.031 6.81 1.56 10.35
5/19/2022 4:15:00 PM 12.07 53.726 0.031 6.83 1.71 10.33
5/19/2022 4:30:00 PM 12.12 53.816 0.031 6.82 1.47 10.29
5/19/2022 4:45:00 PM 12.18 53.924 0.031 6.82 1.51 10.25
5/19/2022 5:00:00 PM 12.2 53.96 0.032 6.81 1.98 10.21
5/19/2022 5:15:00 PM 12.21 53.978 0.032 6.81 1.51 10.18
5/19/2022 5:30:00 PM 12.23 54.014 0.032 6.8 1.66 10.16
5/19/2022 5:45:00 PM 12.24 54.032 0.032 6.8 1.84 10.14
5/19/2022 6:00:00 PM 12.24 54.032 0.032 6.79 3.84 10.13
5/19/2022 6:15:00 PM 12.22 53.996 0.032 6.78 1.54 10.11
5/19/2022 6:30:00 PM 12.22 53.996 0.032 6.78 1.5 10.11
5/19/2022 6:45:00 PM 12.19 53.942 0.032 6.77 1.56 10.1
5/19/2022 7:00:00 PM 12.15 53.87 0.032 6.77 1.62 10.11
5/19/2022 7:15:00 PM 12.12 53.816 0.032 6.74 1.57 10.1
5/19/2022 7:30:00 PM 12.09 53.762 0.032 6.75 1.6 10.1
5/19/2022 7:45:00 PM 12.06 53.708 0.032 6.74 1.72 10.1
5/19/2022 8:00:00 PM 12.02 53.636 0.032 6.73 1.55 10.1
5/19/2022 8:15:00 PM 11.99 53.582 0.032 6.72 1.56 10.1
5/19/2022 8:30:00 PM 11.96 53.528 0.032 6.74 2.22 10.1
5/19/2022 8:45:00 PM 11.94 53.492 0.032 6.7 1.93 10.1
5/19/2022 9:00:00 PM 11.92 53.456 0.032 6.75 1.76 10.1
5/19/2022 9:15:00 PM 11.9 53.42 0.032 6.74 1.62 10.11
5/19/2022 9:30:00 PM 11.87 53.366 0.032 6.73 1.66 10.12
5/19/2022 9:45:00 PM 11.84 53.312 0.032 6.74 1.79 10.13
5/19/2022 10:00:00 PM 11.81 53.258 0.032 6.75 1.82 10.13
5/19/2022 10:15:00 PM 11.77 53.186 0.032 6.73 1.74 10.14
5/19/2022 10:30:00 PM 11.74 53.132 0.032 6.73 1.8 10.15
5/19/2022 10:45:00 PM 11.7 53.06 0.032 6.71 2.14 10.16
5/19/2022 11:00:00 PM 11.66 52.988 0.032 6.72 1.81 10.17
5/19/2022 11:15:00 PM 11.61 52.898 0.032 6.72 1.81 10.19
5/19/2022 11:30:00 PM 11.56 52.808 0.032 6.73 1.86 10.2
5/19/2022 11:45:00 PM 11.52 52.736 0.032 6.73 1.78 10.21
5/20/2022 12:00:00 AM 11.47 52.646 0.032 6.73 1.83 10.22
5/20/2022 12:15:00 AM 11.43 52.574 0.032 6.75 1.78 10.23
5/20/2022 12:30:00 AM 11.38 52.484 0.032 6.73 1.84 10.25
5/20/2022 12:45:00 AM 11.34 52.412 0.032 6.7 1.89 10.26
5/20/2022 1:00:00 AM 11.3 52.34 0.032 6.71 1.79 10.27
5/20/2022 1:15:00 AM 11.27 52.286 0.032 6.69 1.73 10.28
5/20/2022 1:30:00 AM 11.23 52.214 0.032 6.68 1.95 10.29
5/20/2022 1:45:00 AM 11.2 52.16 0.032 6.68 2 10.3
5/20/2022 2:00:00 AM 11.16 52.088 0.032 6.69 2.02 10.3
5/20/2022 2:15:00 AM 11.12 52.016 0.032 6.69 1.89 10.31
5/20/2022 2:30:00 AM 11.09 51.962 0.032 6.69 2.02 10.32
5/20/2022 2:45:00 AM 11.05 51.89 0.032 6.71 1.93 10.32
5/20/2022 3:00:00 AM 11.01 51.818 0.032 6.74 1.94 10.33
5/20/2022 3:15:00 AM 10.97 51.746 0.032 6.72 1.83 10.34
5/20/2022 3:30:00 AM 10.93 51.674 0.032 6.71 2.01 10.35
5/20/2022 3:45:00 AM 10.9 51.62 0.032 6.7 1.92 10.36
5/20/2022 4:00:00 AM 10.86 51.548 0.032 6.71 2.11 10.38
5/20/2022 4:15:00 AM 10.83 51.494 0.032 6.7 1.86 10.38
5/20/2022 4:30:00 AM 10.79 51.422 0.032 6.71 1.82 10.39
5/20/2022 4:45:00 AM 10.76 51.368 0.032 6.7 1.98 10.4
5/20/2022 5:00:00 AM 10.72 51.296 0.032 6.71 2.16 10.41
5/20/2022 5:15:00 AM 10.69 51.242 0.032 6.71 1.96 10.42
5/20/2022 5:30:00 AM 10.65 51.17 0.032 6.71 1.94 10.43
5/20/2022 5:45:00 AM 10.62 51.116 0.032 6.71 2.1 10.44
5/20/2022 6:00:00 AM 10.59 51.062 0.032 6.7 1.96 10.47
5/20/2022 6:15:00 AM 10.56 51.008 0.032 6.71 1.91 10.49
5/20/2022 6:30:00 AM 10.54 50.972 0.032 6.72 1.89 10.51
5/20/2022 6:45:00 AM 10.52 50.936 0.032 6.73 1.9 10.53
5/20/2022 7:00:00 AM 10.51 50.918 0.032 6.72 1.92 10.53
5/20/2022 7:15:00 AM 10.5 50.9 0.032 6.71 1.74 10.53
5/20/2022 7:30:00 AM 10.49 50.882 0.032 6.73 1.83 10.56
5/20/2022 7:45:00 AM 10.5 50.9 0.032 6.74 1.81 10.6
5/20/2022 8:00:00 AM 10.51 50.918 0.032 6.75 1.77 10.64
5/20/2022 8:15:00 AM 10.54 50.972 0.032 6.75 1.75 10.66
5/20/2022 8:30:00 AM 10.56 51.008 0.032 6.76 1.8 10.67
5/20/2022 8:45:00 AM 10.59 51.062 0.032 6.77 1.75 10.67
5/20/2022 9:00:00 AM 10.63 51.134 0.032 6.77 1.77 10.68
5/20/2022 9:15:00 AM 10.66 51.188 0.032 6.78 1.8 10.68
5/20/2022 9:30:00 AM 10.7 51.26 0.032 6.79 1.75 10.69
5/20/2022 9:45:00 AM 10.75 51.35 0.032 6.8 1.75 10.69
5/20/2022 10:00:00 AM 10.8 51.44 0.032 6.8 1.75 10.69
5/20/2022 10:15:00 AM 10.84 51.512 0.032 6.78 1.73 10.66
5/20/2022 10:30:00 AM 10.89 51.602 0.032 6.8 1.76 10.65
5/20/2022 10:45:00 AM 10.98 51.764 0.032 6.81 1.75 10.67
5/20/2022 11:00:00 AM 11.06 51.908 0.032 6.83 1.68 10.68
5/20/2022 11:15:00 AM 11.12 52.016 0.032 6.84 1.68 10.66
5/20/2022 11:30:00 AM 11.25 52.25 0.032 6.85 1.74 10.67
5/20/2022 11:45:00 AM 11.31 52.358 0.032 6.86 1.66 10.63
5/20/2022 12:00:00 PM 11.38 52.484 0.032 6.84 1.72 10.6
5/20/2022 12:15:00 PM 11.52 52.736 0.031 6.86 1.74 10.61
5/20/2022 12:30:00 PM 11.72 53.096 0.031 6.87 1.68 10.59
5/20/2022 12:45:00 PM 11.82 53.276 0.031 6.88 1.78 10.54
5/20/2022 1:00:00 PM 11.92 53.456 0.031 6.87 1.66 10.5
5/20/2022 1:15:00 PM 11.93 53.474 0.031 6.85 1.73 10.42
5/20/2022 1:30:00 PM 12.06 53.708 0.031 6.87 1.83 10.43
5/20/2022 1:45:00 PM 12.29 54.122 0.031 6.87 1.72 10.43
5/20/2022 2:00:00 PM 12.33 54.194 0.031 6.87 1.79 10.4
5/20/2022 2:15:00 PM 12.29 54.122 0.031 6.84 1.67 10.3
5/20/2022 2:30:00 PM 12.28 54.104 0.032 6.82 2.03 10.22
5/20/2022 2:45:00 PM 12.26 54.068 0.032 6.8 1.68 10.21
5/20/2022 3:00:00 PM 12.24 54.032 0.032 6.78 1.71 10.22
5/20/2022 3:15:00 PM 12.28 54.104 0.032 6.8 1.69 10.28
5/20/2022 3:30:00 PM 12.29 54.122 0.032 6.81 1.66 10.25
5/20/2022 3:45:00 PM 12.35 54.23 0.032 6.81 1.78 10.28
5/20/2022 4:00:00 PM 12.36 54.248 0.032 6.83 1.7 10.23
5/20/2022 4:15:00 PM 12.37 54.266 0.032 6.83 1.7 10.22
5/20/2022 4:30:00 PM 12.39 54.302 0.032 6.83 1.71 10.23
5/20/2022 4:45:00 PM 12.38 54.284 0.032 6.84 1.68 10.22
5/20/2022 5:00:00 PM 12.36 54.248 0.032 6.83 1.73 10.2
5/20/2022 5:15:00 PM 12.35 54.23 0.032 6.83 1.7 10.22
5/20/2022 5:30:00 PM 12.33 54.194 0.032 6.82 1.69 10.22
5/20/2022 5:45:00 PM 12.32 54.176 0.032 6.81 1.85 10.21
5/20/2022 6:00:00 PM 12.3 54.14 0.032 6.79 1.71 10.18
5/20/2022 6:15:00 PM 12.29 54.122 0.032 6.79 1.67 10.17
5/20/2022 6:30:00 PM 12.28 54.104 0.032 6.77 1.69 10.14
5/20/2022 6:45:00 PM 12.27 54.086 0.032 6.76 1.97 10.11
5/20/2022 7:00:00 PM 12.26 54.068 0.032 6.74 1.68 10.11
5/20/2022 7:15:00 PM 12.26 54.068 0.032 6.74 1.74 10.11
5/20/2022 7:30:00 PM 12.26 54.068 0.032 6.73 1.78 10.1
5/20/2022 7:45:00 PM 12.26 54.068 0.032 6.73 1.77 10.09
5/20/2022 8:00:00 PM 12.26 54.068 0.032 6.72 1.74 10.08
5/20/2022 8:15:00 PM 12.25 54.05 0.033 6.71 1.68 10.06
5/20/2022 8:30:00 PM 12.23 54.014 0.033 6.71 1.66 10.05
5/20/2022 8:45:00 PM 12.22 53.996 0.033 6.7 1.75 10.06
5/20/2022 9:00:00 PM 12.19 53.942 0.033 6.67 1.77 10.06
5/20/2022 9:15:00 PM 12.17 53.906 0.033 6.68 1.8 10.06
5/20/2022 9:30:00 PM 12.14 53.852 0.033 6.66 1.78 10.06
5/20/2022 9:45:00 PM 12.11 53.798 0.033 6.67 1.88 10.08
5/20/2022 10:00:00 PM 12.08 53.744 0.033 6.65 1.94 10.08
5/20/2022 10:15:00 PM 12.06 53.708 0.033 6.65 1.85 10.09
5/20/2022 10:30:00 PM 12.04 53.672 0.033 6.66 1.85 10.09
5/20/2022 10:45:00 PM 12.02 53.636 0.033 6.65 1.84 10.1
5/20/2022 11:00:00 PM 12 53.6 0.033 6.64 1.87 10.1
5/20/2022 11:15:00 PM 11.99 53.582 0.033 6.65 1.84 10.1
5/20/2022 11:30:00 PM 11.97 53.546 0.033 6.65 1.81 10.11
5/20/2022 11:45:00 PM 11.96 53.528 0.033 6.65 1.82 10.12
5/21/2022 12:00:00 AM 11.94 53.492 0.033 6.66 1.82 10.12
5/21/2022 12:15:00 AM 11.93 53.474 0.033 6.66 1.8 10.12
5/21/2022 12:30:00 AM 11.91 53.438 0.033 6.64 1.78 10.13
5/21/2022 12:45:00 AM 11.89 53.402 0.033 6.65 1.83 10.14
5/21/2022 1:00:00 AM 11.87 53.366 0.033 6.64 1.87 10.14
5/21/2022 1:15:00 AM 11.85 53.33 0.033 6.64 1.77 10.15
5/21/2022 1:30:00 AM 11.83 53.294 0.033 6.66 1.92 10.15
5/21/2022 1:45:00 AM 11.81 53.258 0.033 6.65 1.8 10.16
5/21/2022 2:00:00 AM 11.79 53.222 0.033 6.65 1.79 10.17
5/21/2022 2:15:00 AM 11.77 53.186 0.033 6.65 1.75 10.17
5/21/2022 2:30:00 AM 11.75 53.15 0.033 6.66 1.79 10.18
5/21/2022 2:45:00 AM 11.73 53.114 0.033 6.65 1.79 10.18
5/21/2022 3:00:00 AM 11.72 53.096 0.033 6.65 1.87 10.19
5/21/2022 3:15:00 AM 11.7 53.06 0.033 6.65 1.87 10.2
5/21/2022 3:30:00 AM 11.68 53.024 0.033 6.65 1.8 10.2
5/21/2022 3:45:00 AM 11.66 52.988 0.033 6.65 1.82 10.2
5/21/2022 4:00:00 AM 11.65 52.97 0.033 6.65 1.9 10.21
5/21/2022 4:15:00 AM 11.63 52.934 0.033 6.67 1.82 10.21
5/21/2022 4:30:00 AM 11.61 52.898 0.033 6.67 1.86 10.22
5/21/2022 4:45:00 AM 11.59 52.862 0.033 6.66 1.85 10.22
5/21/2022 5:00:00 AM 11.58 52.844 0.033 6.67 1.83 10.23
5/21/2022 5:15:00 AM 11.56 52.808 0.033 6.67 1.86 10.23
5/21/2022 5:30:00 AM 11.54 52.772 0.033 6.68 1.85 10.24
5/21/2022 5:45:00 AM 11.52 52.736 0.033 6.66 1.86 10.25
5/21/2022 6:00:00 AM 11.5 52.7 0.033 6.67 1.82 10.26
5/21/2022 6:15:00 AM 11.48 52.664 0.033 6.68 1.82 10.28
5/21/2022 6:30:00 AM 11.47 52.646 0.033 6.68 1.85 10.3
5/21/2022 6:45:00 AM 11.46 52.628 0.033 6.68 1.85 10.32
5/21/2022 7:00:00 AM 11.45 52.61 0.033 6.68 1.77 10.35
5/21/2022 7:15:00 AM 11.45 52.61 0.032 6.68 1.85 10.38
5/21/2022 7:30:00 AM 11.46 52.628 0.032 6.69 1.79 10.4
5/21/2022 7:45:00 AM 11.46 52.628 0.032 6.7 1.79 10.42
5/21/2022 8:00:00 AM 11.47 52.646 0.032 6.71 1.83 10.45
5/21/2022 8:15:00 AM 11.49 52.682 0.032 6.7 1.78 10.47
5/21/2022 8:30:00 AM 11.5 52.7 0.032 6.7 1.71 10.47
5/21/2022 8:45:00 AM 11.53 52.754 0.032 6.72 1.75 10.5
5/21/2022 9:00:00 AM 11.56 52.808 0.032 6.7 1.71 10.51
5/21/2022 9:15:00 AM 11.58 52.844 0.032 6.72 1.71 10.48
5/21/2022 9:30:00 AM 11.62 52.916 0.032 6.74 1.79 10.47
5/21/2022 9:45:00 AM 11.65 52.97 0.032 6.73 1.68 10.46
5/21/2022 10:00:00 AM 11.69 53.042 0.032 6.75 1.71 10.46
5/21/2022 10:15:00 AM 11.76 53.168 0.032 6.77 1.75 10.46
5/21/2022 10:30:00 AM 11.85 53.33 0.032 6.77 1.81 10.45
5/21/2022 10:45:00 AM 11.96 53.528 0.032 6.8 1.75 10.45
5/21/2022 11:00:00 AM 12.07 53.726 0.032 6.8 1.78 10.43
5/21/2022 11:15:00 AM 12.22 53.996 0.032 6.82 1.73 10.42
5/21/2022 11:30:00 AM 12.37 54.266 0.032 6.83 1.72 10.39
5/21/2022 11:45:00 AM 12.53 54.554 0.032 6.84 1.79 10.37
5/21/2022 12:00:00 PM 12.73 54.914 0.032 6.83 1.8 10.34
5/21/2022 12:15:00 PM 12.9 55.22 0.032 6.85 1.78 10.32
5/21/2022 12:30:00 PM 13.11 55.598 0.032 6.85 1.72 10.28
5/21/2022 12:45:00 PM 13.33 55.994 0.032 6.86 1.71 10.23
5/21/2022 1:00:00 PM 13.54 56.372 0.032 6.86 1.72 10.2
5/21/2022 1:15:00 PM 13.75 56.75 0.032 6.87 1.72 10.15
5/21/2022 1:30:00 PM 13.96 57.128 0.031 6.88 1.7 10.11
5/21/2022 1:45:00 PM 14.02 57.236 0.031 6.86 1.73 10.06
5/21/2022 2:00:00 PM 14.28 57.704 0.031 6.89 1.7 10.03
5/21/2022 2:15:00 PM 14.34 57.812 0.031 6.88 1.7 9.98
5/21/2022 2:30:00 PM 14.39 57.902 0.031 6.88 1.7 9.94
5/21/2022 2:45:00 PM 14.52 58.136 0.031 6.88 1.68 9.93
5/21/2022 3:00:00 PM 14.63 58.334 0.031 6.87 1.7 9.89
5/21/2022 3:15:00 PM 14.71 58.478 0.031 6.88 1.69 9.85
5/21/2022 3:30:00 PM 14.77 58.586 0.032 6.87 1.71 9.82
5/21/2022 3:45:00 PM 14.84 58.712 0.032 6.87 1.74 9.79
5/21/2022 4:00:00 PM 14.89 58.802 0.032 6.88 1.7 9.77
5/21/2022 4:15:00 PM 14.91 58.838 0.032 6.88 1.73 9.75
5/21/2022 4:30:00 PM 14.9 58.82 0.032 6.87 1.8 9.72
5/21/2022 4:45:00 PM 14.9 58.82 0.032 6.87 1.69 9.7
5/21/2022 5:00:00 PM 14.88 58.784 0.032 6.86 1.74 9.7
5/21/2022 5:15:00 PM 14.86 58.748 0.032 6.86 1.71 9.69
5/21/2022 5:30:00 PM 14.82 58.676 0.032 6.86 1.69 9.68
5/21/2022 5:45:00 PM 14.8 58.64 0.032 6.86 1.76 9.66
5/21/2022 6:00:00 PM 14.77 58.586 0.032 6.83 1.72 9.65
5/21/2022 6:15:00 PM 14.74 58.532 0.032 6.83 1.73 9.64
5/21/2022 6:30:00 PM 14.71 58.478 0.032 6.8 1.7 9.61
5/21/2022 6:45:00 PM 14.68 58.424 0.032 6.8 1.66 9.61
5/21/2022 7:00:00 PM 14.64 58.352 0.032 6.79 1.72 9.6
5/21/2022 7:15:00 PM 14.6 58.28 0.033 6.79 1.76 9.59
5/21/2022 7:30:00 PM 14.55 58.19 0.033 6.77 1.8 9.58
5/21/2022 7:45:00 PM 14.48 58.064 0.033 6.75 1.76 9.58
5/21/2022 8:00:00 PM 14.43 57.974 0.033 6.75 1.79 9.59
5/21/2022 8:15:00 PM 14.37 57.866 0.033 6.73 1.72 9.58
5/21/2022 8:30:00 PM 14.31 57.758 0.033 6.74 1.77 9.59
5/21/2022 8:45:00 PM 14.25 57.65 0.033 6.74 1.76 9.6
5/21/2022 9:00:00 PM 14.2 57.56 0.033 6.73 1.79 9.61
5/21/2022 9:15:00 PM 14.16 57.488 0.033 6.72 1.82 9.62
5/21/2022 9:30:00 PM 14.12 57.416 0.033 6.72 1.82 9.63
5/21/2022 9:45:00 PM 14.08 57.344 0.033 6.71 1.86 9.64
5/21/2022 10:00:00 PM 14.04 57.272 0.033 6.7 1.83 9.65
5/21/2022 10:15:00 PM 14.01 57.218 0.033 6.7 1.82 9.66
5/21/2022 10:30:00 PM 13.97 57.146 0.033 6.67 1.83 9.67
5/21/2022 10:45:00 PM 13.93 57.074 0.033 6.71 1.79 9.68
5/21/2022 11:00:00 PM 13.9 57.02 0.033 6.71 1.81 9.69
5/21/2022 11:15:00 PM 13.88 56.984 0.033 6.68 1.85 9.69
5/21/2022 11:30:00 PM 13.86 56.948 0.033 6.69 1.8 9.69
5/21/2022 11:45:00 PM 13.85 56.93 0.033 6.71 1.82 9.69
5/22/2022 12:00:00 AM 13.84 56.912 0.033 6.66 1.84 9.7
5/22/2022 12:15:00 AM 13.83 56.894 0.033 6.68 1.83 9.7
5/22/2022 12:30:00 AM 13.81 56.858 0.033 6.7 1.85 9.71
5/22/2022 12:45:00 AM 13.78 56.804 0.033 6.69 1.8 9.72
5/22/2022 1:00:00 AM 13.75 56.75 0.033 6.66 1.78 9.72
5/22/2022 1:15:00 AM 13.72 56.696 0.033 6.66 1.74 9.73
5/22/2022 1:30:00 AM 13.69 56.642 0.033 6.63 1.83 9.73
5/22/2022 1:45:00 AM 13.66 56.588 0.033 6.64 1.76 9.74
5/22/2022 2:00:00 AM 13.64 56.552 0.033 6.65 1.82 9.74
5/22/2022 2:15:00 AM 13.62 56.516 0.033 6.66 1.83 9.75
5/22/2022 2:30:00 AM 13.59 56.462 0.033 6.66 1.8 9.76
5/22/2022 2:45:00 AM 13.56 56.408 0.033 6.66 1.78 9.76
5/22/2022 3:00:00 AM 13.52 56.336 0.033 6.64 1.85 9.77
5/22/2022 3:15:00 AM 13.49 56.282 0.033 6.67 1.84 9.77
5/22/2022 3:30:00 AM 13.46 56.228 0.033 6.68 1.79 9.78
5/22/2022 3:45:00 AM 13.42 56.156 0.033 6.68 1.88 9.78
5/22/2022 4:00:00 AM 13.38 56.084 0.033 6.68 1.86 9.79
5/22/2022 4:15:00 AM 13.34 56.012 0.033 6.69 1.81 9.8
5/22/2022 4:30:00 AM 13.31 55.958 0.033 6.69 1.84 9.81
5/22/2022 4:45:00 AM 13.27 55.886 0.033 6.69 1.87 9.82
5/22/2022 5:00:00 AM 13.24 55.832 0.033 6.68 1.84 9.83
5/22/2022 5:15:00 AM 13.21 55.778 0.033 6.68 1.94 9.84
5/22/2022 5:30:00 AM 13.18 55.724 0.033 6.69 1.85 9.85
5/22/2022 5:45:00 AM 13.14 55.652 0.033 6.7 1.78 9.86
5/22/2022 6:00:00 AM 13.1 55.58 0.033 6.68 1.86 9.88
5/22/2022 6:15:00 AM 13.06 55.508 0.033 6.7 1.73 9.9
5/22/2022 6:30:00 AM 13.03 55.454 0.033 6.71 1.77 9.93
5/22/2022 6:45:00 AM 13 55.4 0.033 6.71 1.79 9.95
5/22/2022 7:00:00 AM 12.97 55.346 0.033 6.71 1.72 9.97
5/22/2022 7:15:00 AM 12.94 55.292 0.033 6.71 1.78 9.99
5/22/2022 7:30:00 AM 12.93 55.274 0.032 6.72 1.8 10.03
5/22/2022 7:45:00 AM 12.93 55.274 0.032 6.72 1.82 10.07
5/22/2022 8:00:00 AM 12.93 55.274 0.032 6.73 1.78 10.09
5/22/2022 8:15:00 AM 12.94 55.292 0.032 6.73 1.7 10.1
5/22/2022 8:30:00 AM 12.94 55.292 0.032 6.71 1.75 10.1
5/22/2022 8:45:00 AM 12.93 55.274 0.032 6.73 1.72 10.09
5/22/2022 9:00:00 AM 12.95 55.31 0.032 6.74 1.74 10.11
5/22/2022 9:15:00 AM 12.96 55.328 0.032 6.74 1.71 10.14
5/22/2022 9:30:00 AM 12.98 55.364 0.032 6.76 1.74 10.15
5/22/2022 9:45:00 AM 12.99 55.382 0.032 6.75 1.72 10.14
5/22/2022 10:00:00 AM 13.03 55.454 0.032 6.77 1.65 10.17
5/22/2022 10:15:00 AM 13.06 55.508 0.032 6.78 1.67 10.17
5/22/2022 10:30:00 AM 13.15 55.67 0.032 6.8 1.67 10.17
5/22/2022 10:45:00 AM 13.21 55.778 0.032 6.8 1.67 10.18
5/22/2022 11:00:00 AM 13.3 55.94 0.032 6.83 1.68 10.16
5/22/2022 11:15:00 AM 13.4 56.12 0.032 6.83 1.7 10.15
5/22/2022 11:30:00 AM 13.55 56.39 0.032 6.84 1.75 10.14
5/22/2022 11:45:00 AM 13.67 56.606 0.032 6.85 1.65 10.12
5/22/2022 12:00:00 PM 13.81 56.858 0.032 6.84 1.65 10.1
5/22/2022 12:15:00 PM 13.96 57.128 0.032 6.86 1.71 10.07
5/22/2022 12:30:00 PM 14.12 57.416 0.032 6.86 1.65 10.03
5/22/2022 12:45:00 PM 14.29 57.722 0.032 6.87 1.66 10
5/22/2022 1:00:00 PM 14.47 58.046 0.032 6.86 1.66 9.97
5/22/2022 1:15:00 PM 14.66 58.388 0.032 6.87 1.61 9.93
5/22/2022 1:30:00 PM 14.82 58.676 0.032 6.88 1.65 9.9
5/22/2022 1:45:00 PM 14.83 58.694 0.032 6.86 1.65 9.84
5/22/2022 2:00:00 PM 14.85 58.73 0.032 6.85 1.6 9.78
5/22/2022 2:15:00 PM 14.85 58.73 0.032 6.85 1.69 9.75
5/22/2022 2:30:00 PM 14.93 58.874 0.032 6.83 1.69 9.76
5/22/2022 2:45:00 PM 14.85 58.73 0.032 6.82 1.66 9.7
5/22/2022 3:00:00 PM 14.82 58.676 0.032 6.81 1.73 9.68
5/22/2022 3:15:00 PM 14.83 58.694 0.032 6.82 1.65 9.72
5/22/2022 3:30:00 PM 14.87 58.766 0.032 6.82 1.66 9.73
5/22/2022 3:45:00 PM 14.93 58.874 0.032 6.83 1.68 9.72
5/22/2022 4:00:00 PM 14.96 58.928 0.032 6.84 1.6 9.71
5/22/2022 4:15:00 PM 15.04 59.072 0.032 6.83 1.67 9.7
5/22/2022 4:30:00 PM 15.07 59.126 0.032 6.83 1.7 9.68
5/22/2022 4:45:00 PM 15.08 59.144 0.032 6.84 1.66 9.69
5/22/2022 5:00:00 PM 15.06 59.108 0.032 6.84 1.64 9.67
5/22/2022 5:15:00 PM 14.98 58.964 0.032 6.82 1.7 9.64
5/22/2022 5:30:00 PM 14.93 58.874 0.032 6.83 1.64 9.61
5/22/2022 5:45:00 PM 14.9 58.82 0.032 6.81 1.7 9.6
5/22/2022 6:00:00 PM 14.85 58.73 0.032 6.8 1.69 9.59
5/22/2022 6:15:00 PM 14.8 58.64 0.032 6.8 1.7 9.6
5/22/2022 6:30:00 PM 14.76 58.568 0.032 6.82 1.72 9.62
5/22/2022 6:45:00 PM 14.75 58.55 0.032 6.83 1.68 9.62
5/22/2022 7:00:00 PM 14.71 58.478 0.033 6.81 1.68 9.59
5/22/2022 7:15:00 PM 14.69 58.442 0.033 6.8 1.62 9.57
5/22/2022 7:30:00 PM 14.65 58.37 0.033 6.79 1.71 9.56
5/22/2022 7:45:00 PM 14.6 58.28 0.033 6.79 1.66 9.57
5/22/2022 8:00:00 PM 14.55 58.19 0.033 6.76 1.63 9.56
5/22/2022 8:15:00 PM 14.5 58.1 0.033 6.77 1.71 9.57
5/22/2022 8:30:00 PM 14.45 58.01 0.033 6.77 1.65 9.58
5/22/2022 8:45:00 PM 14.41 57.938 0.033 6.74 1.74 9.58
5/22/2022 9:00:00 PM 14.37 57.866 0.033 6.75 1.7 9.59
5/22/2022 9:15:00 PM 14.34 57.812 0.033 6.75 1.69 9.6
5/22/2022 9:30:00 PM 14.3 57.74 0.033 6.75 1.7 9.61
5/22/2022 9:45:00 PM 14.26 57.668 0.033 6.75 1.75 9.62
5/22/2022 10:00:00 PM 14.22 57.596 0.033 6.74 1.73 9.64
5/22/2022 10:15:00 PM 14.18 57.524 0.033 6.74 1.74 9.65
5/22/2022 10:30:00 PM 14.13 57.434 0.033 6.75 1.83 9.66
5/22/2022 10:45:00 PM 14.07 57.326 0.033 6.74 1.83 9.67
5/22/2022 11:00:00 PM 14 57.2 0.033 6.73 1.77 9.69
5/22/2022 11:15:00 PM 13.92 57.056 0.033 6.74 1.77 9.71
5/22/2022 11:30:00 PM 13.84 56.912 0.033 6.74 1.79 9.73
5/22/2022 11:45:00 PM 13.76 56.768 0.033 6.75 1.93 9.75
5/23/2022 12:00:00 AM 13.69 56.642 0.033 6.74 1.75 9.77
5/23/2022 12:15:00 AM 13.61 56.498 0.033 6.74 1.77 9.79
5/23/2022 12:30:00 AM 13.54 56.372 0.033 6.74 1.77 9.81
5/23/2022 12:45:00 AM 13.46 56.228 0.033 6.75 1.8 9.82
5/23/2022 1:00:00 AM 13.38 56.084 0.033 6.75 1.78 9.84
5/23/2022 1:15:00 AM 13.31 55.958 0.033 6.74 1.77 9.85
5/23/2022 1:30:00 AM 13.24 55.832 0.033 6.75 1.91 9.87
5/23/2022 1:45:00 AM 13.16 55.688 0.033 6.73 1.87 9.89
5/23/2022 2:00:00 AM 13.09 55.562 0.033 6.75 1.8 9.91
5/23/2022 2:15:00 AM 13.02 55.436 0.033 6.75 1.82 9.93
5/23/2022 2:30:00 AM 12.94 55.292 0.033 6.76 1.79 9.95
5/23/2022 2:45:00 AM 12.87 55.166 0.033 6.76 1.84 9.97
5/23/2022 3:00:00 AM 12.8 55.04 0.033 6.74 1.87 9.98
5/23/2022 3:15:00 AM 12.73 54.914 0.033 6.75 1.82 9.99
5/23/2022 3:30:00 AM 12.66 54.788 0.033 6.74 1.93 10.02
5/23/2022 3:45:00 AM 12.6 54.68 0.033 6.73 1.85 10.02
5/23/2022 4:00:00 AM 12.54 54.572 0.033 6.72 1.86 10.05
5/23/2022 4:15:00 AM 12.48 54.464 0.033 6.74 1.83 10.05
5/23/2022 4:30:00 AM 12.43 54.374 0.033 6.74 1.86 10.07
5/23/2022 4:45:00 AM 12.37 54.266 0.033 6.75 1.86 10.08
5/23/2022 5:00:00 AM 12.31 54.158 0.033 6.74 1.84 10.1
5/23/2022 5:15:00 AM 12.26 54.068 0.033 6.74 1.79 10.11
5/23/2022 5:30:00 AM 12.21 53.978 0.033 6.74 1.81 10.12
5/23/2022 5:45:00 AM 12.17 53.906 0.033 6.74 1.79 10.14
5/23/2022 6:00:00 AM 12.13 53.834 0.033 6.74 1.83 10.15
5/23/2022 6:15:00 AM 12.09 53.762 0.033 6.74 1.8 10.17
5/23/2022 6:30:00 AM 12.06 53.708 0.033 6.74 1.78 10.19
5/23/2022 6:45:00 AM 12.03 53.654 0.033 6.72 1.79 10.21
5/23/2022 7:00:00 AM 12.01 53.618 0.033 6.75 1.81 10.23
5/23/2022 7:15:00 AM 12 53.6 0.033 6.75 1.82 10.26
5/23/2022 7:30:00 AM 11.99 53.582 0.033 6.74 1.92 10.3
5/23/2022 7:45:00 AM 11.98 53.564 0.033 6.77 1.99 10.31
5/23/2022 8:00:00 AM 11.97 53.546 0.033 6.77 1.74 10.3
5/23/2022 8:15:00 AM 11.96 53.528 0.032 6.77 1.78 10.31
5/23/2022 8:30:00 AM 11.96 53.528 0.032 6.77 1.8 10.31
5/23/2022 8:45:00 AM 11.96 53.528 0.032 6.78 1.74 10.32
5/23/2022 9:00:00 AM 11.97 53.546 0.032 6.78 1.71 10.33
5/23/2022 9:15:00 AM 11.99 53.582 0.032 6.78 1.71 10.36
5/23/2022 9:30:00 AM 12.01 53.618 0.032 6.8 1.77 10.38
5/23/2022 9:45:00 AM 12.03 53.654 0.032 6.81 1.75 10.38
5/23/2022 10:00:00 AM 12.07 53.726 0.032 6.82 1.75 10.4
5/23/2022 10:15:00 AM 12.11 53.798 0.032 6.83 1.71 10.42
5/23/2022 10:30:00 AM 12.15 53.87 0.032 6.84 1.74 10.42
5/23/2022 10:45:00 AM 12.19 53.942 0.032 6.84 1.69 10.43
5/23/2022 11:00:00 AM 12.26 54.068 0.032 6.82 1.73 10.43
5/23/2022 11:15:00 AM 12.32 54.176 0.032 6.84 1.74 10.43
5/23/2022 11:30:00 AM 12.38 54.284 0.032 6.85 1.7 10.44
5/23/2022 11:45:00 AM 12.45 54.41 0.032 6.85 1.73 10.44
5/23/2022 12:00:00 PM 12.54 54.572 0.032 6.86 1.72 10.43
5/23/2022 12:15:00 PM 12.6 54.68 0.032 6.86 1.75 10.42
5/23/2022 12:30:00 PM 12.64 54.752 0.032 6.87 1.69 10.41
5/23/2022 12:45:00 PM 12.74 54.932 0.032 6.88 1.72 10.4
5/23/2022 1:00:00 PM 12.87 55.166 0.032 6.88 1.68 10.38
5/23/2022 1:15:00 PM 12.95 55.31 0.032 6.87 1.66 10.36
5/23/2022 1:30:00 PM 13.03 55.454 0.032 6.87 1.69 10.34
5/23/2022 1:45:00 PM 13.09 55.562 0.032 6.88 1.73 10.32
5/23/2022 2:00:00 PM 13.17 55.706 0.032 6.88 1.7 10.31
5/23/2022 2:15:00 PM 13.21 55.778 0.032 6.88 1.7 10.28
5/23/2022 2:30:00 PM 13.25 55.85 0.032 6.88 1.72 10.26
5/23/2022 2:45:00 PM 13.27 55.886 0.032 6.88 1.71 10.25
5/23/2022 3:00:00 PM 13.3 55.94 0.032 6.88 1.66 10.23
5/23/2022 3:15:00 PM 13.31 55.958 0.032 6.87 1.65 10.21
5/23/2022 3:30:00 PM 13.32 55.976 0.032 6.87 1.73 10.19
5/23/2022 3:45:00 PM 13.32 55.976 0.032 6.87 1.67 10.18
5/23/2022 4:00:00 PM 13.31 55.958 0.032 6.87 1.75 10.17
5/23/2022 4:15:00 PM 13.3 55.94 0.032 6.87 1.68 10.16
5/23/2022 4:30:00 PM 13.29 55.922 0.032 6.86 1.71 10.16
5/23/2022 4:45:00 PM 13.26 55.868 0.032 6.86 1.65 10.14
5/23/2022 5:00:00 PM 13.25 55.85 0.032 6.84 1.67 10.13
5/23/2022 5:15:00 PM 13.24 55.832 0.032 6.83 1.69 10.12
5/23/2022 5:30:00 PM 13.22 55.796 0.032 6.83 1.76 10.11
5/23/2022 5:45:00 PM 13.19 55.742 0.032 6.82 1.67 10.09
5/23/2022 6:00:00 PM 13.17 55.706 0.032 6.82 1.69 10.09
5/23/2022 6:15:00 PM 13.14 55.652 0.032 6.81 1.66 10.07
5/23/2022 6:30:00 PM 13.11 55.598 0.032 6.8 1.64 10.04
5/23/2022 6:45:00 PM 13.08 55.544 0.032 6.8 1.75 10.03
5/23/2022 7:00:00 PM 13.05 55.49 0.033 6.79 1.71 10.01
5/23/2022 7:15:00 PM 13.03 55.454 0.033 6.78 1.76 9.99
5/23/2022 7:30:00 PM 13.02 55.436 0.033 6.75 1.75 9.99
5/23/2022 7:45:00 PM 12.99 55.382 0.033 6.76 1.67 9.98
5/23/2022 8:00:00 PM 12.96 55.328 0.033 6.75 1.72 9.97
5/23/2022 8:15:00 PM 12.93 55.274 0.033 6.74 1.72 9.96
5/23/2022 8:30:00 PM 12.9 55.22 0.033 6.76 1.75 9.96
5/23/2022 8:45:00 PM 12.87 55.166 0.033 6.75 1.74 9.97
5/23/2022 9:00:00 PM 12.83 55.094 0.033 6.73 1.78 9.97
5/23/2022 9:15:00 PM 12.8 55.04 0.033 6.75 1.76 9.98
5/23/2022 9:30:00 PM 12.75 54.95 0.033 6.75 1.74 9.99
5/23/2022 9:45:00 PM 12.71 54.878 0.033 6.75 1.83 10
5/23/2022 10:00:00 PM 12.66 54.788 0.033 6.75 1.84 10.01
5/23/2022 10:15:00 PM 12.61 54.698 0.033 6.74 1.79 10.02
5/23/2022 10:30:00 PM 12.56 54.608 0.033 6.74 1.77 10.03
5/23/2022 10:45:00 PM 12.51 54.518 0.033 6.73 1.79 10.05
5/23/2022 11:00:00 PM 12.47 54.446 0.033 6.74 1.82 10.06
5/23/2022 11:15:00 PM 12.43 54.374 0.033 6.74 1.85 10.07
5/23/2022 11:30:00 PM 12.39 54.302 0.033 6.71 1.81 10.08
5/23/2022 11:45:00 PM 12.35 54.23 0.033 6.72 1.79 10.09
5/24/2022 12:00:00 AM 12.31 54.158 0.033 6.72 1.83 10.1
5/24/2022 12:15:00 AM 12.28 54.104 0.033 6.72 1.81 10.11
5/24/2022 12:30:00 AM 12.25 54.05 0.033 6.72 1.81 10.12
5/24/2022 12:45:00 AM 12.22 53.996 0.033 6.72 1.77 10.13
5/24/2022 1:00:00 AM 12.19 53.942 0.033 6.73 1.8 10.13
5/24/2022 1:15:00 AM 12.17 53.906 0.033 6.73 1.78 10.14
5/24/2022 1:30:00 AM 12.15 53.87 0.033 6.73 1.77 10.15
5/24/2022 1:45:00 AM 12.12 53.816 0.033 6.73 1.87 10.15
5/24/2022 2:00:00 AM 12.09 53.762 0.033 6.73 1.88 10.16
5/24/2022 2:15:00 AM 12.07 53.726 0.033 6.73 1.84 10.16
5/24/2022 2:30:00 AM 12.03 53.654 0.033 6.73 1.8 10.17
5/24/2022 2:45:00 AM 12 53.6 0.033 6.72 1.81 10.17
5/24/2022 3:00:00 AM 11.97 53.546 0.033 6.73 1.79 10.18
5/24/2022 3:15:00 AM 11.93 53.474 0.033 6.71 1.85 10.19
5/24/2022 3:30:00 AM 11.89 53.402 0.033 6.72 1.85 10.2
5/24/2022 3:45:00 AM 11.85 53.33 0.033 6.72 1.77 10.21
5/24/2022 4:00:00 AM 11.8 53.24 0.033 6.72 1.84 10.22
5/24/2022 4:15:00 AM 11.76 53.168 0.033 6.72 1.89 10.22
5/24/2022 4:30:00 AM 11.71 53.078 0.033 6.72 1.9 10.24
5/24/2022 4:45:00 AM 11.66 52.988 0.033 6.72 1.88 10.25
5/24/2022 5:00:00 AM 11.61 52.898 0.033 6.72 1.91 10.26
5/24/2022 5:15:00 AM 11.56 52.808 0.033 6.7 1.89 10.28
5/24/2022 5:30:00 AM 11.51 52.718 0.033 6.72 1.8 10.29
5/24/2022 5:45:00 AM 11.47 52.646 0.033 6.72 1.84 10.3
5/24/2022 6:00:00 AM 11.43 52.574 0.033 6.73 1.86 10.32
5/24/2022 6:15:00 AM 11.4 52.52 0.033 6.73 1.83 10.35
5/24/2022 6:30:00 AM 11.38 52.484 0.033 6.73 1.79 10.36
5/24/2022 6:45:00 AM 11.36 52.448 0.033 6.73 1.82 10.39
5/24/2022 7:00:00 AM 11.35 52.43 0.033 6.73 1.73 10.42
5/24/2022 7:15:00 AM 11.34 52.412 0.033 6.75 1.76 10.44
5/24/2022 7:30:00 AM 11.34 52.412 0.033 6.75 1.75 10.44
5/24/2022 7:45:00 AM 11.33 52.394 0.032 6.76 1.75 10.45
5/24/2022 8:00:00 AM 11.33 52.394 0.032 6.75 1.74 10.46
5/24/2022 8:15:00 AM 11.33 52.394 0.032 6.76 1.79 10.47
5/24/2022 8:30:00 AM 11.34 52.412 0.032 6.76 1.85 10.48
5/24/2022 8:45:00 AM 11.34 52.412 0.032 6.77 1.77 10.49
5/24/2022 9:00:00 AM 11.35 52.43 0.032 6.75 1.77 10.5
5/24/2022 9:15:00 AM 11.36 52.448 0.032 6.77 1.8 10.5
5/24/2022 9:30:00 AM 11.38 52.484 0.032 6.79 1.74 10.53
5/24/2022 9:45:00 AM 11.4 52.52 0.032 6.78 1.77 10.54
5/24/2022 10:00:00 AM 11.42 52.556 0.032 6.79 1.76 10.54
5/24/2022 10:15:00 AM 11.44 52.592 0.032 6.79 1.77 10.55
5/24/2022 10:30:00 AM 11.47 52.646 0.032 6.8 1.76 10.57
5/24/2022 10:45:00 AM 11.51 52.718 0.032 6.81 1.74 10.57
5/24/2022 11:00:00 AM 11.54 52.772 0.032 6.82 1.77 10.57
5/24/2022 11:15:00 AM 11.56 52.808 0.032 6.82 1.75 10.55
5/24/2022 11:30:00 AM 11.58 52.844 0.032 6.79 1.78 10.54
5/24/2022 11:45:00 AM 11.6 52.88 0.032 6.8 1.73 10.53
5/24/2022 12:00:00 PM 11.62 52.916 0.032 6.8 1.75 10.53
5/24/2022 12:15:00 PM 11.66 52.988 0.032 6.81 1.77 10.54
5/24/2022 12:30:00 PM 11.71 53.078 0.032 6.83 1.77 10.56
5/24/2022 12:45:00 PM 11.8 53.24 0.032 6.82 1.69 10.58
5/24/2022 1:00:00 PM 11.85 53.33 0.032 6.85 1.76 10.57
5/24/2022 1:15:00 PM 11.9 53.42 0.032 6.84 1.74 10.55
5/24/2022 1:30:00 PM 11.9 53.42 0.032 6.82 1.68 10.5
5/24/2022 1:45:00 PM 11.94 53.492 0.032 6.82 1.69 10.5
5/24/2022 2:00:00 PM 11.94 53.492 0.032 6.83 1.73 10.45
5/24/2022 2:15:00 PM 11.96 53.528 0.032 6.82 1.71 10.45
5/24/2022 2:30:00 PM 12.01 53.618 0.032 6.83 1.72 10.47
5/24/2022 2:45:00 PM 12 53.6 0.032 6.83 1.7 10.45
5/24/2022 3:00:00 PM 11.99 53.582 0.032 6.82 1.8 10.38
5/24/2022 3:15:00 PM 11.97 53.546 0.032 6.78 1.75 10.36
5/24/2022 3:30:00 PM 11.95 53.51 0.032 6.79 1.73 10.36
5/24/2022 3:45:00 PM 11.95 53.51 0.032 6.78 1.7 10.38
5/24/2022 4:00:00 PM 11.93 53.474 0.032 6.79 1.73 10.38
5/24/2022 4:15:00 PM 11.92 53.456 0.032 6.78 1.78 10.38
5/24/2022 4:30:00 PM 11.93 53.474 0.032 6.79 1.76 10.4
5/24/2022 4:45:00 PM 11.95 53.51 0.032 6.81 1.73 10.43
5/24/2022 5:00:00 PM 11.97 53.546 0.032 6.81 1.77 10.42
5/24/2022 5:15:00 PM 11.98 53.564 0.032 6.81 1.72 10.41
5/24/2022 5:30:00 PM 11.99 53.582 0.032 6.81 1.77 10.38
5/24/2022 5:45:00 PM 11.99 53.582 0.032 6.77 1.75 10.33
5/24/2022 6:00:00 PM 11.98 53.564 0.033 6.79 1.76 10.3
5/24/2022 6:15:00 PM 11.97 53.546 0.033 6.78 1.73 10.28
5/24/2022 6:30:00 PM 11.95 53.51 0.033 6.77 1.78 10.27
5/24/2022 6:45:00 PM 11.94 53.492 0.033 6.76 1.74 10.27
5/24/2022 7:00:00 PM 11.92 53.456 0.033 6.76 1.74 10.26
5/24/2022 7:15:00 PM 11.9 53.42 0.033 6.75 1.75 10.26
5/24/2022 7:30:00 PM 11.89 53.402 0.033 6.74 1.67 10.25
5/24/2022 7:45:00 PM 11.87 53.366 0.033 6.74 1.77 10.25
5/24/2022 8:00:00 PM 11.85 53.33 0.033 6.72 1.77 10.25
5/24/2022 8:15:00 PM 11.83 53.294 0.033 6.72 1.76 10.25
5/24/2022 8:30:00 PM 11.81 53.258 0.033 6.68 1.82 10.25
5/24/2022 8:45:00 PM 11.8 53.24 0.033 6.71 1.83 10.25
5/24/2022 9:00:00 PM 11.79 53.222 0.033 6.7 1.8 10.25
5/24/2022 9:15:00 PM 11.77 53.186 0.033 6.7 1.78 10.25
5/24/2022 9:30:00 PM 11.76 53.168 0.033 6.7 1.81 10.25
5/24/2022 9:45:00 PM 11.75 53.15 0.033 6.7 1.84 10.25
5/24/2022 10:00:00 PM 11.74 53.132 0.033 6.7 1.83 10.26
5/24/2022 10:15:00 PM 11.72 53.096 0.033 6.7 1.85 10.27
5/24/2022 10:30:00 PM 11.71 53.078 0.033 6.7 1.88 10.26
5/24/2022 10:45:00 PM 11.69 53.042 0.033 6.7 1.86 10.27
5/24/2022 11:00:00 PM 11.68 53.024 0.033 6.7 1.79 10.27
5/24/2022 11:15:00 PM 11.66 52.988 0.033 6.7 1.81 10.28
5/24/2022 11:30:00 PM 11.64 52.952 0.033 6.7 1.78 10.28
5/24/2022 11:45:00 PM 11.62 52.916 0.033 6.7 1.89 10.29
5/25/2022 12:00:00 AM 11.6 52.88 0.033 6.7 1.83 10.3
5/25/2022 12:15:00 AM 11.58 52.844 0.033 6.68 1.79 10.3
5/25/2022 12:30:00 AM 11.56 52.808 0.033 6.71 1.86 10.31
5/25/2022 12:45:00 AM 11.54 52.772 0.033 6.69 1.82 10.31
5/25/2022 1:00:00 AM 11.52 52.736 0.033 6.71 1.88 10.32
5/25/2022 1:15:00 AM 11.5 52.7 0.033 6.7 1.89 10.32
5/25/2022 1:30:00 AM 11.48 52.664 0.033 6.7 1.81 10.32
5/25/2022 1:45:00 AM 11.46 52.628 0.033 6.7 1.86 10.33
5/25/2022 2:00:00 AM 11.43 52.574 0.033 6.71 1.86 10.34
5/25/2022 2:15:00 AM 11.41 52.538 0.033 6.7 1.87 10.34
5/25/2022 2:30:00 AM 11.38 52.484 0.033 6.71 1.88 10.34
5/25/2022 2:45:00 AM 11.35 52.43 0.033 6.71 1.9 10.36
5/25/2022 3:00:00 AM 11.32 52.376 0.033 6.71 1.93 10.36
5/25/2022 3:15:00 AM 11.29 52.322 0.033 6.71 1.86 10.37
5/25/2022 3:30:00 AM 11.26 52.268 0.033 6.71 1.84 10.38
5/25/2022 3:45:00 AM 11.22 52.196 0.033 6.71 1.9 10.39
5/25/2022 4:00:00 AM 11.19 52.142 0.033 6.71 1.92 10.4
5/25/2022 4:15:00 AM 11.16 52.088 0.033 6.69 1.83 10.41
5/25/2022 4:30:00 AM 11.13 52.034 0.033 6.71 1.92 10.41
5/25/2022 4:45:00 AM 11.09 51.962 0.033 6.71 1.89 10.43
5/25/2022 5:00:00 AM 11.06 51.908 0.033 6.71 1.85 10.43
5/25/2022 5:15:00 AM 11.03 51.854 0.033 6.71 1.87 10.44
5/25/2022 5:30:00 AM 11 51.8 0.033 6.7 1.85 10.45
5/25/2022 5:45:00 AM 10.97 51.746 0.033 6.7 1.84 10.46
5/25/2022 6:00:00 AM 10.94 51.692 0.033 6.71 1.82 10.48
5/25/2022 6:15:00 AM 10.91 51.638 0.033 6.71 1.84 10.5
5/25/2022 6:30:00 AM 10.89 51.602 0.033 6.69 1.87 10.51
5/25/2022 6:45:00 AM 10.88 51.584 0.033 6.72 1.83 10.54
5/25/2022 7:00:00 AM 10.87 51.566 0.033 6.72 1.81 10.57
5/25/2022 7:15:00 AM 10.87 51.566 0.033 6.72 1.8 10.59
5/25/2022 7:30:00 AM 10.87 51.566 0.033 6.74 1.9 10.61
5/25/2022 7:45:00 AM 10.87 51.566 0.033 6.73 1.82 10.61
5/25/2022 8:00:00 AM 10.88 51.584 0.033 6.72 1.81 10.62
5/25/2022 8:15:00 AM 10.9 51.62 0.033 6.73 1.82 10.63
5/25/2022 8:30:00 AM 10.92 51.656 0.033 6.74 1.8 10.64
5/25/2022 8:45:00 AM 10.97 51.746 0.033 6.75 1.75 10.68
5/25/2022 9:00:00 AM 11 51.8 0.032 6.77 1.8 10.68
5/25/2022 9:15:00 AM 11.04 51.872 0.032 6.78 1.81 10.66
5/25/2022 9:30:00 AM 11.08 51.944 0.032 6.77 1.75 10.64
5/25/2022 9:45:00 AM 11.14 52.052 0.032 6.77 1.73 10.63
5/25/2022 10:00:00 AM 11.19 52.142 0.032 6.77 1.73 10.64
5/25/2022 10:15:00 AM 11.25 52.25 0.032 6.78 1.75 10.63
5/25/2022 10:30:00 AM 11.32 52.376 0.032 6.79 1.73 10.61
5/25/2022 10:45:00 AM 11.4 52.52 0.032 6.8 1.72 10.6
5/25/2022 11:00:00 AM 11.49 52.682 0.032 6.8 1.72 10.59
5/25/2022 11:15:00 AM 11.6 52.88 0.032 6.8 1.7 10.56
5/25/2022 11:30:00 AM 11.71 53.078 0.032 6.81 1.71 10.55
5/25/2022 11:45:00 AM 11.85 53.33 0.032 6.82 2.22 10.54
5/25/2022 12:00:00 PM 12 53.6 0.032 6.82 1.69 10.51
5/25/2022 12:15:00 PM 12.14 53.852 0.032 6.82 1.68 10.49
5/25/2022 12:30:00 PM 12.3 54.14 0.032 6.82 1.68 10.46
5/25/2022 12:45:00 PM 12.46 54.428 0.032 6.82 1.67 10.44
5/25/2022 1:00:00 PM 12.55 54.59 0.032 6.83 1.68 10.42
5/25/2022 1:15:00 PM 12.68 54.824 0.032 6.84 1.7 10.42
5/25/2022 1:30:00 PM 12.84 55.112 0.032 6.84 1.72 10.39
5/25/2022 1:45:00 PM 12.96 55.328 0.032 6.83 1.67 10.34
5/25/2022 2:00:00 PM 12.99 55.382 0.032 6.84 1.66 10.32
5/25/2022 2:15:00 PM 13.05 55.49 0.032 6.84 1.76 10.31
5/25/2022 2:30:00 PM 13.12 55.616 0.032 6.85 1.65 10.28
5/25/2022 2:45:00 PM 13.15 55.67 0.032 6.84 1.69 10.26
5/25/2022 3:00:00 PM 13.17 55.706 0.032 6.85 1.69 10.24
5/25/2022 3:15:00 PM 13.2 55.76 0.032 6.84 1.68 10.22
5/25/2022 3:30:00 PM 13.23 55.814 0.032 6.84 1.64 10.19
5/25/2022 3:45:00 PM 13.26 55.868 0.032 6.84 1.7 10.18
5/25/2022 4:00:00 PM 13.28 55.904 0.032 6.83 1.75 10.14
5/25/2022 4:15:00 PM 13.31 55.958 0.032 6.83 1.71 10.1
5/25/2022 4:30:00 PM 13.33 55.994 0.032 6.82 1.68 10.1
5/25/2022 4:45:00 PM 13.32 55.976 0.032 6.82 1.79 10.06
5/25/2022 5:00:00 PM 13.3 55.94 0.032 6.81 1.7 10.04
5/25/2022 5:15:00 PM 13.28 55.904 0.032 6.81 1.76 10.04
5/25/2022 5:30:00 PM 13.24 55.832 0.032 6.8 1.71 10.01
5/25/2022 5:45:00 PM 13.21 55.778 0.032 6.8 1.73 10
5/25/2022 6:00:00 PM 13.17 55.706 0.032 6.81 1.69 10.01
5/25/2022 6:15:00 PM 13.13 55.634 0.033 6.79 1.7 10
5/25/2022 6:30:00 PM 13.09 55.562 0.033 6.77 1.7 10
5/25/2022 6:45:00 PM 13.06 55.508 0.033 6.78 1.7 10
5/25/2022 7:00:00 PM 13.03 55.454 0.033 6.77 1.69 9.99
5/25/2022 7:15:00 PM 12.99 55.382 0.033 6.78 1.73 10
5/25/2022 7:30:00 PM 12.97 55.346 0.033 6.77 1.7 10
5/25/2022 7:45:00 PM 12.94 55.292 0.033 6.76 1.73 9.99
5/25/2022 8:00:00 PM 12.91 55.238 0.033 6.76 1.72 9.98
5/25/2022 8:15:00 PM 12.88 55.184 0.033 6.75 1.74 9.97
5/25/2022 8:30:00 PM 12.86 55.148 0.033 6.74 1.67 9.97
5/25/2022 8:45:00 PM 12.84 55.112 0.033 6.72 1.77 9.97
5/25/2022 9:00:00 PM 12.82 55.076 0.033 6.73 1.73 9.97
5/25/2022 9:15:00 PM 12.8 55.04 0.033 6.73 1.83 9.97
5/25/2022 9:30:00 PM 12.79 55.022 0.033 6.73 1.73 9.97
5/25/2022 9:45:00 PM 12.77 54.986 0.033 6.74 1.75 9.97
5/25/2022 10:00:00 PM 12.75 54.95 0.033 6.73 1.77 9.98
5/25/2022 10:15:00 PM 12.73 54.914 0.033 6.74 1.79 9.98
5/25/2022 10:30:00 PM 12.72 54.896 0.033 6.74 1.85 9.99
5/25/2022 10:45:00 PM 12.7 54.86 0.033 6.7 1.79 9.99
5/25/2022 11:00:00 PM 12.69 54.842 0.033 6.73 1.79 9.99
5/25/2022 11:15:00 PM 12.67 54.806 0.033 6.74 1.78 9.99
5/25/2022 11:30:00 PM 12.66 54.788 0.033 6.72 1.75 10
5/25/2022 11:45:00 PM 12.65 54.77 0.033 6.74 1.82 10.01
5/26/2022 12:00:00 AM 12.63 54.734 0.033 6.74 1.8 10.01
5/26/2022 12:15:00 AM 12.61 54.698 0.033 6.75 1.81 10.01
5/26/2022 12:30:00 AM 12.59 54.662 0.033 6.74 1.82 10.02
5/26/2022 12:45:00 AM 12.56 54.608 0.033 6.74 1.88 10.02
5/26/2022 1:00:00 AM 12.54 54.572 0.033 6.74 1.77 10.03
5/26/2022 1:15:00 AM 12.53 54.554 0.033 6.73 1.8 10.03
5/26/2022 1:30:00 AM 12.51 54.518 0.033 6.74 1.83 10.04
5/26/2022 1:45:00 AM 12.49 54.482 0.033 6.73 1.89 10.04
5/26/2022 2:00:00 AM 12.47 54.446 0.033 6.74 1.91 10.05
5/26/2022 2:15:00 AM 12.45 54.41 0.033 6.71 1.85 10.05
5/26/2022 2:30:00 AM 12.43 54.374 0.033 6.74 1.91 10.05
5/26/2022 2:45:00 AM 12.41 54.338 0.033 6.71 1.83 10.06
5/26/2022 3:00:00 AM 12.38 54.284 0.033 6.73 1.9 10.06
5/26/2022 3:15:00 AM 12.35 54.23 0.033 6.74 1.83 10.07
5/26/2022 3:30:00 AM 12.33 54.194 0.033 6.73 1.85 10.07
5/26/2022 3:45:00 AM 12.3 54.14 0.033 6.75 1.89 10.08
5/26/2022 4:00:00 AM 12.28 54.104 0.033 6.74 1.83 10.08
5/26/2022 4:15:00 AM 12.26 54.068 0.033 6.74 1.89 10.09
5/26/2022 4:30:00 AM 12.24 54.032 0.033 6.73 1.9 10.09
5/26/2022 4:45:00 AM 12.21 53.978 0.033 6.73 1.92 10.1
5/26/2022 5:00:00 AM 12.19 53.942 0.033 6.72 1.85 10.11
5/26/2022 5:15:00 AM 12.17 53.906 0.033 6.73 1.87 10.11
5/26/2022 5:30:00 AM 12.15 53.87 0.033 6.72 1.85 10.12
5/26/2022 5:45:00 AM 12.13 53.834 0.033 6.72 1.87 10.13
5/26/2022 6:00:00 AM 12.1 53.78 0.033 6.7 1.82 10.14
5/26/2022 6:15:00 AM 12.09 53.762 0.033 6.73 1.82 10.16
5/26/2022 6:30:00 AM 12.07 53.726 0.033 6.71 1.83 10.17
5/26/2022 6:45:00 AM 12.06 53.708 0.033 6.73 1.85 10.19
5/26/2022 7:00:00 AM 12.04 53.672 0.033 6.74 1.83 10.2
5/26/2022 7:15:00 AM 12.02 53.636 0.033 6.74 1.81 10.22
5/26/2022 7:30:00 AM 12.01 53.618 0.033 6.75 1.8 10.25
5/26/2022 7:45:00 AM 11.99 53.582 0.033 6.76 1.8 10.27
5/26/2022 8:00:00 AM 11.97 53.546 0.033 6.76 1.77 10.29
5/26/2022 8:15:00 AM 11.95 53.51 0.033 6.77 1.8 10.3
5/26/2022 8:30:00 AM 11.94 53.492 0.033 6.77 1.77 10.32
5/26/2022 8:45:00 AM 11.93 53.474 0.033 6.78 1.75 10.33
5/26/2022 9:00:00 AM 11.95 53.51 0.033 6.79 1.73 10.36
5/26/2022 9:15:00 AM 11.97 53.546 0.033 6.8 1.74 10.38
5/26/2022 9:30:00 AM 12.01 53.618 0.032 6.81 1.76 10.39
5/26/2022 9:45:00 AM 12.02 53.636 0.032 6.81 1.77 10.39
5/26/2022 10:00:00 AM 12.04 53.672 0.032 6.79 1.81 10.39
5/26/2022 10:15:00 AM 12.07 53.726 0.032 6.81 1.75 10.38
5/26/2022 10:30:00 AM 12.12 53.816 0.032 6.79 1.79 10.37
5/26/2022 10:45:00 AM 12.19 53.942 0.032 6.81 1.72 10.35
5/26/2022 11:00:00 AM 12.27 54.086 0.032 6.81 1.74 10.35
5/26/2022 11:15:00 AM 12.37 54.266 0.032 6.8 1.73 10.34
5/26/2022 11:30:00 AM 12.47 54.446 0.032 6.82 1.79 10.33
5/26/2022 11:45:00 AM 12.56 54.608 0.032 6.82 1.76 10.32
5/26/2022 12:00:00 PM 12.68 54.824 0.032 6.82 1.75 10.31
5/26/2022 12:15:00 PM 12.8 55.04 0.032 6.83 1.69 10.3
5/26/2022 12:30:00 PM 12.89 55.202 0.032 6.83 1.75 10.28
5/26/2022 12:45:00 PM 13.04 55.472 0.032 6.82 1.71 10.26
5/26/2022 1:00:00 PM 13.16 55.688 0.032 6.84 1.68 10.23
5/26/2022 1:15:00 PM 13.34 56.012 0.032 6.84 1.73 10.2
5/26/2022 1:30:00 PM 13.53 56.354 0.032 6.84 1.7 10.16
5/26/2022 1:45:00 PM 13.44 56.192 0.032 6.82 1.73 10.11
5/26/2022 2:00:00 PM 13.42 56.156 0.032 6.83 1.68 10.08
5/26/2022 2:15:00 PM 13.46 56.228 0.032 6.82 1.69 10.08
5/26/2022 2:30:00 PM 13.43 56.174 0.032 6.82 1.68 10.05
5/26/2022 2:45:00 PM 13.49 56.282 0.032 6.83 1.71 10.04
5/26/2022 3:00:00 PM 13.45 56.21 0.032 6.82 1.66 10.02
5/26/2022 3:15:00 PM 13.46 56.228 0.032 6.82 1.65 9.99
5/26/2022 3:30:00 PM 13.5 56.3 0.032 6.82 1.67 10
5/26/2022 3:45:00 PM 13.55 56.39 0.032 6.82 1.68 10
5/26/2022 4:00:00 PM 13.58 56.444 0.032 6.82 1.71 9.97
5/26/2022 4:15:00 PM 13.59 56.462 0.032 6.82 1.73 9.95
5/26/2022 4:30:00 PM 13.58 56.444 0.032 6.81 1.67 9.91
5/26/2022 4:45:00 PM 13.57 56.426 0.032 6.81 1.73 9.91
5/26/2022 5:00:00 PM 13.56 56.408 0.032 6.81 1.83 9.91
5/26/2022 5:15:00 PM 13.54 56.372 0.032 6.8 1.7 9.89
5/26/2022 5:30:00 PM 13.52 56.336 0.033 6.8 1.71 9.88
5/26/2022 5:45:00 PM 13.5 56.3 0.033 6.79 1.78 9.85
5/26/2022 6:00:00 PM 13.47 56.246 0.033 6.77 1.68 9.86
5/26/2022 6:15:00 PM 13.46 56.228 0.033 6.78 1.71 9.85
5/26/2022 6:30:00 PM 13.43 56.174 0.033 6.78 1.74 9.82
5/26/2022 6:45:00 PM 13.4 56.12 0.033 6.78 1.72 9.82
5/26/2022 7:00:00 PM 13.37 56.066 0.033 6.77 1.7 9.8
5/26/2022 7:15:00 PM 13.34 56.012 0.033 6.77 1.7 9.81
5/26/2022 7:30:00 PM 13.32 55.976 0.033 6.76 1.75 9.8
5/26/2022 7:45:00 PM 13.3 55.94 0.033 6.74 1.66 9.79
5/26/2022 8:00:00 PM 13.28 55.904 0.033 6.76 1.72 9.79
5/26/2022 8:15:00 PM 13.28 55.904 0.033 6.75 1.76 9.79
5/26/2022 8:30:00 PM 13.27 55.886 0.033 6.75 1.75 9.79
5/26/2022 8:45:00 PM 13.27 55.886 0.033 6.75 1.74 9.79
5/26/2022 9:00:00 PM 13.26 55.868 0.033 6.76 1.75 9.79
5/26/2022 9:15:00 PM 13.26 55.868 0.033 6.75 1.8 9.79
5/26/2022 9:30:00 PM 13.26 55.868 0.033 6.75 1.83 9.78
5/26/2022 9:45:00 PM 13.26 55.868 0.033 6.75 1.75 9.78
5/26/2022 10:00:00 PM 13.25 55.85 0.033 6.75 1.83 9.79
5/26/2022 10:15:00 PM 13.25 55.85 0.033 6.75 1.82 9.79
5/26/2022 10:30:00 PM 13.25 55.85 0.033 6.74 1.8 9.78
5/26/2022 10:45:00 PM 13.25 55.85 0.033 6.74 1.79 9.79
5/26/2022 11:00:00 PM 13.26 55.868 0.033 6.75 1.82 9.78
5/26/2022 11:15:00 PM 13.25 55.85 0.033 6.75 1.83 9.79
5/26/2022 11:30:00 PM 13.25 55.85 0.033 6.74 1.85 9.79
5/26/2022 11:45:00 PM 13.25 55.85 0.033 6.73 1.78 9.78
5/27/2022 12:00:00 AM 13.25 55.85 0.033 6.74 1.84 9.78
5/27/2022 12:15:00 AM 13.24 55.832 0.033 6.74 1.83 9.79
5/27/2022 12:30:00 AM 13.24 55.832 0.033 6.74 1.82 9.79
5/27/2022 12:45:00 AM 13.23 55.814 0.033 6.72 1.78 9.78
5/27/2022 1:00:00 AM 13.23 55.814 0.033 6.75 1.8 9.77
5/27/2022 1:15:00 AM 13.24 55.832 0.033 6.74 1.86 9.78
5/27/2022 1:30:00 AM 13.24 55.832 0.033 6.72 1.82 9.77
5/27/2022 1:45:00 AM 13.24 55.832 0.033 6.74 1.88 9.77
5/27/2022 2:00:00 AM 13.24 55.832 0.033 6.72 1.89 9.76
5/27/2022 2:15:00 AM 13.24 55.832 0.033 6.74 1.92 9.76
5/27/2022 2:30:00 AM 13.23 55.814 0.033 6.74 1.85 9.76
5/27/2022 2:45:00 AM 13.23 55.814 0.033 6.73 1.86 9.77
5/27/2022 3:00:00 AM 13.23 55.814 0.033 6.73 1.88 9.77
5/27/2022 3:15:00 AM 13.22 55.796 0.033 6.73 1.81 9.77
5/27/2022 3:30:00 AM 13.22 55.796 0.033 6.73 1.81 9.77
5/27/2022 3:45:00 AM 13.2 55.76 0.033 6.71 1.88 9.77
5/27/2022 4:00:00 AM 13.2 55.76 0.033 6.73 1.92 9.77
5/27/2022 4:15:00 AM 13.19 55.742 0.033 6.73 1.9 9.77
5/27/2022 4:30:00 AM 13.17 55.706 0.033 6.73 1.8 9.77
5/27/2022 4:45:00 AM 13.15 55.67 0.033 6.72 1.84 9.78
5/27/2022 5:00:00 AM 13.14 55.652 0.033 6.72 1.86 9.78
5/27/2022 5:15:00 AM 13.13 55.634 0.033 6.73 1.88 9.78
5/27/2022 5:30:00 AM 13.12 55.616 0.033 6.71 1.85 9.77
5/27/2022 5:45:00 AM 13.1 55.58 0.033 6.72 1.81 9.78
5/27/2022 6:00:00 AM 13.1 55.58 0.033 6.72 1.79 9.79
5/27/2022 6:15:00 AM 13.09 55.562 0.033 6.73 1.76 9.8
5/27/2022 6:30:00 AM 13.08 55.544 0.033 6.72 1.78 9.79
5/27/2022 6:45:00 AM 13.08 55.544 0.033 6.73 1.75 9.79
5/27/2022 7:00:00 AM 13.08 55.544 0.033 6.74 1.79 9.81
5/27/2022 7:15:00 AM 13.09 55.562 0.033 6.74 1.79 9.82
5/27/2022 7:30:00 AM 13.09 55.562 0.033 6.75 1.69 9.85
5/27/2022 7:45:00 AM 13.1 55.58 0.033 6.74 1.7 9.86
5/27/2022 8:00:00 AM 13.11 55.598 0.033 6.73 1.75 9.84
5/27/2022 8:15:00 AM 13.1 55.58 0.033 6.74 1.78 9.83
5/27/2022 8:30:00 AM 13.09 55.562 0.033 6.75 1.71 9.83
5/27/2022 8:45:00 AM 13.08 55.544 0.033 6.73 1.69 9.85
5/27/2022 9:00:00 AM 13.07 55.526 0.033 6.74 1.71 9.85
5/27/2022 9:15:00 AM 13.08 55.544 0.033 6.74 1.68 9.85
5/27/2022 9:30:00 AM 13.09 55.562 0.033 6.75 1.78 9.89
5/27/2022 9:45:00 AM 13.09 55.562 0.033 6.75 1.72 9.88
5/27/2022 10:00:00 AM 13.09 55.562 0.033 6.75 1.73 9.87
5/27/2022 10:15:00 AM 13.11 55.598 0.033 6.74 1.71 9.88
5/27/2022 10:30:00 AM 13.12 55.616 0.033 6.76 1.69 9.9
5/27/2022 10:45:00 AM 13.15 55.67 0.033 6.77 1.71 9.92
5/27/2022 11:00:00 AM 13.16 55.688 0.033 6.77 1.71 9.91
5/27/2022 11:15:00 AM 13.18 55.724 0.033 6.76 1.66 9.9
5/27/2022 11:30:00 AM 13.21 55.778 0.033 6.78 1.67 9.91
5/27/2022 11:45:00 AM 13.24 55.832 0.033 6.79 1.64 9.91
5/27/2022 12:00:00 PM 13.26 55.868 0.033 6.79 1.76 9.89
5/27/2022 12:15:00 PM 13.29 55.922 0.033 6.79 1.68 9.9
5/27/2022 12:30:00 PM 13.31 55.958 0.033 6.78 1.68 9.9
5/27/2022 12:45:00 PM 13.33 55.994 0.033 6.77 1.66 9.88
5/27/2022 1:00:00 PM 13.35 56.03 0.033 6.79 1.66 9.85
5/27/2022 1:15:00 PM 13.38 56.084 0.033 6.77 1.69 9.86
5/27/2022 1:30:00 PM 13.38 56.084 0.033 6.78 1.66 9.8
5/27/2022 1:45:00 PM 13.38 56.084 0.033 6.74 1.72 9.76
5/27/2022 2:00:00 PM 13.77 56.786 0.031 6.72 4.5 9.67
5/27/2022 2:15:00 PM 13.74 56.732 0.031 6.7 5.41 9.6
5/27/2022 2:30:00 PM 13.71 56.678 0.032 6.72 4.04 9.62
5/27/2022 2:45:00 PM 13.69 56.642 0.032 6.74 4.34 9.69
5/27/2022 3:00:00 PM 13.65 56.57 0.033 6.73 20.14 9.65
5/27/2022 3:15:00 PM 13.86 56.948 0.034 6.8 23.2 9.59
5/27/2022 3:30:00 PM 13.9 57.02 0.034 6.79 22.96 9.6
5/27/2022 3:45:00 PM 13.87 56.966 0.034 6.78 19.67 9.63
5/27/2022 4:00:00 PM 13.84 56.912 0.034 6.81 14.46 9.66
5/27/2022 4:15:00 PM 13.81 56.858 0.034 6.81 10.62 9.68
5/27/2022 4:30:00 PM 13.79 56.822 0.034 6.82 7.9 9.69
5/27/2022 4:45:00 PM 13.76 56.768 0.034 6.84 6.74 9.69
5/27/2022 5:00:00 PM 13.74 56.732 0.035 6.84 5.87 9.7
5/27/2022 5:15:00 PM 13.74 56.732 0.035 6.87 5.8 9.69
5/27/2022 5:30:00 PM 13.71 56.678 0.035 6.86 5.08 9.69
5/27/2022 5:45:00 PM 13.68 56.624 0.035 6.84 4.62 9.69
5/27/2022 6:00:00 PM 13.65 56.57 0.035 6.83 4.15 9.71
5/27/2022 6:15:00 PM 13.63 56.534 0.035 6.84 4.05 9.72
5/27/2022 6:30:00 PM 13.61 56.498 0.035 6.83 3.85 9.71
5/27/2022 6:45:00 PM 13.59 56.462 0.034 6.81 3.52 9.72
5/27/2022 7:00:00 PM 13.59 56.462 0.034 6.8 3.44 9.74
5/27/2022 7:15:00 PM 13.56 56.408 0.034 6.81 3.43 9.71
5/27/2022 7:30:00 PM 13.53 56.354 0.034 6.76 3.17 9.7
5/27/2022 7:45:00 PM 13.5 56.3 0.034 6.78 3.12 9.68
5/27/2022 8:00:00 PM 13.48 56.264 0.034 6.75 2.99 9.68
5/27/2022 8:15:00 PM 13.45 56.21 0.034 6.75 2.89 9.68
5/27/2022 8:30:00 PM 13.43 56.174 0.034 6.75 2.9 9.67
5/27/2022 8:45:00 PM 13.4 56.12 0.034 6.71 3.01 9.68
5/27/2022 9:00:00 PM 13.38 56.084 0.034 6.72 2.77 9.67
5/27/2022 9:15:00 PM 13.34 56.012 0.034 6.69 2.5 9.68
5/27/2022 9:30:00 PM 13.32 55.976 0.034 6.71 2.74 9.68
5/27/2022 9:45:00 PM 13.29 55.922 0.034 6.7 2.45 9.69
5/27/2022 10:00:00 PM 13.27 55.886 0.034 6.69 2.58 9.7
5/27/2022 10:15:00 PM 13.24 55.832 0.034 6.7 2.25 9.69
5/27/2022 10:30:00 PM 13.21 55.778 0.034 6.68 2.24 9.7
5/27/2022 10:45:00 PM 13.19 55.742 0.034 6.69 2.33 9.71
5/27/2022 11:00:00 PM 13.17 55.706 0.034 6.68 2.39 9.71
5/27/2022 11:15:00 PM 13.16 55.688 0.034 6.69 2.28 9.71
5/27/2022 11:30:00 PM 13.14 55.652 0.034 6.68 2.27 9.71
5/27/2022 11:45:00 PM 13.13 55.634 0.034 6.66 2.14 9.72
5/28/2022 12:00:00 AM 13.11 55.598 0.034 6.66 2.17 9.72
5/28/2022 12:15:00 AM 13.08 55.544 0.034 6.66 2.2 9.72
5/28/2022 12:30:00 AM 13.06 55.508 0.034 6.66 2.12 9.72
5/28/2022 12:45:00 AM 13.04 55.472 0.034 6.66 2.27 9.73
5/28/2022 1:00:00 AM 13.02 55.436 0.034 6.66 2.12 9.74
5/28/2022 1:15:00 AM 12.99 55.382 0.034 6.66 2.17 9.73
5/28/2022 1:30:00 AM 12.98 55.364 0.034 6.63 2.15 9.74
5/28/2022 1:45:00 AM 12.97 55.346 0.034 6.66 2.12 9.75
5/28/2022 2:00:00 AM 12.96 55.328 0.034 6.67 2.05 9.75
5/28/2022 2:15:00 AM 12.96 55.328 0.034 6.66 2.14 9.75
5/28/2022 2:30:00 AM 12.96 55.328 0.034 6.64 2.15 9.76
5/28/2022 2:45:00 AM 12.97 55.346 0.034 6.67 2.46 9.74
5/28/2022 3:00:00 AM 12.96 55.328 0.034 6.65 2.39 9.75
5/28/2022 3:15:00 AM 12.96 55.328 0.034 6.66 2.46 9.76
5/28/2022 3:30:00 AM 12.96 55.328 0.033 6.65 2.45 9.75
5/28/2022 3:45:00 AM 12.97 55.346 0.033 6.65 2.7 9.76
5/28/2022 4:00:00 AM 12.97 55.346 0.033 6.65 2.52 9.76
5/28/2022 4:15:00 AM 12.97 55.346 0.033 6.66 2.55 9.76
5/28/2022 4:30:00 AM 12.98 55.364 0.033 6.66 2.61 9.76
5/28/2022 4:45:00 AM 12.97 55.346 0.033 6.66 2.63 9.76
5/28/2022 5:00:00 AM 12.96 55.328 0.033 6.68 2.47 9.77
5/28/2022 5:15:00 AM 12.94 55.292 0.034 6.67 2.62 9.77
5/28/2022 5:30:00 AM 12.92 55.256 0.034 6.71 2.75 9.77
5/28/2022 5:45:00 AM 12.9 55.22 0.034 6.69 2.63 9.78
5/28/2022 6:00:00 AM 12.88 55.184 0.034 6.71 2.46 9.8
5/28/2022 6:15:00 AM 12.85 55.13 0.034 6.72 2.45 9.81
5/28/2022 6:30:00 AM 12.84 55.112 0.034 6.72 2.39 9.82
5/28/2022 6:45:00 AM 12.82 55.076 0.034 6.69 2.36 9.84
5/28/2022 7:00:00 AM 12.81 55.058 0.034 6.72 2.28 9.87
5/28/2022 7:15:00 AM 12.8 55.04 0.034 6.72 2.33 9.87
5/28/2022 7:30:00 AM 12.79 55.022 0.034 6.7 2.28 9.89
5/28/2022 7:45:00 AM 12.77 54.986 0.034 6.73 2.12 9.9
5/28/2022 8:00:00 AM 12.77 54.986 0.034 6.72 2.17 9.91
5/28/2022 8:15:00 AM 12.76 54.968 0.034 6.72 2.07 9.93
5/28/2022 8:30:00 AM 12.76 54.968 0.034 6.71 2.01 9.94
5/28/2022 8:45:00 AM 12.76 54.968 0.034 6.73 2.04 9.94
5/28/2022 9:00:00 AM 12.76 54.968 0.034 6.72 2.04 9.95
5/28/2022 9:15:00 AM 12.8 55.04 0.034 6.74 2 9.98
5/28/2022 9:30:00 AM 12.81 55.058 0.033 6.75 2.03 9.98
5/28/2022 9:45:00 AM 12.82 55.076 0.033 6.78 2.01 9.96
5/28/2022 10:00:00 AM 12.81 55.058 0.033 6.76 2.02 9.94
5/28/2022 10:15:00 AM 12.8 55.04 0.033 6.77 1.96 9.91
5/28/2022 10:30:00 AM 12.8 55.04 0.033 6.77 2.02 9.91
5/28/2022 10:45:00 AM 12.8 55.04 0.033 6.78 1.96 9.93
5/28/2022 11:00:00 AM 12.81 55.058 0.033 6.78 1.97 9.93
5/28/2022 11:15:00 AM 12.82 55.076 0.033 6.76 1.93 9.95
5/28/2022 11:30:00 AM 12.85 55.13 0.033 6.79 1.91 9.98
5/28/2022 11:45:00 AM 12.86 55.148 0.033 6.79 1.93 9.98
5/28/2022 12:00:00 PM 12.89 55.202 0.033 6.81 1.94 9.98
5/28/2022 12:15:00 PM 13.06 55.508 0.033 6.83 2 10.02
5/28/2022 12:30:00 PM 13.1 55.58 0.033 6.84 1.9 10.01
5/28/2022 12:45:00 PM 13.15 55.67 0.033 6.85 1.91 10
5/28/2022 1:00:00 PM 13.18 55.724 0.033 6.84 1.88 9.99
5/28/2022 1:15:00 PM 13.32 55.976 0.033 6.87 1.87 9.99
5/28/2022 1:30:00 PM 13.55 56.39 0.033 6.87 1.85 9.97
5/28/2022 1:45:00 PM 13.77 56.786 0.033 6.85 1.89 9.92
5/28/2022 2:00:00 PM 13.79 56.822 0.033 6.86 1.87 9.87
5/28/2022 2:15:00 PM 13.9 57.02 0.033 6.85 1.87 9.85
5/28/2022 2:30:00 PM 13.95 57.11 0.033 6.85 1.84 9.82
5/28/2022 2:45:00 PM 14.04 57.272 0.033 6.85 1.77 9.79
5/28/2022 3:00:00 PM 14.06 57.308 0.033 6.85 1.9 9.75
5/28/2022 3:15:00 PM 14.07 57.326 0.033 6.85 1.85 9.74
5/28/2022 3:30:00 PM 14.07 57.326 0.033 6.84 1.84 9.73
5/28/2022 3:45:00 PM 14.07 57.326 0.033 6.85 1.9 9.71
5/28/2022 4:00:00 PM 14.11 57.398 0.033 6.84 1.9 9.72
5/28/2022 4:15:00 PM 14.09 57.362 0.033 6.83 1.81 9.71
5/28/2022 4:30:00 PM 14.09 57.362 0.033 6.83 1.86 9.69
5/28/2022 4:45:00 PM 14.1 57.38 0.033 6.82 1.77 9.7
5/28/2022 5:00:00 PM 14.09 57.362 0.033 6.82 1.83 9.69
5/28/2022 5:15:00 PM 14.06 57.308 0.033 6.82 1.82 9.68
5/28/2022 5:30:00 PM 14.03 57.254 0.033 6.81 1.81 9.66
5/28/2022 5:45:00 PM 14.01 57.218 0.033 6.8 2.4 9.66
5/28/2022 6:00:00 PM 14 57.2 0.033 6.83 1.9 9.68
5/28/2022 6:15:00 PM 13.99 57.182 0.033 6.82 1.83 9.68
5/28/2022 6:30:00 PM 13.97 57.146 0.033 6.82 1.78 9.66
5/28/2022 6:45:00 PM 13.95 57.11 0.033 6.79 1.84 9.65
5/28/2022 7:00:00 PM 13.93 57.074 0.033 6.8 1.78 9.65
5/28/2022 7:15:00 PM 13.91 57.038 0.033 6.79 1.82 9.65
5/28/2022 7:30:00 PM 13.88 56.984 0.033 6.79 1.83 9.65
5/28/2022 7:45:00 PM 13.84 56.912 0.033 6.78 1.85 9.64
5/28/2022 8:00:00 PM 13.8 56.84 0.033 6.75 1.87 9.64
5/28/2022 8:15:00 PM 13.76 56.768 0.033 6.76 1.87 9.64
5/28/2022 8:30:00 PM 13.71 56.678 0.033 6.75 1.9 9.65
5/28/2022 8:45:00 PM 13.67 56.606 0.033 6.77 1.87 9.65
5/28/2022 9:00:00 PM 13.62 56.516 0.033 6.78 1.79 9.66
5/28/2022 9:15:00 PM 13.58 56.444 0.033 6.77 1.88 9.67
5/28/2022 9:30:00 PM 13.54 56.372 0.033 6.76 1.88 9.68
5/28/2022 9:45:00 PM 13.49 56.282 0.033 6.78 1.86 9.69
5/28/2022 10:00:00 PM 13.45 56.21 0.033 6.76 1.91 9.71
5/28/2022 10:15:00 PM 13.4 56.12 0.033 6.77 1.88 9.72
5/28/2022 10:30:00 PM 13.35 56.03 0.033 6.76 1.92 9.73
5/28/2022 10:45:00 PM 13.3 55.94 0.033 6.76 1.96 9.74
5/28/2022 11:00:00 PM 13.25 55.85 0.033 6.74 1.89 9.75
5/28/2022 11:15:00 PM 13.2 55.76 0.033 6.77 1.92 9.77
5/28/2022 11:30:00 PM 13.14 55.652 0.033 6.76 1.96 9.78
5/28/2022 11:45:00 PM 13.09 55.562 0.033 6.76 2.02 9.79
5/29/2022 12:00:00 AM 13.03 55.454 0.033 6.76 1.97 9.8
5/29/2022 12:15:00 AM 12.98 55.364 0.033 6.75 2.05 9.82
5/29/2022 12:30:00 AM 12.92 55.256 0.033 6.76 1.98 9.83
5/29/2022 12:45:00 AM 12.87 55.166 0.033 6.75 2.07 9.85
5/29/2022 1:00:00 AM 12.81 55.058 0.033 6.76 2.06 9.86
5/29/2022 1:15:00 AM 12.77 54.986 0.033 6.75 2.01 9.87
5/29/2022 1:30:00 AM 12.72 54.896 0.033 6.74 1.95 9.88
5/29/2022 1:45:00 AM 12.68 54.824 0.033 6.73 1.96 9.9
5/29/2022 2:00:00 AM 12.64 54.752 0.033 6.75 1.99 9.9
5/29/2022 2:15:00 AM 12.59 54.662 0.033 6.75 1.98 9.91
5/29/2022 2:30:00 AM 12.55 54.59 0.033 6.75 2.06 9.92
5/29/2022 2:45:00 AM 12.5 54.5 0.033 6.72 1.98 9.94
5/29/2022 3:00:00 AM 12.45 54.41 0.033 6.75 2 9.95
5/29/2022 3:15:00 AM 12.4 54.32 0.033 6.76 1.92 9.96
5/29/2022 3:30:00 AM 12.35 54.23 0.033 6.73 1.96 9.98
5/29/2022 3:45:00 AM 12.29 54.122 0.033 6.75 2.01 9.99
5/29/2022 4:00:00 AM 12.25 54.05 0.033 6.75 2.01 10
5/29/2022 4:15:00 AM 12.21 53.978 0.033 6.75 1.91 10.01
5/29/2022 4:30:00 AM 12.17 53.906 0.033 6.75 2.02 10.03
5/29/2022 4:45:00 AM 12.13 53.834 0.033 6.76 2.12 10.04
5/29/2022 5:00:00 AM 12.09 53.762 0.033 6.76 2.12 10.05
5/29/2022 5:15:00 AM 12.05 53.69 0.033 6.75 2 10.06
5/29/2022 5:30:00 AM 12.02 53.636 0.033 6.74 1.95 10.07
5/29/2022 5:45:00 AM 11.99 53.582 0.033 6.73 2.01 10.08
5/29/2022 6:00:00 AM 11.96 53.528 0.033 6.73 1.98 10.09
5/29/2022 6:15:00 AM 11.94 53.492 0.033 6.74 1.94 10.12
5/29/2022 6:30:00 AM 11.92 53.456 0.033 6.71 1.92 10.14
5/29/2022 6:45:00 AM 11.9 53.42 0.033 6.76 1.96 10.15
5/29/2022 7:00:00 AM 11.88 53.384 0.033 6.75 1.97 10.16
5/29/2022 7:15:00 AM 11.87 53.366 0.033 6.77 1.89 10.17
5/29/2022 7:30:00 AM 11.87 53.366 0.033 6.75 1.89 10.18
5/29/2022 7:45:00 AM 11.87 53.366 0.033 6.77 1.89 10.19
5/29/2022 8:00:00 AM 11.87 53.366 0.033 6.77 1.86 10.2
5/29/2022 8:15:00 AM 11.88 53.384 0.033 6.78 1.92 10.2
5/29/2022 8:30:00 AM 11.9 53.42 0.033 6.74 1.87 10.21
5/29/2022 8:45:00 AM 11.92 53.456 0.033 6.77 1.86 10.2
5/29/2022 9:00:00 AM 11.94 53.492 0.033 6.77 1.83 10.21
5/29/2022 9:15:00 AM 11.98 53.564 0.033 6.78 1.78 10.21
5/29/2022 9:30:00 AM 12.03 53.654 0.033 6.76 1.83 10.24
5/29/2022 9:45:00 AM 12.09 53.762 0.033 6.77 1.78 10.24
5/29/2022 10:00:00 AM 12.17 53.906 0.033 6.8 1.76 10.24
5/29/2022 10:15:00 AM 12.19 53.942 0.033 6.79 1.81 10.22
5/29/2022 10:30:00 AM 12.26 54.068 0.033 6.8 1.79 10.22
5/29/2022 10:45:00 AM 12.33 54.194 0.033 6.79 1.75 10.22
5/29/2022 11:00:00 AM 12.36 54.248 0.033 6.78 1.78 10.19
5/29/2022 11:15:00 AM 12.49 54.482 0.033 6.81 1.83 10.19
5/29/2022 11:30:00 AM 12.61 54.698 0.033 6.79 1.73 10.19
5/29/2022 11:45:00 AM 12.75 54.95 0.033 6.82 1.81 10.17
5/29/2022 12:00:00 PM 12.94 55.292 0.033 6.81 1.73 10.14
5/29/2022 12:15:00 PM 13.08 55.544 0.033 6.82 1.79 10.11
5/29/2022 12:30:00 PM 13.21 55.778 0.033 6.82 1.8 10.08
5/29/2022 12:45:00 PM 13.39 56.102 0.033 6.82 1.74 10.06
5/29/2022 1:00:00 PM 13.59 56.462 0.033 6.83 1.75 10.02
5/29/2022 1:15:00 PM 13.76 56.768 0.033 6.82 1.7 9.98
5/29/2022 1:30:00 PM 13.91 57.038 0.033 6.83 1.69 9.94
5/29/2022 1:45:00 PM 14.02 57.236 0.033 6.82 1.7 9.91
5/29/2022 2:00:00 PM 14.09 57.362 0.033 6.82 1.72 9.87
5/29/2022 2:15:00 PM 14.18 57.524 0.033 6.81 1.75 9.84
5/29/2022 2:30:00 PM 14.19 57.542 0.033 6.8 1.77 9.8
5/29/2022 2:45:00 PM 14.24 57.632 0.033 6.8 1.76 9.77
5/29/2022 3:00:00 PM 14.24 57.632 0.033 6.81 1.76 9.75
5/29/2022 3:15:00 PM 14.25 57.65 0.033 6.79 1.72 9.74
5/29/2022 3:30:00 PM 14.26 57.668 0.033 6.8 1.75 9.72
5/29/2022 3:45:00 PM 14.28 57.704 0.033 6.8 1.73 9.72
5/29/2022 4:00:00 PM 14.28 57.704 0.033 6.79 1.73 9.71
5/29/2022 4:15:00 PM 14.27 57.686 0.033 6.79 1.71 9.71
5/29/2022 4:30:00 PM 14.26 57.668 0.033 6.79 1.78 9.7
5/29/2022 4:45:00 PM 14.24 57.632 0.033 6.79 1.7 9.69
5/29/2022 5:00:00 PM 14.21 57.578 0.033 6.78 1.66 9.67
5/29/2022 5:15:00 PM 14.19 57.542 0.033 6.77 1.75 9.66
5/29/2022 5:30:00 PM 14.17 57.506 0.033 6.75 1.86 9.65
5/29/2022 5:45:00 PM 14.15 57.47 0.033 6.77 1.75 9.64
5/29/2022 6:00:00 PM 14.13 57.434 0.033 6.76 1.75 9.64
5/29/2022 6:15:00 PM 14.09 57.362 0.033 6.75 1.8 9.64
5/29/2022 6:30:00 PM 14.05 57.29 0.033 6.75 1.82 9.64
5/29/2022 6:45:00 PM 14 57.2 0.033 6.74 1.79 9.64
5/29/2022 7:00:00 PM 13.95 57.11 0.033 6.74 1.76 9.65
5/29/2022 7:15:00 PM 13.91 57.038 0.033 6.74 1.78 9.66
5/29/2022 7:30:00 PM 13.87 56.966 0.033 6.74 1.74 9.66
5/29/2022 7:45:00 PM 13.82 56.876 0.033 6.72 1.75 9.67
5/29/2022 8:00:00 PM 13.77 56.786 0.033 6.73 1.7 9.68
5/29/2022 8:15:00 PM 13.73 56.714 0.033 6.72 1.82 9.68
5/29/2022 8:30:00 PM 13.68 56.624 0.033 6.72 1.74 9.68
5/29/2022 8:45:00 PM 13.64 56.552 0.033 6.73 1.83 9.69
5/29/2022 9:00:00 PM 13.59 56.462 0.033 6.74 1.81 9.7
5/29/2022 9:15:00 PM 13.56 56.408 0.034 6.74 1.82 9.71
5/29/2022 9:30:00 PM 13.52 56.336 0.034 6.73 1.84 9.71
5/29/2022 9:45:00 PM 13.48 56.264 0.034 6.73 1.85 9.72
5/29/2022 10:00:00 PM 13.45 56.21 0.033 6.72 1.81 9.73
5/29/2022 10:15:00 PM 13.42 56.156 0.033 6.73 1.83 9.74
5/29/2022 10:30:00 PM 13.38 56.084 0.033 6.74 1.91 9.75
5/29/2022 10:45:00 PM 13.35 56.03 0.033 6.73 1.93 9.76
5/29/2022 11:00:00 PM 13.31 55.958 0.034 6.74 1.84 9.77
5/29/2022 11:15:00 PM 13.27 55.886 0.033 6.74 1.85 9.77
5/29/2022 11:30:00 PM 13.23 55.814 0.033 6.73 2 9.78
5/29/2022 11:45:00 PM 13.2 55.76 0.033 6.74 1.84 9.79
5/30/2022 12:00:00 AM 13.16 55.688 0.033 6.74 2.02 9.8
5/30/2022 12:15:00 AM 13.13 55.634 0.033 6.73 1.96 9.8
5/30/2022 12:30:00 AM 13.1 55.58 0.033 6.73 1.91 9.82
5/30/2022 12:45:00 AM 13.07 55.526 0.033 6.73 1.85 9.82
5/30/2022 1:00:00 AM 13.05 55.49 0.033 6.74 1.86 9.83
5/30/2022 1:15:00 AM 13.02 55.436 0.033 6.74 2.03 9.84
5/30/2022 1:30:00 AM 12.99 55.382 0.033 6.74 1.95 9.84
5/30/2022 1:45:00 AM 12.97 55.346 0.033 6.74 2 9.85
5/30/2022 2:00:00 AM 12.94 55.292 0.033 6.72 1.94 9.85
5/30/2022 2:15:00 AM 12.91 55.238 0.033 6.72 1.89 9.86
5/30/2022 2:30:00 AM 12.88 55.184 0.033 6.74 1.88 9.87
5/30/2022 2:45:00 AM 12.85 55.13 0.033 6.73 1.87 9.88
5/30/2022 3:00:00 AM 12.82 55.076 0.033 6.73 1.89 9.89
5/30/2022 3:15:00 AM 12.78 55.004 0.033 6.74 1.9 9.9
5/30/2022 3:30:00 AM 12.75 54.95 0.033 6.73 1.94 9.9
5/30/2022 3:45:00 AM 12.72 54.896 0.033 6.72 1.96 9.91
5/30/2022 4:00:00 AM 12.68 54.824 0.033 6.72 1.85 9.92
5/30/2022 4:15:00 AM 12.65 54.77 0.033 6.73 1.9 9.93
5/30/2022 4:30:00 AM 12.61 54.698 0.033 6.71 1.94 9.93
5/30/2022 4:45:00 AM 12.58 54.644 0.033 6.73 1.89 9.94
5/30/2022 5:00:00 AM 12.54 54.572 0.033 6.73 1.91 9.95
5/30/2022 5:15:00 AM 12.51 54.518 0.033 6.72 1.9 9.97
5/30/2022 5:30:00 AM 12.47 54.446 0.033 6.72 1.95 9.97
5/30/2022 5:45:00 AM 12.44 54.392 0.033 6.72 1.98 9.99
5/30/2022 6:00:00 AM 12.41 54.338 0.033 6.71 1.88 10
5/30/2022 6:15:00 AM 12.38 54.284 0.033 6.74 1.96 10.02
5/30/2022 6:30:00 AM 12.35 54.23 0.033 6.72 1.82 10.03
5/30/2022 6:45:00 AM 12.32 54.176 0.033 6.73 1.85 10.04
5/30/2022 7:00:00 AM 12.3 54.14 0.033 6.74 1.81 10.05
5/30/2022 7:15:00 AM 12.28 54.104 0.033 6.72 1.86 10.07
5/30/2022 7:30:00 AM 12.27 54.086 0.033 6.72 1.83 10.08
5/30/2022 7:45:00 AM 12.27 54.086 0.033 6.73 1.83 10.09
5/30/2022 8:00:00 AM 12.27 54.086 0.033 6.69 1.82 10.09
5/30/2022 8:15:00 AM 12.28 54.104 0.033 6.72 1.86 10.1
5/30/2022 8:30:00 AM 12.29 54.122 0.033 6.71 1.76 10.1
5/30/2022 8:45:00 AM 12.31 54.158 0.033 6.72 1.8 10.11
5/30/2022 9:00:00 AM 12.34 54.212 0.033 6.72 1.77 10.11
5/30/2022 9:15:00 AM 12.37 54.266 0.033 6.7 1.78 10.11
5/30/2022 9:30:00 AM 12.41 54.338 0.033 6.74 1.79 10.11
5/30/2022 9:45:00 AM 12.46 54.428 0.033 6.75 1.82 10.11
5/30/2022 10:00:00 AM 12.53 54.554 0.033 6.74 1.75 10.12
5/30/2022 10:15:00 AM 12.61 54.698 0.033 6.76 1.83 10.13
5/30/2022 10:30:00 AM 12.7 54.86 0.033 6.76 1.73 10.12
5/30/2022 10:45:00 AM 12.75 54.95 0.033 6.76 1.79 10.12
5/30/2022 11:00:00 AM 12.81 55.058 0.033 6.78 1.73 10.11
5/30/2022 11:15:00 AM 12.93 55.274 0.033 6.78 1.83 10.08
5/30/2022 11:30:00 AM 13.07 55.526 0.033 6.78 1.76 10.05
5/30/2022 11:45:00 AM 13.22 55.796 0.033 6.79 1.72 10.03
5/30/2022 12:00:00 PM 13.4 56.12 0.033 6.8 1.75 10
5/30/2022 12:15:00 PM 13.59 56.462 0.033 6.8 1.74 9.97
5/30/2022 12:30:00 PM 13.78 56.804 0.033 6.79 1.84 9.95
5/30/2022 12:45:00 PM 13.97 57.146 0.033 6.78 1.77 9.91
5/30/2022 1:00:00 PM 14.19 57.542 0.033 6.82 1.8 9.88
5/30/2022 1:15:00 PM 14.36 57.848 0.033 6.82 1.7 9.85
5/30/2022 1:30:00 PM 14.54 58.172 0.033 6.8 1.73 9.8
5/30/2022 1:45:00 PM 14.67 58.406 0.033 6.81 1.7 9.77
5/30/2022 2:00:00 PM 14.79 58.622 0.033 6.81 1.67 9.73
5/30/2022 2:15:00 PM 14.88 58.784 0.033 6.82 1.72 9.69
5/30/2022 2:30:00 PM 14.95 58.91 0.033 6.83 1.69 9.65
5/30/2022 2:45:00 PM 15.01 59.018 0.033 6.81 1.73 9.62
5/30/2022 3:00:00 PM 15.06 59.108 0.033 6.84 1.76 9.58
5/30/2022 3:15:00 PM 15.11 59.198 0.033 6.79 1.68 9.55
5/30/2022 3:30:00 PM 15.16 59.288 0.033 6.8 1.77 9.52
5/30/2022 3:45:00 PM 15.19 59.342 0.033 6.8 1.72 9.5
5/30/2022 4:00:00 PM 15.22 59.396 0.033 6.77 1.73 9.48
5/30/2022 4:15:00 PM 15.26 59.468 0.033 6.78 1.76 9.46
5/30/2022 4:30:00 PM 15.29 59.522 0.033 6.78 1.84 9.44
5/30/2022 4:45:00 PM 15.3 59.54 0.033 6.78 1.72 9.43
5/30/2022 5:00:00 PM 15.3 59.54 0.033 6.78 1.69 9.41
5/30/2022 5:15:00 PM 15.29 59.522 0.033 6.77 1.7 9.41
5/30/2022 5:30:00 PM 15.28 59.504 0.033 6.77 1.72 9.4
5/30/2022 5:45:00 PM 15.26 59.468 0.033 6.76 1.66 9.4
5/30/2022 6:00:00 PM 15.23 59.414 0.033 6.77 1.7 9.39
5/30/2022 6:15:00 PM 15.2 59.36 0.033 6.76 1.71 9.39
5/30/2022 6:30:00 PM 15.17 59.306 0.033 6.75 1.75 9.39
5/30/2022 6:45:00 PM 15.12 59.216 0.033 6.73 1.68 9.39
5/30/2022 7:00:00 PM 15.09 59.162 0.033 6.74 1.7 9.39
5/30/2022 7:15:00 PM 15.04 59.072 0.033 6.72 1.69 9.39
5/30/2022 7:30:00 PM 14.99 58.982 0.034 6.72 1.7 9.4
5/30/2022 7:45:00 PM 14.94 58.892 0.034 6.72 1.75 9.4
5/30/2022 8:00:00 PM 14.9 58.82 0.034 6.71 1.78 9.4
5/30/2022 8:15:00 PM 14.85 58.73 0.034 6.71 1.8 9.41
5/30/2022 8:30:00 PM 14.8 58.64 0.034 6.68 1.78 9.41
5/30/2022 8:45:00 PM 14.75 58.55 0.034 6.69 1.81 9.42
5/30/2022 9:00:00 PM 14.7 58.46 0.034 6.69 1.8 9.42
5/30/2022 9:15:00 PM 14.65 58.37 0.034 6.67 1.8 9.44
5/30/2022 9:30:00 PM 14.6 58.28 0.034 6.7 1.74 9.45
5/30/2022 9:45:00 PM 14.55 58.19 0.034 6.68 1.83 9.45
5/30/2022 10:00:00 PM 14.5 58.1 0.034 6.7 1.88 9.47
5/30/2022 10:15:00 PM 14.45 58.01 0.034 6.7 1.84 9.49
5/30/2022 10:30:00 PM 14.41 57.938 0.034 6.71 1.84 9.49
5/30/2022 10:45:00 PM 14.37 57.866 0.034 6.7 1.8 9.5
5/30/2022 11:00:00 PM 14.34 57.812 0.034 6.7 1.9 9.51
5/30/2022 11:15:00 PM 14.3 57.74 0.034 6.7 1.92 9.52
5/30/2022 11:30:00 PM 14.27 57.686 0.034 6.7 1.91 9.53
5/30/2022 11:45:00 PM 14.24 57.632 0.034 6.71 1.88 9.53
5/31/2022 12:00:00 AM 14.22 57.596 0.034 6.71 1.92 9.54
5/31/2022 12:15:00 AM 14.19 57.542 0.034 6.72 1.91 9.54
5/31/2022 12:30:00 AM 14.17 57.506 0.034 6.7 1.9 9.55
5/31/2022 12:45:00 AM 14.15 57.47 0.034 6.71 1.88 9.55
5/31/2022 1:00:00 AM 14.13 57.434 0.034 6.71 1.85 9.55
5/31/2022 1:15:00 AM 14.12 57.416 0.034 6.71 1.91 9.56
5/31/2022 1:30:00 AM 14.1 57.38 0.034 6.72 1.93 9.56
5/31/2022 1:45:00 AM 14.09 57.362 0.034 6.71 1.85 9.56
5/31/2022 2:00:00 AM 14.07 57.326 0.034 6.72 1.91 9.57
5/31/2022 2:15:00 AM 14.05 57.29 0.034 6.71 1.9 9.57
5/31/2022 2:30:00 AM 14.02 57.236 0.034 6.72 1.96 9.58
5/31/2022 2:45:00 AM 14 57.2 0.034 6.71 1.87 9.59
5/31/2022 3:00:00 AM 13.97 57.146 0.034 6.72 1.87 9.59
5/31/2022 3:15:00 AM 13.95 57.11 0.034 6.71 1.89 9.6
5/31/2022 3:30:00 AM 13.92 57.056 0.034 6.71 1.92 9.61
5/31/2022 3:45:00 AM 13.89 57.002 0.034 6.72 1.95 9.61
5/31/2022 4:00:00 AM 13.86 56.948 0.034 6.7 1.95 9.62
5/31/2022 4:15:00 AM 13.82 56.876 0.034 6.72 1.88 9.63
5/31/2022 4:30:00 AM 13.79 56.822 0.034 6.72 1.89 9.64
5/31/2022 4:45:00 AM 13.75 56.75 0.034 6.7 1.93 9.65
5/31/2022 5:00:00 AM 13.72 56.696 0.034 6.72 1.94 9.66
5/31/2022 5:15:00 AM 13.68 56.624 0.034 6.7 1.97 9.67
5/31/2022 5:30:00 AM 13.64 56.552 0.034 6.71 1.96 9.68
5/31/2022 5:45:00 AM 13.6 56.48 0.034 6.71 1.89 9.69
5/31/2022 6:00:00 AM 13.57 56.426 0.034 6.72 1.83 9.71
5/31/2022 6:15:00 AM 13.54 56.372 0.034 6.68 1.89 9.72
5/31/2022 6:30:00 AM 13.51 56.318 0.034 6.73 1.95 9.73
5/31/2022 6:45:00 AM 13.48 56.264 0.034 6.72 1.83 9.74
5/31/2022 7:00:00 AM 13.45 56.21 0.034 6.72 1.82 9.76
5/31/2022 7:15:00 AM 13.43 56.174 0.034 6.69 1.81 9.77
5/31/2022 7:30:00 AM 13.41 56.138 0.034 6.71 1.8 9.78
5/31/2022 7:45:00 AM 13.4 56.12 0.034 6.72 1.78 9.78
5/31/2022 8:00:00 AM 13.4 56.12 0.034 6.71 1.79 9.8
5/31/2022 8:15:00 AM 13.39 56.102 0.034 6.69 1.8 9.8
5/31/2022 8:30:00 AM 13.4 56.12 0.034 6.71 1.81 9.81
5/31/2022 8:45:00 AM 13.41 56.138 0.034 6.7 1.82 9.82
5/31/2022 9:00:00 AM 13.43 56.174 0.034 6.69 1.75 9.81
5/31/2022 9:15:00 AM 13.46 56.228 0.034 6.71 1.74 9.82
5/31/2022 9:30:00 AM 13.5 56.3 0.034 6.73 1.77 9.81
5/31/2022 9:45:00 AM 13.54 56.372 0.034 6.72 1.78 9.81
5/31/2022 10:00:00 AM 13.59 56.462 0.034 6.74 1.74 9.81
5/31/2022 10:15:00 AM 13.7 56.66 0.034 6.75 1.75 9.81
5/31/2022 10:30:00 AM 13.81 56.858 0.034 6.77 1.77 9.8
5/31/2022 10:45:00 AM 13.92 57.056 0.034 6.78 1.79 9.78
5/31/2022 11:00:00 AM 14.02 57.236 0.034 6.75 1.75 9.77
5/31/2022 11:15:00 AM 14.17 57.506 0.033 6.79 1.74 9.76
5/31/2022 11:30:00 AM 14.34 57.812 0.033 6.79 1.74 9.74
5/31/2022 11:45:00 AM 14.5 58.1 0.033 6.8 1.75 9.73
5/31/2022 12:00:00 PM 14.67 58.406 0.033 6.79 1.82 9.7
5/31/2022 12:15:00 PM 14.83 58.694 0.033 6.83 1.7 9.68
5/31/2022 12:30:00 PM 14.9 58.82 0.033 6.81 1.74 9.65
5/31/2022 12:45:00 PM 14.86 58.748 0.033 6.81 1.71 9.62
5/31/2022 1:00:00 PM 15.18 59.324 0.033 6.78 1.81 9.62
5/31/2022 1:15:00 PM 15.2 59.36 0.033 6.81 1.75 9.59
5/31/2022 1:30:00 PM 15.34 59.612 0.033 6.81 1.72 9.57
5/31/2022 1:45:00 PM 15.23 59.414 0.033 6.82 1.7 9.54
5/31/2022 2:00:00 PM 15.42 59.756 0.033 6.8 1.7 9.53
5/31/2022 2:15:00 PM 15.42 59.756 0.033 6.79 1.7 9.5
5/31/2022 2:30:00 PM 15.64 60.152 0.033 6.81 1.69 9.48
5/31/2022 2:45:00 PM 15.68 60.224 0.033 6.81 1.65 9.46
5/31/2022 3:00:00 PM 15.74 60.332 0.033 6.81 1.65 9.42
5/31/2022 3:15:00 PM 15.8 60.44 0.033 6.79 1.69 9.39
5/31/2022 3:30:00 PM 15.81 60.458 0.033 6.8 1.69 9.36
5/31/2022 3:45:00 PM 15.87 60.566 0.033 6.8 1.65 9.35
5/31/2022 4:00:00 PM 15.93 60.674 0.033 6.79 1.68 9.33
5/31/2022 4:15:00 PM 15.94 60.692 0.033 6.77 1.67 9.31
5/31/2022 4:30:00 PM 15.99 60.782 0.033 6.79 1.67 9.28
5/31/2022 4:45:00 PM 16.03 60.854 0.033 6.78 1.69 9.26
5/31/2022 5:00:00 PM 16.05 60.89 0.033 6.79 1.7 9.25
5/31/2022 5:15:00 PM 16.06 60.908 0.033 6.79 1.62 9.22
5/31/2022 5:30:00 PM 16.07 60.926 0.033 6.76 1.71 9.22
5/31/2022 5:45:00 PM 16.06 60.908 0.033 6.78 1.73 9.21
5/31/2022 6:00:00 PM 16.04 60.872 0.033 6.76 1.71 9.19
5/31/2022 6:15:00 PM 16.03 60.854 0.033 6.77 1.72 9.18
5/31/2022 6:30:00 PM 16 60.8 0.034 6.77 1.76 9.17
5/31/2022 6:45:00 PM 15.96 60.728 0.034 6.77 1.69 9.17
5/31/2022 7:00:00 PM 15.9 60.62 0.034 6.75 1.64 9.19
5/31/2022 7:15:00 PM 15.83 60.494 0.034 6.74 1.73 9.18
5/31/2022 7:30:00 PM 15.76 60.368 0.034 6.71 1.74 9.19
5/31/2022 7:45:00 PM 15.7 60.26 0.034 6.73 1.75 9.2
5/31/2022 8:00:00 PM 15.65 60.17 0.034 6.72 1.72 9.21
5/31/2022 8:15:00 PM 15.6 60.08 0.034 6.71 1.74 9.21
5/31/2022 8:30:00 PM 15.55 59.99 0.034 6.71 1.73 9.2
5/31/2022 8:45:00 PM 15.51 59.918 0.034 6.7 1.78 9.22
5/31/2022 9:00:00 PM 15.46 59.828 0.034 6.7 1.93 9.22
5/31/2022 9:15:00 PM 15.42 59.756 0.034 6.7 1.84 9.22
5/31/2022 9:30:00 PM 15.37 59.666 0.034 6.67 1.77 9.24
5/31/2022 9:45:00 PM 15.33 59.594 0.034 6.69 1.84 9.25
5/31/2022 10:00:00 PM 15.28 59.504 0.034 6.7 1.84 9.25
5/31/2022 10:15:00 PM 15.24 59.432 0.034 6.7 1.81 9.27
5/31/2022 10:30:00 PM 15.2 59.36 0.034 6.68 1.9 9.28
5/31/2022 10:45:00 PM 15.16 59.288 0.034 6.7 1.76 9.29
5/31/2022 11:00:00 PM 15.12 59.216 0.034 6.71 1.85 9.3
5/31/2022 11:15:00 PM 15.08 59.144 0.034 6.7 1.86 9.31
5/31/2022 11:30:00 PM 15.04 59.072 0.034 6.72 1.93 9.32
5/31/2022 11:45:00 PM 15 59 0.034 6.73 1.82 9.32
6/1/2022 12:00:00 AM 14.97 58.946 0.034 6.73 1.98 9.34
6/1/2022 12:15:00 AM 14.93 58.874 0.034 6.73 1.8 9.34
6/1/2022 12:30:00 AM 14.89 58.802 0.034 6.74 1.88 9.35
6/1/2022 12:45:00 AM 14.86 58.748 0.034 6.73 1.86 9.36
6/1/2022 1:00:00 AM 14.82 58.676 0.034 6.73 1.92 9.37
6/1/2022 1:15:00 AM 14.79 58.622 0.034 6.73 1.95 9.37
6/1/2022 1:30:00 AM 14.75 58.55 0.034 6.69 1.89 9.38
6/1/2022 1:45:00 AM 14.71 58.478 0.034 6.73 1.99 9.39
6/1/2022 2:00:00 AM 14.68 58.424 0.034 6.73 1.86 9.4
6/1/2022 2:15:00 AM 14.64 58.352 0.034 6.72 1.9 9.41
6/1/2022 2:30:00 AM 14.6 58.28 0.034 6.69 1.9 9.41
6/1/2022 2:45:00 AM 14.56 58.208 0.034 6.72 1.92 9.42
6/1/2022 3:00:00 AM 14.52 58.136 0.034 6.72 1.93 9.43
6/1/2022 3:15:00 AM 14.49 58.082 0.034 6.72 1.92 9.44
6/1/2022 3:30:00 AM 14.45 58.01 0.034 6.69 1.87 9.45
6/1/2022 3:45:00 AM 14.41 57.938 0.034 6.72 1.92 9.46
6/1/2022 4:00:00 AM 14.37 57.866 0.034 6.7 1.99 9.46
6/1/2022 4:15:00 AM 14.34 57.812 0.034 6.73 2.04 9.47
6/1/2022 4:30:00 AM 14.3 57.74 0.034 6.69 2.01 9.48
6/1/2022 4:45:00 AM 14.26 57.668 0.034 6.72 1.94 9.48
6/1/2022 5:00:00 AM 14.22 57.596 0.034 6.73 1.92 9.5
6/1/2022 5:15:00 AM 14.19 57.542 0.034 6.72 1.93 9.51
6/1/2022 5:30:00 AM 14.15 57.47 0.034 6.73 1.97 9.52
6/1/2022 5:45:00 AM 14.12 57.416 0.034 6.69 1.88 9.53
6/1/2022 6:00:00 AM 14.08 57.344 0.034 6.7 1.93 9.54
6/1/2022 6:15:00 AM 14.05 57.29 0.034 6.69 1.91 9.55
6/1/2022 6:30:00 AM 14.02 57.236 0.034 6.72 1.83 9.56
6/1/2022 6:45:00 AM 14 57.2 0.034 6.7 1.88 9.58
6/1/2022 7:00:00 AM 13.97 57.146 0.034 6.71 1.84 9.59
6/1/2022 7:15:00 AM 13.95 57.11 0.034 6.7 1.84 9.6
6/1/2022 7:30:00 AM 13.93 57.074 0.034 6.72 1.8 9.61
6/1/2022 7:45:00 AM 13.92 57.056 0.034 6.7 1.83 9.61
6/1/2022 8:00:00 AM 13.92 57.056 0.034 6.73 1.84 9.63
6/1/2022 8:15:00 AM 13.91 57.038 0.034 6.72 1.77 9.63
6/1/2022 8:30:00 AM 13.92 57.056 0.034 6.72 1.77 9.64
6/1/2022 8:45:00 AM 13.93 57.074 0.034 6.68 1.8 9.64
6/1/2022 9:00:00 AM 13.96 57.128 0.034 6.71 1.81 9.65
6/1/2022 9:15:00 AM 13.98 57.164 0.034 6.71 1.8 9.65
6/1/2022 9:30:00 AM 14.01 57.218 0.034 6.73 1.77 9.65
6/1/2022 9:45:00 AM 14.05 57.29 0.034 6.71 1.79 9.65
6/1/2022 10:00:00 AM 14.11 57.398 0.034 6.75 1.81 9.65
6/1/2022 10:15:00 AM 14.17 57.506 0.034 6.76 1.82 9.66
6/1/2022 10:30:00 AM 14.28 57.704 0.034 6.75 1.81 9.65
6/1/2022 10:45:00 AM 14.37 57.866 0.034 6.79 1.76 9.65
6/1/2022 11:00:00 AM 14.47 58.046 0.034 6.79 1.87 9.64
6/1/2022 11:15:00 AM 14.6 58.28 0.034 6.76 1.68 9.63
6/1/2022 11:30:00 AM 14.77 58.586 0.034 6.8 1.77 9.61
6/1/2022 11:45:00 AM 14.84 58.712 0.034 6.8 1.75 9.59
6/1/2022 12:00:00 PM 14.94 58.892 0.033 6.79 1.76 9.56
6/1/2022 12:15:00 PM 14.97 58.946 0.033 6.8 1.71 9.53
6/1/2022 12:30:00 PM 15.16 59.288 0.033 6.76 1.74 9.54
6/1/2022 12:45:00 PM 15.23 59.414 0.033 6.81 1.84 9.53
6/1/2022 1:00:00 PM 15.19 59.342 0.033 6.81 1.81 9.5
6/1/2022 1:15:00 PM 15.2 59.36 0.033 6.78 1.75 9.47
6/1/2022 1:30:00 PM 15.25 59.45 0.033 6.79 1.77 9.47
6/1/2022 1:45:00 PM 15.39 59.702 0.033 6.79 1.79 9.48
6/1/2022 2:00:00 PM 15.36 59.648 0.033 6.79 1.75 9.44
6/1/2022 2:15:00 PM 15.45 59.81 0.033 6.8 1.8 9.43
6/1/2022 2:30:00 PM 15.55 59.99 0.033 6.79 1.73 9.42
6/1/2022 2:45:00 PM 15.51 59.918 0.033 6.78 1.7 9.38
6/1/2022 3:00:00 PM 15.66 60.188 0.033 6.79 1.71 9.39
6/1/2022 3:15:00 PM 15.65 60.17 0.033 6.78 1.76 9.36
6/1/2022 3:30:00 PM 15.72 60.296 0.033 6.77 1.71 9.35
6/1/2022 3:45:00 PM 15.77 60.386 0.033 6.79 1.8 9.34
6/1/2022 4:00:00 PM 15.8 60.44 0.033 6.8 1.74 9.3
6/1/2022 4:15:00 PM 15.82 60.476 0.033 6.79 1.79 9.3
6/1/2022 4:30:00 PM 15.84 60.512 0.033 6.75 1.76 9.3
6/1/2022 4:45:00 PM 15.86 60.548 0.033 6.77 1.7 9.29
6/1/2022 5:00:00 PM 15.88 60.584 0.033 6.78 2.35 9.27
6/1/2022 5:15:00 PM 15.88 60.584 0.033 6.78 1.83 9.23
6/1/2022 5:30:00 PM 15.86 60.548 0.033 6.74 1.74 9.2
6/1/2022 5:45:00 PM 15.86 60.548 0.033 6.76 1.7 9.21
6/1/2022 6:00:00 PM 15.83 60.494 0.034 6.75 1.69 9.18
6/1/2022 6:15:00 PM 15.83 60.494 0.034 6.75 2.17 9.13
6/1/2022 6:30:00 PM 15.81 60.458 0.034 6.75 1.92 9.13
6/1/2022 6:45:00 PM 15.78 60.404 0.034 6.75 1.91 9.16
6/1/2022 7:00:00 PM 15.74 60.332 0.034 6.72 1.85 9.16
6/1/2022 7:15:00 PM 15.72 60.296 0.034 6.75 1.72 9.15
6/1/2022 7:30:00 PM 15.67 60.206 0.034 6.75 1.72 9.17
6/1/2022 7:45:00 PM 15.63 60.134 0.034 6.74 1.71 9.17
6/1/2022 8:00:00 PM 15.57 60.026 0.034 6.74 1.76 9.18
6/1/2022 8:15:00 PM 15.51 59.918 0.034 6.72 1.78 9.19
6/1/2022 8:30:00 PM 15.46 59.828 0.034 6.66 1.84 9.19
6/1/2022 8:45:00 PM 15.4 59.72 0.034 6.69 1.77 9.2
6/1/2022 9:00:00 PM 15.35 59.63 0.034 6.67 1.91 9.2
6/1/2022 9:15:00 PM 15.29 59.522 0.034 6.67 1.76 9.21
6/1/2022 9:30:00 PM 15.24 59.432 0.034 6.62 1.88 9.22
6/1/2022 9:45:00 PM 15.2 59.36 0.034 6.67 1.85 9.23
6/1/2022 10:00:00 PM 15.17 59.306 0.034 6.69 1.92 9.23
6/1/2022 10:15:00 PM 15.13 59.234 0.034 6.68 1.9 9.24
6/1/2022 10:30:00 PM 15.11 59.198 0.034 6.67 1.85 9.24
6/1/2022 10:45:00 PM 15.08 59.144 0.034 6.67 2.06 9.25
6/1/2022 11:00:00 PM 15.06 59.108 0.034 6.67 1.96 9.26
6/1/2022 11:15:00 PM 15.07 59.126 0.034 6.66 2.27 9.24
6/1/2022 11:30:00 PM 15.05 59.09 0.034 6.65 2.37 9.21
6/1/2022 11:45:00 PM 15.03 59.054 0.034 6.65 2.1 9.21
6/2/2022 12:00:00 AM 15.02 59.036 0.034 6.65 2.09 9.22
6/2/2022 12:15:00 AM 15 59 0.034 6.63 2.1 9.21
6/2/2022 12:30:00 AM 14.99 58.982 0.034 6.61 2.04 9.21
6/2/2022 12:45:00 AM 14.97 58.946 0.034 6.6 2.08 9.22
6/2/2022 1:00:00 AM 14.96 58.928 0.034 6.63 2.04 9.23
6/2/2022 1:15:00 AM 14.94 58.892 0.034 6.63 2.05 9.24
6/2/2022 1:30:00 AM 14.94 58.892 0.034 6.62 2.08 9.25
6/2/2022 1:45:00 AM 14.93 58.874 0.034 6.65 2.08 9.26
6/2/2022 2:00:00 AM 14.91 58.838 0.034 6.65 2.03 9.27
6/2/2022 2:15:00 AM 14.9 58.82 0.034 6.66 2.1 9.28
6/2/2022 2:30:00 AM 14.88 58.784 0.034 6.63 2.16 9.29
6/2/2022 2:45:00 AM 14.87 58.766 0.034 6.66 2.07 9.3
6/2/2022 3:00:00 AM 14.86 58.748 0.034 6.64 2.26 9.3
6/2/2022 3:15:00 AM 14.85 58.73 0.034 6.63 2.19 9.31
6/2/2022 3:30:00 AM 14.83 58.694 0.034 6.64 2.22 9.32
6/2/2022 3:45:00 AM 14.82 58.676 0.034 6.61 2.24 9.32
6/2/2022 4:00:00 AM 14.81 58.658 0.034 6.62 2.2 9.33
6/2/2022 4:15:00 AM 14.8 58.64 0.034 6.61 2.19 9.33
6/2/2022 4:30:00 AM 14.79 58.622 0.034 6.62 2.18 9.33
6/2/2022 4:45:00 AM 14.78 58.604 0.034 6.6 2.07 9.33
6/2/2022 5:00:00 AM 14.77 58.586 0.034 6.62 2.14 9.33
6/2/2022 5:15:00 AM 14.75 58.55 0.034 6.61 2.17 9.34
6/2/2022 5:30:00 AM 14.73 58.514 0.034 6.6 2.08 9.34
6/2/2022 5:45:00 AM 14.71 58.478 0.034 6.6 2.06 9.34
6/2/2022 6:00:00 AM 14.68 58.424 0.034 6.6 2.05 9.35
6/2/2022 6:15:00 AM 14.66 58.388 0.034 6.57 1.94 9.36
6/2/2022 6:30:00 AM 14.63 58.334 0.034 6.59 1.96 9.38
6/2/2022 6:45:00 AM 14.61 58.298 0.034 6.59 1.98 9.39
6/2/2022 7:00:00 AM 14.59 58.262 0.034 6.59 1.9 9.4
6/2/2022 7:15:00 AM 14.57 58.226 0.034 6.6 1.85 9.42
6/2/2022 7:30:00 AM 14.55 58.19 0.034 6.62 1.97 9.43
6/2/2022 7:45:00 AM 14.53 58.154 0.034 6.62 1.9 9.44
6/2/2022 8:00:00 AM 14.52 58.136 0.034 6.63 1.85 9.45
6/2/2022 8:15:00 AM 14.51 58.118 0.034 6.61 1.9 9.47
6/2/2022 8:30:00 AM 14.49 58.082 0.034 6.64 1.82 9.48
6/2/2022 8:45:00 AM 14.48 58.064 0.034 6.65 1.74 9.49
6/2/2022 9:00:00 AM 14.48 58.064 0.034 6.64 1.83 9.52
6/2/2022 9:15:00 AM 14.49 58.082 0.034 6.64 1.76 9.53
6/2/2022 9:30:00 AM 14.49 58.082 0.034 6.66 1.78 9.54
6/2/2022 9:45:00 AM 14.49 58.082 0.034 6.65 1.83 9.54
6/2/2022 10:00:00 AM 14.49 58.082 0.034 6.63 1.8 9.54
6/2/2022 10:15:00 AM 14.48 58.064 0.034 6.67 1.83 9.53
6/2/2022 10:30:00 AM 14.5 58.1 0.034 6.68 1.8 9.55
6/2/2022 10:45:00 AM 14.51 58.118 0.034 6.7 1.76 9.57
6/2/2022 11:00:00 AM 14.53 58.154 0.034 6.7 1.78 9.58
6/2/2022 11:15:00 AM 14.55 58.19 0.034 6.72 1.75 9.58
6/2/2022 11:30:00 AM 14.58 58.244 0.034 6.74 1.83 9.58
6/2/2022 11:45:00 AM 14.59 58.262 0.034 6.72 1.8 9.59
6/2/2022 12:00:00 PM 14.63 58.334 0.034 6.77 1.77 9.59
6/2/2022 12:15:00 PM 14.62 58.316 0.034 6.74 1.74 9.57
6/2/2022 12:30:00 PM 14.61 58.298 0.034 6.76 1.8 9.54
6/2/2022 12:45:00 PM 14.6 58.28 0.034 6.74 1.88 9.52
6/2/2022 1:00:00 PM 14.57 58.226 0.034 6.74 1.82 9.47
6/2/2022 1:15:00 PM 14.61 58.298 0.034 6.75 1.81 9.52
6/2/2022 1:30:00 PM 14.63 58.334 0.034 6.73 1.78 9.54
6/2/2022 1:45:00 PM 14.7 58.46 0.034 6.77 1.8 9.57
6/2/2022 2:00:00 PM 14.72 58.496 0.033 6.77 1.79 9.57
6/2/2022 2:15:00 PM 14.73 58.514 0.033 6.79 1.83 9.55
6/2/2022 2:30:00 PM 14.77 58.586 0.033 6.79 1.74 9.57
6/2/2022 2:45:00 PM 14.79 58.622 0.033 6.78 1.73 9.56
6/2/2022 3:00:00 PM 14.82 58.676 0.033 6.79 1.79 9.53
6/2/2022 3:15:00 PM 14.86 58.748 0.033 6.8 1.74 9.53
6/2/2022 3:30:00 PM 14.9 58.82 0.033 6.81 1.77 9.53
6/2/2022 3:45:00 PM 14.89 58.802 0.033 6.77 1.84 9.5
6/2/2022 4:00:00 PM 14.9 58.82 0.033 6.79 1.88 9.48
6/2/2022 4:15:00 PM 14.92 58.856 0.033 6.79 1.85 9.49
6/2/2022 4:30:00 PM 14.91 58.838 0.033 6.76 1.73 9.48
6/2/2022 4:45:00 PM 14.91 58.838 0.033 6.77 1.8 9.45
6/2/2022 5:00:00 PM 14.9 58.82 0.033 6.77 1.85 9.44
6/2/2022 5:15:00 PM 14.89 58.802 0.033 6.75 1.76 9.44
6/2/2022 5:30:00 PM 14.89 58.802 0.033 6.75 1.78 9.43
6/2/2022 5:45:00 PM 14.88 58.784 0.033 6.75 1.77 9.4
6/2/2022 6:00:00 PM 14.87 58.766 0.033 6.75 1.76 9.39
6/2/2022 6:15:00 PM 14.87 58.766 0.033 6.74 1.77 9.39
6/2/2022 6:30:00 PM 14.86 58.748 0.033 6.74 1.76 9.39
6/2/2022 6:45:00 PM 14.85 58.73 0.033 6.73 1.94 9.37
6/2/2022 7:00:00 PM 14.84 58.712 0.034 6.73 1.76 9.38
6/2/2022 7:15:00 PM 14.82 58.676 0.034 6.72 1.76 9.37
6/2/2022 7:30:00 PM 14.79 58.622 0.034 6.71 1.76 9.36
6/2/2022 7:45:00 PM 14.76 58.568 0.034 6.71 1.72 9.35
6/2/2022 8:00:00 PM 14.73 58.514 0.034 6.68 1.78 9.35
6/2/2022 8:15:00 PM 14.7 58.46 0.034 6.7 1.8 9.35
6/2/2022 8:30:00 PM 14.67 58.406 0.034 6.68 1.74 9.34
6/2/2022 8:45:00 PM 14.65 58.37 0.034 6.69 1.8 9.34
6/2/2022 9:00:00 PM 14.63 58.334 0.034 6.67 1.92 9.34
6/2/2022 9:15:00 PM 14.63 58.334 0.034 6.69 2.25 9.34
6/2/2022 9:30:00 PM 14.69 58.442 0.033 6.69 3.16 9.31
6/2/2022 9:45:00 PM 14.7 58.46 0.033 6.66 3.28 9.27
6/2/2022 10:00:00 PM 14.72 58.496 0.033 6.68 3.58 9.25
6/2/2022 10:15:00 PM 14.71 58.478 0.033 6.68 3.2 9.24
6/2/2022 10:30:00 PM 14.7 58.46 0.033 6.67 3.1 9.24
6/2/2022 10:45:00 PM 14.68 58.424 0.033 6.68 3.45 9.26
6/2/2022 11:00:00 PM 14.61 58.298 0.033 6.68 5.73 9.25
6/2/2022 11:15:00 PM 14.55 58.19 0.035 6.74 14.09 9.25
6/2/2022 11:30:00 PM 14.64 58.352 0.035 6.72 15.01 9.25
6/2/2022 11:45:00 PM 14.66 58.388 0.035 6.75 11.94 9.26
6/3/2022 12:00:00 AM 14.64 58.352 0.035 6.73 18.83 9.28
6/3/2022 12:15:00 AM 14.61 58.298 0.035 6.74 9.07 9.3
6/3/2022 12:30:00 AM 14.58 58.244 0.035 6.78 6.43 9.32
6/3/2022 12:45:00 AM 14.56 58.208 0.035 6.75 5.68 9.34
6/3/2022 1:00:00 AM 14.54 58.172 0.035 6.78 5.07 9.36
6/3/2022 1:15:00 AM 14.52 58.136 0.035 6.79 4.69 9.38
6/3/2022 1:30:00 AM 14.5 58.1 0.035 6.81 4.44 9.4
6/3/2022 1:45:00 AM 14.49 58.082 0.035 6.82 4.29 9.42
6/3/2022 2:00:00 AM 14.48 58.064 0.035 6.81 4.24 9.42
6/3/2022 2:15:00 AM 14.47 58.046 0.035 6.83 3.94 9.44
6/3/2022 2:30:00 AM 14.45 58.01 0.035 6.8 3.52 9.44
6/3/2022 2:45:00 AM 14.43 57.974 0.035 6.81 3.61 9.45
6/3/2022 3:00:00 AM 14.39 57.902 0.034 6.81 3.22 9.46
6/3/2022 3:15:00 AM 14.35 57.83 0.034 6.8 3.08 9.47
6/3/2022 3:30:00 AM 14.31 57.758 0.034 6.77 3.12 9.48
6/3/2022 3:45:00 AM 14.26 57.668 0.034 6.79 2.82 9.49
6/3/2022 4:00:00 AM 14.22 57.596 0.034 6.79 2.78 9.5
6/3/2022 4:15:00 AM 14.17 57.506 0.034 6.76 2.76 9.51
6/3/2022 4:30:00 AM 14.12 57.416 0.034 6.75 2.6 9.52
6/3/2022 4:45:00 AM 14.07 57.326 0.034 6.77 2.58 9.53
6/3/2022 5:00:00 AM 14.02 57.236 0.034 6.78 2.58 9.54
6/3/2022 5:15:00 AM 13.96 57.128 0.034 6.77 2.51 9.55
6/3/2022 5:30:00 AM 13.91 57.038 0.034 6.76 2.48 9.56
6/3/2022 5:45:00 AM 13.85 56.93 0.034 6.77 2.44 9.57
6/3/2022 6:00:00 AM 13.79 56.822 0.034 6.75 2.44 9.59
6/3/2022 6:15:00 AM 13.73 56.714 0.034 6.77 2.36 9.61
6/3/2022 6:30:00 AM 13.67 56.606 0.034 6.76 2.35 9.62
6/3/2022 6:45:00 AM 13.62 56.516 0.034 6.78 2.23 9.64
6/3/2022 7:00:00 AM 13.56 56.408 0.034 6.79 2.23 9.65
6/3/2022 7:15:00 AM 13.51 56.318 0.034 6.75 2.16 9.67
6/3/2022 7:30:00 AM 13.46 56.228 0.034 6.77 2.25 9.68
6/3/2022 7:45:00 AM 13.42 56.156 0.034 6.77 2.11 9.7
6/3/2022 8:00:00 AM 13.38 56.084 0.034 6.78 2.04 9.71
6/3/2022 8:15:00 AM 13.35 56.03 0.034 6.78 2.1 9.72
6/3/2022 8:30:00 AM 13.32 55.976 0.034 6.79 2.09 9.73
6/3/2022 8:45:00 AM 13.3 55.94 0.034 6.8 1.96 9.75
6/3/2022 9:00:00 AM 13.29 55.922 0.034 6.81 2 9.76
6/3/2022 9:15:00 AM 13.28 55.904 0.034 6.79 1.98 9.77
6/3/2022 9:30:00 AM 13.28 55.904 0.034 6.81 2 9.78
6/3/2022 9:45:00 AM 13.29 55.922 0.034 6.79 1.98 9.77
6/3/2022 10:00:00 AM 13.32 55.976 0.034 6.79 1.99 9.78
6/3/2022 10:15:00 AM 13.36 56.048 0.034 6.81 2.06 9.79
6/3/2022 10:30:00 AM 13.41 56.138 0.034 6.79 1.99 9.78
6/3/2022 10:45:00 AM 13.48 56.264 0.034 6.82 1.92 9.79
6/3/2022 11:00:00 AM 13.56 56.408 0.034 6.81 1.97 9.77
6/3/2022 11:15:00 AM 13.66 56.588 0.034 6.82 1.98 9.76
6/3/2022 11:30:00 AM 13.76 56.768 0.034 6.82 2.02 9.76
6/3/2022 11:45:00 AM 13.9 57.02 0.033 6.83 1.94 9.75
6/3/2022 12:00:00 PM 14.03 57.254 0.033 6.82 2 9.73
6/3/2022 12:15:00 PM 14.16 57.488 0.033 6.81 1.95 9.71
6/3/2022 12:30:00 PM 14.32 57.776 0.033 6.84 1.98 9.69
6/3/2022 12:45:00 PM 14.49 58.082 0.033 6.82 1.92 9.67
6/3/2022 1:00:00 PM 14.66 58.388 0.033 6.84 1.94 9.65
6/3/2022 1:15:00 PM 14.78 58.604 0.033 6.84 1.85 9.64
6/3/2022 1:30:00 PM 14.91 58.838 0.033 6.83 1.85 9.61
6/3/2022 1:45:00 PM 14.78 58.604 0.033 6.83 1.87 9.58
6/3/2022 2:00:00 PM 15 59 0.033 6.83 1.85 9.56
6/3/2022 2:15:00 PM 14.94 58.892 0.033 6.82 1.88 9.52
6/3/2022 2:30:00 PM 15 59 0.033 6.83 1.92 9.5
6/3/2022 2:45:00 PM 14.93 58.874 0.033 6.81 1.84 9.47
6/3/2022 3:00:00 PM 14.94 58.892 0.033 6.81 1.85 9.48
6/3/2022 3:15:00 PM 14.95 58.91 0.033 6.82 1.8 9.47
6/3/2022 3:30:00 PM 14.97 58.946 0.033 6.81 1.77 9.46
6/3/2022 3:45:00 PM 15 59 0.033 6.83 1.85 9.45
6/3/2022 4:00:00 PM 15 59 0.033 6.82 1.88 9.44
6/3/2022 4:15:00 PM 15.02 59.036 0.033 6.81 1.88 9.42
6/3/2022 4:30:00 PM 15.04 59.072 0.033 6.79 1.86 9.4
6/3/2022 4:45:00 PM 15.01 59.018 0.033 6.81 1.81 9.38
6/3/2022 5:00:00 PM 15.04 59.072 0.034 6.81 1.92 9.38
6/3/2022 5:15:00 PM 15.03 59.054 0.034 6.8 1.85 9.37
6/3/2022 5:30:00 PM 15 59 0.034 6.79 1.81 9.36
6/3/2022 5:45:00 PM 14.98 58.964 0.034 6.78 1.93 9.36
6/3/2022 6:00:00 PM 14.95 58.91 0.034 6.76 1.87 9.35
6/3/2022 6:15:00 PM 14.92 58.856 0.034 6.78 1.93 9.35
6/3/2022 6:30:00 PM 14.89 58.802 0.034 6.78 1.85 9.35
6/3/2022 6:45:00 PM 14.85 58.73 0.034 6.77 1.84 9.36
6/3/2022 7:00:00 PM 14.81 58.658 0.034 6.78 1.86 9.36
6/3/2022 7:15:00 PM 14.76 58.568 0.034 6.76 1.84 9.37
6/3/2022 7:30:00 PM 14.72 58.496 0.034 6.77 1.77 9.38
6/3/2022 7:45:00 PM 14.67 58.406 0.034 6.77 1.81 9.38
6/3/2022 8:00:00 PM 14.61 58.298 0.034 6.78 1.85 9.39
6/3/2022 8:15:00 PM 14.56 58.208 0.034 6.77 1.81 9.39
6/3/2022 8:30:00 PM 14.5 58.1 0.034 6.78 1.89 9.4
6/3/2022 8:45:00 PM 14.45 58.01 0.034 6.76 1.85 9.41
6/3/2022 9:00:00 PM 14.4 57.92 0.034 6.78 1.95 9.41
6/3/2022 9:15:00 PM 14.34 57.812 0.034 6.77 1.92 9.43
6/3/2022 9:30:00 PM 14.27 57.686 0.034 6.78 1.93 9.44
6/3/2022 9:45:00 PM 14.2 57.56 0.034 6.77 2.02 9.46
6/3/2022 10:00:00 PM 14.13 57.434 0.034 6.76 2.1 9.48
6/3/2022 10:15:00 PM 14.05 57.29 0.034 6.78 1.96 9.5
6/3/2022 10:30:00 PM 13.97 57.146 0.034 6.76 2.03 9.51
6/3/2022 10:45:00 PM 13.9 57.02 0.034 6.76 1.99 9.52
6/3/2022 11:00:00 PM 13.83 56.894 0.034 6.77 1.96 9.54
6/3/2022 11:15:00 PM 13.76 56.768 0.034 6.75 1.94 9.56
6/3/2022 11:30:00 PM 13.69 56.642 0.034 6.76 1.96 9.57
6/3/2022 11:45:00 PM 13.61 56.498 0.034 6.77 2 9.59
6/4/2022 12:00:00 AM 13.54 56.372 0.034 6.75 2.06 9.6
6/4/2022 12:15:00 AM 13.48 56.264 0.034 6.76 1.94 9.62
6/4/2022 12:30:00 AM 13.41 56.138 0.034 6.76 1.94 9.64
6/4/2022 12:45:00 AM 13.34 56.012 0.034 6.76 1.96 9.66
6/4/2022 1:00:00 AM 13.27 55.886 0.034 6.74 1.94 9.67
6/4/2022 1:15:00 AM 13.21 55.778 0.034 6.76 1.98 9.68
6/4/2022 1:30:00 AM 13.14 55.652 0.034 6.75 2.06 9.69
6/4/2022 1:45:00 AM 13.08 55.544 0.034 6.76 2.3 9.72
6/4/2022 2:00:00 AM 13.01 55.418 0.034 6.76 1.97 9.73
6/4/2022 2:15:00 AM 12.95 55.31 0.034 6.75 1.95 9.75
6/4/2022 2:30:00 AM 12.88 55.184 0.034 6.75 1.97 9.76
6/4/2022 2:45:00 AM 12.82 55.076 0.034 6.76 1.93 9.77
6/4/2022 3:00:00 AM 12.77 54.986 0.034 6.73 1.99 9.79
6/4/2022 3:15:00 AM 12.7 54.86 0.034 6.75 1.94 9.8
6/4/2022 3:30:00 AM 12.64 54.752 0.034 6.75 2.01 9.81
6/4/2022 3:45:00 AM 12.58 54.644 0.034 6.76 2.03 9.83
6/4/2022 4:00:00 AM 12.52 54.536 0.034 6.75 2.06 9.84
6/4/2022 4:15:00 AM 12.46 54.428 0.034 6.75 1.98 9.86
6/4/2022 4:30:00 AM 12.4 54.32 0.034 6.73 1.98 9.87
6/4/2022 4:45:00 AM 12.35 54.23 0.034 6.75 1.99 9.89
6/4/2022 5:00:00 AM 12.29 54.122 0.034 6.75 1.98 9.9
6/4/2022 5:15:00 AM 12.23 54.014 0.034 6.75 2 9.92
6/4/2022 5:30:00 AM 12.18 53.924 0.034 6.74 2.15 9.93
6/4/2022 5:45:00 AM 12.12 53.816 0.034 6.75 2.24 9.95
6/4/2022 6:00:00 AM 12.07 53.726 0.034 6.75 2.1 9.97
6/4/2022 6:15:00 AM 12.03 53.654 0.034 6.73 2 9.98
6/4/2022 6:30:00 AM 11.98 53.564 0.034 6.74 1.97 10
6/4/2022 6:45:00 AM 11.94 53.492 0.034 6.74 2.03 10.02
6/4/2022 7:00:00 AM 11.9 53.42 0.034 6.75 2.04 10.03
6/4/2022 7:15:00 AM 11.87 53.366 0.034 6.76 2.1 10.05
6/4/2022 7:30:00 AM 11.85 53.33 0.034 6.74 1.97 10.06
6/4/2022 7:45:00 AM 11.85 53.33 0.034 6.76 1.99 10.07
6/4/2022 8:00:00 AM 11.85 53.33 0.034 6.76 1.94 10.08
6/4/2022 8:15:00 AM 11.87 53.366 0.034 6.76 2.01 10.08
6/4/2022 8:30:00 AM 11.89 53.402 0.034 6.75 1.99 10.09
6/4/2022 8:45:00 AM 11.93 53.474 0.034 6.76 1.97 10.08
6/4/2022 9:00:00 AM 11.97 53.546 0.034 6.75 2.61 10.08
6/4/2022 9:15:00 AM 12.02 53.636 0.034 6.76 1.93 10.08
6/4/2022 9:30:00 AM 12.08 53.744 0.034 6.76 1.92 10.07
6/4/2022 9:45:00 AM 12.15 53.87 0.034 6.76 1.89 10.07
6/4/2022 10:00:00 AM 12.22 53.996 0.034 6.76 1.82 10.05
6/4/2022 10:15:00 AM 12.32 54.176 0.034 6.77 1.82 10.05
6/4/2022 10:30:00 AM 12.43 54.374 0.034 6.76 1.84 10.03
6/4/2022 10:45:00 AM 12.54 54.572 0.034 6.77 1.89 10.02
6/4/2022 11:00:00 AM 12.66 54.788 0.034 6.75 1.84 10
6/4/2022 11:15:00 AM 12.8 55.04 0.034 6.78 1.86 9.98
6/4/2022 11:30:00 AM 12.94 55.292 0.034 6.78 1.87 9.96
6/4/2022 11:45:00 AM 13.1 55.58 0.034 6.79 1.93 9.94
6/4/2022 12:00:00 PM 13.28 55.904 0.033 6.8 1.97 9.92
6/4/2022 12:15:00 PM 13.47 56.246 0.033 6.8 2.04 9.9
6/4/2022 12:30:00 PM 13.67 56.606 0.033 6.8 1.94 9.87
6/4/2022 12:45:00 PM 13.88 56.984 0.033 6.81 1.95 9.84
6/4/2022 1:00:00 PM 14.08 57.344 0.033 6.81 2.02 9.81
6/4/2022 1:15:00 PM 14.26 57.668 0.033 6.81 1.93 9.78
6/4/2022 1:30:00 PM 14.41 57.938 0.033 6.79 1.96 9.75
6/4/2022 1:45:00 PM 14.53 58.154 0.033 6.81 1.94 9.72
6/4/2022 2:00:00 PM 14.61 58.298 0.033 6.81 4.17 9.69
6/4/2022 2:15:00 PM 14.66 58.388 0.033 6.8 5.34 9.66
6/4/2022 2:30:00 PM 14.67 58.406 0.033 6.79 5.82 9.62
6/4/2022 2:45:00 PM 14.66 58.388 0.033 6.8 5.67 9.59
6/4/2022 3:00:00 PM 14.65 58.37 0.033 6.78 4.82 9.56
6/4/2022 3:15:00 PM 14.66 58.388 0.033 6.8 4.96 9.53
6/4/2022 3:30:00 PM 14.67 58.406 0.033 6.77 10.9 9.51
6/4/2022 3:45:00 PM 14.67 58.406 0.033 6.79 5.24 9.5
6/4/2022 4:00:00 PM 14.66 58.388 0.033 6.79 4.68 9.49
6/4/2022 4:15:00 PM 14.66 58.388 0.033 6.78 6.19 9.48
6/4/2022 4:30:00 PM 14.65 58.37 0.033 6.79 3.28 9.47
6/4/2022 4:45:00 PM 14.64 58.352 0.034 6.77 4.21 9.47
6/4/2022 5:00:00 PM 14.64 58.352 0.034 6.77 6.64 9.46
6/4/2022 5:15:00 PM 14.61 58.298 0.034 6.77 7.15 9.45
6/4/2022 5:30:00 PM 14.59 58.262 0.034 6.76 4.63 9.45
6/4/2022 5:45:00 PM 14.56 58.208 0.034 6.76 7.16 9.45
6/4/2022 6:00:00 PM 14.53 58.154 0.034 6.76 4.5 9.46
6/4/2022 6:15:00 PM 14.49 58.082 0.034 6.75 4.06 9.45
6/4/2022 6:30:00 PM 14.45 58.01 0.034 6.75 7.94 9.46
6/4/2022 6:45:00 PM 14.4 57.92 0.034 6.74 5.37 9.46
6/4/2022 7:00:00 PM 14.34 57.812 0.034 6.76 4.75 9.47
6/4/2022 7:15:00 PM 14.29 57.722 0.034 6.74 5.59 9.47
6/4/2022 7:30:00 PM 14.23 57.614 0.034 6.74 3.75 9.48
6/4/2022 7:45:00 PM 14.17 57.506 0.034 6.75 4.72 9.49
6/4/2022 8:00:00 PM 14.1 57.38 0.034 6.74 4.57 9.5
6/4/2022 8:15:00 PM 14.02 57.236 0.034 6.74 5.07 9.52
6/4/2022 8:30:00 PM 13.95 57.11 0.034 6.75 5.32 9.52
6/4/2022 8:45:00 PM 13.89 57.002 0.034 6.76 9.56 9.53
6/4/2022 9:00:00 PM 13.81 56.858 0.034 6.74 3.25 9.54
6/4/2022 9:15:00 PM 13.73 56.714 0.034 6.75 5.18 9.56
6/4/2022 9:30:00 PM 13.65 56.57 0.034 6.73 5.01 9.58
6/4/2022 9:45:00 PM 13.57 56.426 0.034 6.75 5.73 9.6
6/4/2022 10:00:00 PM 13.48 56.264 0.034 6.75 5.55 9.61
6/4/2022 10:15:00 PM 13.4 56.12 0.034 6.75 4.59 9.63
6/4/2022 10:30:00 PM 13.32 55.976 0.034 6.75 5.01 9.66
6/4/2022 10:45:00 PM 13.23 55.814 0.034 6.75 5.21 9.68
6/4/2022 11:00:00 PM 13.16 55.688 0.034 6.74 5.1 9.69
6/4/2022 11:15:00 PM 13.08 55.544 0.034 6.75 5.31 9.71
6/4/2022 11:30:00 PM 13.01 55.418 0.034 6.72 5.55 9.73
6/4/2022 11:45:00 PM 12.95 55.31 0.034 6.74 5.15 9.75
6/5/2022 12:00:00 AM 12.88 55.184 0.034 6.73 8.54 9.76
6/5/2022 12:15:00 AM 12.82 55.076 0.034 6.74 5 9.78
6/5/2022 12:30:00 AM 12.76 54.968 0.034 6.72 5 9.79
6/5/2022 12:45:00 AM 12.7 54.86 0.034 6.73 4.86 9.8
6/5/2022 1:00:00 AM 12.64 54.752 0.034 6.72 3.24 9.82
6/5/2022 1:15:00 AM 12.58 54.644 0.034 6.74 1.98 9.83
6/5/2022 1:30:00 AM 12.52 54.536 0.034 6.74 2.06 9.85
6/5/2022 1:45:00 AM 12.46 54.428 0.034 6.73 2.02 9.87
6/5/2022 2:00:00 AM 12.4 54.32 0.034 6.74 2.01 9.88
6/5/2022 2:15:00 AM 12.34 54.212 0.034 6.75 2.07 9.89
6/5/2022 2:30:00 AM 12.27 54.086 0.034 6.73 2.13 9.91
6/5/2022 2:45:00 AM 12.21 53.978 0.034 6.74 1.95 9.93
6/5/2022 3:00:00 AM 12.15 53.87 0.034 6.74 1.99 9.94
6/5/2022 3:15:00 AM 12.09 53.762 0.034 6.75 1.99 9.96
6/5/2022 3:30:00 AM 12.04 53.672 0.034 6.74 1.97 9.97
6/5/2022 3:45:00 AM 11.97 53.546 0.034 6.71 1.97 9.99
6/5/2022 4:00:00 AM 11.92 53.456 0.034 6.74 1.91 10
6/5/2022 4:15:00 AM 11.86 53.348 0.034 6.74 2.03 10.01
6/5/2022 4:30:00 AM 11.8 53.24 0.034 6.72 2.06 10.03
6/5/2022 4:45:00 AM 11.74 53.132 0.034 6.74 2.07 10.04
6/5/2022 5:00:00 AM 11.69 53.042 0.034 6.74 1.98 10.06
6/5/2022 5:15:00 AM 11.63 52.934 0.034 6.7 2.01 10.08
6/5/2022 5:30:00 AM 11.58 52.844 0.034 6.74 1.9 10.1
6/5/2022 5:45:00 AM 11.52 52.736 0.034 6.72 1.95 10.11
6/5/2022 6:00:00 AM 11.47 52.646 0.034 6.74 2.14 10.13
6/5/2022 6:15:00 AM 11.42 52.556 0.034 6.74 2.01 10.16
6/5/2022 6:30:00 AM 11.37 52.466 0.034 6.74 1.95 10.17
6/5/2022 6:45:00 AM 11.33 52.394 0.034 6.71 1.97 10.18
6/5/2022 7:00:00 AM 11.29 52.322 0.034 6.74 1.95 10.2
6/5/2022 7:15:00 AM 11.26 52.268 0.034 6.73 1.88 10.22
6/5/2022 7:30:00 AM 11.24 52.232 0.034 6.75 1.91 10.23
6/5/2022 7:45:00 AM 11.24 52.232 0.034 6.75 1.9 10.25
6/5/2022 8:00:00 AM 11.25 52.25 0.034 6.76 1.92 10.26
6/5/2022 8:15:00 AM 11.27 52.286 0.034 6.77 1.87 10.27
6/5/2022 8:30:00 AM 11.3 52.34 0.034 6.77 1.92 10.29
6/5/2022 8:45:00 AM 11.35 52.43 0.034 6.78 1.84 10.3
6/5/2022 9:00:00 AM 11.4 52.52 0.034 6.78 1.83 10.3
6/5/2022 9:15:00 AM 11.46 52.628 0.034 6.76 1.88 10.32
6/5/2022 9:30:00 AM 11.53 52.754 0.034 6.78 1.85 10.32
6/5/2022 9:45:00 AM 11.59 52.862 0.034 6.79 1.85 10.32
6/5/2022 10:00:00 AM 11.67 53.006 0.034 6.8 1.86 10.32
6/5/2022 10:15:00 AM 11.75 53.15 0.034 6.81 1.9 10.31
6/5/2022 10:30:00 AM 11.82 53.276 0.033 6.81 1.87 10.29
6/5/2022 10:45:00 AM 11.9 53.42 0.033 6.78 1.84 10.28
6/5/2022 11:00:00 AM 12.02 53.636 0.033 6.81 1.88 10.27
6/5/2022 11:15:00 AM 12.1 53.78 0.033 6.81 1.83 10.26
6/5/2022 11:30:00 AM 12.2 53.96 0.033 6.8 1.81 10.25
6/5/2022 11:45:00 AM 12.32 54.176 0.033 6.81 1.85 10.23
6/5/2022 12:00:00 PM 12.4 54.32 0.033 6.79 1.89 10.2
6/5/2022 12:15:00 PM 12.53 54.554 0.033 6.82 1.81 10.19
6/5/2022 12:30:00 PM 12.68 54.824 0.033 6.82 1.86 10.17
6/5/2022 12:45:00 PM 12.83 55.094 0.033 6.82 1.83 10.13
6/5/2022 1:00:00 PM 13.03 55.454 0.033 6.83 1.84 10.1
6/5/2022 1:15:00 PM 13.17 55.706 0.033 6.81 1.77 10.06
6/5/2022 1:30:00 PM 13.29 55.922 0.033 6.82 1.83 10.04
6/5/2022 1:45:00 PM 13.44 56.192 0.033 6.83 1.82 10
6/5/2022 2:00:00 PM 13.56 56.408 0.033 6.81 1.83 9.97
6/5/2022 2:15:00 PM 13.67 56.606 0.033 6.81 1.83 9.92
6/5/2022 2:30:00 PM 13.72 56.696 0.033 6.82 1.83 9.89
6/5/2022 2:45:00 PM 13.73 56.714 0.033 6.81 1.76 9.85
6/5/2022 3:00:00 PM 13.74 56.732 0.033 6.8 1.86 9.82
6/5/2022 3:15:00 PM 13.76 56.768 0.033 6.8 1.82 9.79
6/5/2022 3:30:00 PM 13.78 56.804 0.033 6.8 1.77 9.76
6/5/2022 3:45:00 PM 13.8 56.84 0.033 6.77 1.81 9.73
6/5/2022 4:00:00 PM 13.83 56.894 0.033 6.79 1.77 9.71
6/5/2022 4:15:00 PM 13.86 56.948 0.033 6.79 1.82 9.7
6/5/2022 4:30:00 PM 13.86 56.948 0.033 6.78 1.71 9.68
6/5/2022 4:45:00 PM 13.86 56.948 0.034 6.77 1.83 9.66
6/5/2022 5:00:00 PM 13.86 56.948 0.034 6.77 1.69 9.66
6/5/2022 5:15:00 PM 13.85 56.93 0.034 6.77 1.66 9.65
6/5/2022 5:30:00 PM 13.83 56.894 0.034 6.76 1.77 9.65
6/5/2022 5:45:00 PM 13.81 56.858 0.034 6.76 1.75 9.65
6/5/2022 6:00:00 PM 13.77 56.786 0.034 6.76 1.78 9.64
6/5/2022 6:15:00 PM 13.73 56.714 0.034 6.74 1.8 9.65
6/5/2022 6:30:00 PM 13.69 56.642 0.034 6.76 1.77 9.65
6/5/2022 6:45:00 PM 13.65 56.57 0.034 6.75 1.74 9.65
6/5/2022 7:00:00 PM 13.6 56.48 0.034 6.74 1.8 9.66
6/5/2022 7:15:00 PM 13.55 56.39 0.034 6.71 1.75 9.66
6/5/2022 7:30:00 PM 13.51 56.318 0.034 6.73 1.79 9.67
6/5/2022 7:45:00 PM 13.46 56.228 0.034 6.73 1.77 9.67
6/5/2022 8:00:00 PM 13.4 56.12 0.034 6.73 1.76 9.69
6/5/2022 8:15:00 PM 13.34 56.012 0.034 6.76 1.73 9.7
6/5/2022 8:30:00 PM 13.28 55.904 0.034 6.73 1.73 9.7
6/5/2022 8:45:00 PM 13.22 55.796 0.034 6.75 1.84 9.7
6/5/2022 9:00:00 PM 13.18 55.724 0.034 6.75 1.77 9.71
6/5/2022 9:15:00 PM 13.14 55.652 0.034 6.76 1.83 9.72
6/5/2022 9:30:00 PM 13.11 55.598 0.034 6.72 1.86 9.73
6/5/2022 9:45:00 PM 13.07 55.526 0.034 6.75 1.85 9.74
6/5/2022 10:00:00 PM 13.02 55.436 0.034 6.73 1.84 9.74
6/5/2022 10:15:00 PM 12.97 55.346 0.034 6.74 1.81 9.76
6/5/2022 10:30:00 PM 12.93 55.274 0.034 6.75 1.87 9.77
6/5/2022 10:45:00 PM 12.88 55.184 0.034 6.74 1.85 9.78
6/5/2022 11:00:00 PM 12.82 55.076 0.034 6.74 1.87 9.8
6/5/2022 11:15:00 PM 12.77 54.986 0.034 6.73 1.9 9.8
6/5/2022 11:30:00 PM 12.72 54.896 0.034 6.74 1.85 9.82
6/5/2022 11:45:00 PM 12.67 54.806 0.034 6.72 1.85 9.83
6/6/2022 12:00:00 AM 12.62 54.716 0.034 6.74 1.91 9.84
6/6/2022 12:15:00 AM 12.58 54.644 0.034 6.74 1.85 9.85
6/6/2022 12:30:00 AM 12.54 54.572 0.034 6.71 1.88 9.86
6/6/2022 12:45:00 AM 12.49 54.482 0.034 6.73 1.89 9.87
6/6/2022 1:00:00 AM 12.45 54.41 0.034 6.73 1.87 9.88
6/6/2022 1:15:00 AM 12.41 54.338 0.034 6.73 1.85 9.89
6/6/2022 1:30:00 AM 12.37 54.266 0.034 6.73 1.86 9.9
6/6/2022 1:45:00 AM 12.33 54.194 0.034 6.73 1.87 9.91
6/6/2022 2:00:00 AM 12.28 54.104 0.034 6.73 1.88 9.92
6/6/2022 2:15:00 AM 12.24 54.032 0.034 6.73 1.87 9.93
6/6/2022 2:30:00 AM 12.2 53.96 0.034 6.73 1.86 9.94
6/6/2022 2:45:00 AM 12.16 53.888 0.034 6.73 1.92 9.95
6/6/2022 3:00:00 AM 12.11 53.798 0.034 6.73 1.89 9.96
6/6/2022 3:15:00 AM 12.07 53.726 0.034 6.73 1.89 9.97
6/6/2022 3:30:00 AM 12.03 53.654 0.034 6.7 1.93 9.98
6/6/2022 3:45:00 AM 11.98 53.564 0.034 6.73 1.98 9.99
6/6/2022 4:00:00 AM 11.94 53.492 0.034 6.71 1.93 10
6/6/2022 4:15:00 AM 11.89 53.402 0.034 6.72 1.87 10.01
6/6/2022 4:30:00 AM 11.85 53.33 0.034 6.72 1.94 10.02
6/6/2022 4:45:00 AM 11.81 53.258 0.034 6.73 1.83 10.04
6/6/2022 5:00:00 AM 11.76 53.168 0.034 6.71 1.96 10.04
6/6/2022 5:15:00 AM 11.72 53.096 0.034 6.72 1.84 10.06
6/6/2022 5:30:00 AM 11.67 53.006 0.034 6.73 1.83 10.07
6/6/2022 5:45:00 AM 11.63 52.934 0.034 6.73 1.86 10.09
6/6/2022 6:00:00 AM 11.59 52.862 0.034 6.71 1.88 10.1
6/6/2022 6:15:00 AM 11.55 52.79 0.034 6.73 1.89 10.12
6/6/2022 6:30:00 AM 11.51 52.718 0.034 6.73 1.83 10.14
6/6/2022 6:45:00 AM 11.48 52.664 0.034 6.72 1.8 10.15
6/6/2022 7:00:00 AM 11.45 52.61 0.034 6.74 1.78 10.18
6/6/2022 7:15:00 AM 11.43 52.574 0.034 6.72 1.88 10.18
6/6/2022 7:30:00 AM 11.42 52.556 0.034 6.74 1.81 10.2
6/6/2022 7:45:00 AM 11.42 52.556 0.034 6.74 1.83 10.21
6/6/2022 8:00:00 AM 11.43 52.574 0.034 6.75 1.83 10.21
6/6/2022 8:15:00 AM 11.45 52.61 0.034 6.75 1.81 10.22
6/6/2022 8:30:00 AM 11.48 52.664 0.034 6.76 1.74 10.22
6/6/2022 8:45:00 AM 11.52 52.736 0.034 6.73 1.78 10.22
6/6/2022 9:00:00 AM 11.56 52.808 0.034 6.75 1.76 10.22
6/6/2022 9:15:00 AM 11.62 52.916 0.034 6.75 1.8 10.22
6/6/2022 9:30:00 AM 11.67 53.006 0.034 6.75 1.79 10.21
6/6/2022 9:45:00 AM 11.74 53.132 0.034 6.75 1.79 10.21
6/6/2022 10:00:00 AM 11.81 53.258 0.034 6.74 1.8 10.2
6/6/2022 10:15:00 AM 11.9 53.42 0.034 6.76 1.74 10.19
6/6/2022 10:30:00 AM 12 53.6 0.034 6.77 1.79 10.18
6/6/2022 10:45:00 AM 12.12 53.816 0.034 6.78 1.81 10.17
6/6/2022 11:00:00 AM 12.26 54.068 0.034 6.76 1.8 10.16
6/6/2022 11:15:00 AM 12.43 54.374 0.034 6.79 1.74 10.15
6/6/2022 11:30:00 AM 12.56 54.608 0.034 6.8 1.72 10.12
6/6/2022 11:45:00 AM 12.77 54.986 0.034 6.81 1.76 10.09
6/6/2022 12:00:00 PM 12.96 55.328 0.034 6.79 1.8 10.06
6/6/2022 12:15:00 PM 13.16 55.688 0.033 6.81 1.75 10.03
6/6/2022 12:30:00 PM 13.36 56.048 0.033 6.81 1.8 10.01
6/6/2022 12:45:00 PM 13.59 56.462 0.033 6.8 1.81 9.96
6/6/2022 1:00:00 PM 13.76 56.768 0.033 6.81 1.73 9.94
6/6/2022 1:15:00 PM 14.01 57.218 0.033 6.82 1.74 9.9
6/6/2022 1:30:00 PM 14.2 57.56 0.033 6.81 1.71 9.86
6/6/2022 1:45:00 PM 14.28 57.704 0.033 6.81 1.77 9.83
6/6/2022 2:00:00 PM 14.41 57.938 0.033 6.81 1.8 9.79
6/6/2022 2:15:00 PM 14.43 57.974 0.033 6.81 1.76 9.76
6/6/2022 2:30:00 PM 14.37 57.866 0.033 6.81 1.77 9.73
6/6/2022 2:45:00 PM 14.35 57.83 0.033 6.8 1.75 9.72
6/6/2022 3:00:00 PM 14.45 58.01 0.033 6.8 1.73 9.71
6/6/2022 3:15:00 PM 14.4 57.92 0.033 6.8 1.71 9.68
6/6/2022 3:30:00 PM 14.46 58.028 0.033 6.81 1.67 9.67
6/6/2022 3:45:00 PM 14.47 58.046 0.033 6.81 1.78 9.64
6/6/2022 4:00:00 PM 14.52 58.136 0.033 6.8 1.69 9.64
6/6/2022 4:15:00 PM 14.51 58.118 0.033 6.81 1.69 9.6
6/6/2022 4:30:00 PM 14.53 58.154 0.033 6.79 1.7 9.59
6/6/2022 4:45:00 PM 14.53 58.154 0.033 6.79 1.68 9.56
6/6/2022 5:00:00 PM 14.55 58.19 0.033 6.79 1.66 9.57
6/6/2022 5:15:00 PM 14.55 58.19 0.034 6.79 1.71 9.56
6/6/2022 5:30:00 PM 14.54 58.172 0.034 6.79 1.76 9.55
6/6/2022 5:45:00 PM 14.53 58.154 0.034 6.77 1.72 9.54
6/6/2022 6:00:00 PM 14.52 58.136 0.034 6.79 1.75 9.54
6/6/2022 6:15:00 PM 14.49 58.082 0.034 6.77 1.77 9.52
6/6/2022 6:30:00 PM 14.47 58.046 0.034 6.77 1.68 9.5
6/6/2022 6:45:00 PM 14.44 57.992 0.034 6.77 1.75 9.5
6/6/2022 7:00:00 PM 14.4 57.92 0.034 6.77 1.71 9.5
6/6/2022 7:15:00 PM 14.37 57.866 0.034 6.78 1.7 9.5
6/6/2022 7:30:00 PM 14.34 57.812 0.034 6.76 1.67 9.51
6/6/2022 7:45:00 PM 14.3 57.74 0.034 6.76 1.73 9.5
6/6/2022 8:00:00 PM 14.25 57.65 0.034 6.76 1.73 9.49
6/6/2022 8:15:00 PM 14.21 57.578 0.034 6.73 1.73 9.48
6/6/2022 8:30:00 PM 14.17 57.506 0.034 6.74 1.71 9.48
6/6/2022 8:45:00 PM 14.14 57.452 0.034 6.75 1.78 9.48
6/6/2022 9:00:00 PM 14.11 57.398 0.034 6.74 1.75 9.48
6/6/2022 9:15:00 PM 14.08 57.344 0.034 6.71 1.8 9.49
6/6/2022 9:30:00 PM 14.04 57.272 0.034 6.73 1.75 9.49
6/6/2022 9:45:00 PM 14.02 57.236 0.034 6.73 1.79 9.5
6/6/2022 10:00:00 PM 13.99 57.182 0.034 6.73 1.77 9.51
6/6/2022 10:15:00 PM 13.97 57.146 0.034 6.74 1.85 9.51
6/6/2022 10:30:00 PM 13.95 57.11 0.034 6.71 1.8 9.51
6/6/2022 10:45:00 PM 13.92 57.056 0.034 6.75 1.88 9.52
6/6/2022 11:00:00 PM 13.9 57.02 0.034 6.71 1.88 9.52
6/6/2022 11:15:00 PM 13.87 56.966 0.034 6.73 1.95 9.53
6/6/2022 11:30:00 PM 13.85 56.93 0.034 6.73 1.82 9.53
6/6/2022 11:45:00 PM 13.83 56.894 0.034 6.74 1.83 9.54
6/7/2022 12:00:00 AM 13.81 56.858 0.034 6.74 1.84 9.55
6/7/2022 12:15:00 AM 13.79 56.822 0.034 6.74 1.82 9.55
6/7/2022 12:30:00 AM 13.77 56.786 0.034 6.73 1.85 9.55
6/7/2022 12:45:00 AM 13.76 56.768 0.034 6.73 1.84 9.55
6/7/2022 1:00:00 AM 13.74 56.732 0.034 6.74 1.89 9.56
6/7/2022 1:15:00 AM 13.73 56.714 0.034 6.73 1.89 9.56
6/7/2022 1:30:00 AM 13.71 56.678 0.034 6.73 1.83 9.57
6/7/2022 1:45:00 AM 13.69 56.642 0.034 6.74 1.86 9.57
6/7/2022 2:00:00 AM 13.67 56.606 0.034 6.74 1.82 9.57
6/7/2022 2:15:00 AM 13.65 56.57 0.034 6.71 1.81 9.58
6/7/2022 2:30:00 AM 13.63 56.534 0.034 6.74 1.84 9.58
6/7/2022 2:45:00 AM 13.6 56.48 0.034 6.73 1.9 9.59
6/7/2022 3:00:00 AM 13.58 56.444 0.034 6.74 2.39 9.59
6/7/2022 3:15:00 AM 13.56 56.408 0.034 6.74 2.11 9.59
6/7/2022 3:30:00 AM 13.53 56.354 0.034 6.73 2 9.6
6/7/2022 3:45:00 AM 13.5 56.3 0.034 6.71 1.91 9.61
6/7/2022 4:00:00 AM 13.47 56.246 0.034 6.73 1.91 9.61
6/7/2022 4:15:00 AM 13.44 56.192 0.034 6.72 1.9 9.62
6/7/2022 4:30:00 AM 13.41 56.138 0.034 6.73 1.88 9.63
6/7/2022 4:45:00 AM 13.38 56.084 0.034 6.71 1.89 9.63
6/7/2022 5:00:00 AM 13.35 56.03 0.034 6.72 1.96 9.65
6/7/2022 5:15:00 AM 13.32 55.976 0.034 6.72 1.92 9.64
6/7/2022 5:30:00 AM 13.29 55.922 0.034 6.72 1.93 9.66
6/7/2022 5:45:00 AM 13.26 55.868 0.034 6.72 1.83 9.68
6/7/2022 6:00:00 AM 13.23 55.814 0.034 6.73 1.79 9.69
6/7/2022 6:15:00 AM 13.22 55.796 0.034 6.7 1.78 9.71
6/7/2022 6:30:00 AM 13.21 55.778 0.034 6.73 1.73 9.73
6/7/2022 6:45:00 AM 13.2 55.76 0.034 6.73 1.73 9.73
6/7/2022 7:00:00 AM 13.2 55.76 0.034 6.73 1.78 9.75
6/7/2022 7:15:00 AM 13.19 55.742 0.034 6.75 1.79 9.76
6/7/2022 7:30:00 AM 13.2 55.76 0.034 6.74 1.82 9.78
6/7/2022 7:45:00 AM 13.2 55.76 0.034 6.76 1.78 9.79
6/7/2022 8:00:00 AM 13.21 55.778 0.034 6.74 1.75 9.81
6/7/2022 8:15:00 AM 13.22 55.796 0.034 6.77 1.71 9.83
6/7/2022 8:30:00 AM 13.15 55.67 0.034 7.27 0.8 10.05
6/7/2022 8:45:00 AM 13.17 55.706 0.034 7.2 0.82 10.06
6/7/2022 9:00:00 AM 13.19 55.742 0.034 7.12 0.77 10.07
6/7/2022 9:15:00 AM 13.21 55.778 0.034 7.09 0.8 10.07
6/7/2022 9:30:00 AM 13.23 55.814 0.034 7.06 0.86 10.07
6/7/2022 9:45:00 AM 13.26 55.868 0.034 7.04 0.81 10.08
6/7/2022 10:00:00 AM 13.29 55.922 0.034 7.05 0.79 10.08
6/7/2022 10:15:00 AM 13.32 55.976 0.034 7.06 0.8 10.08
6/7/2022 10:30:00 AM 13.37 56.066 0.034 7.06 0.73 10.09
6/7/2022 10:45:00 AM 13.41 56.138 0.033 7.08 0.72 10.09
6/7/2022 11:00:00 AM 13.44 56.192 0.033 7.07 0.78 10.08
6/7/2022 11:15:00 AM 13.45 56.21 0.033 7.07 0.75 10.05
6/7/2022 11:30:00 AM 13.5 56.3 0.033 7.08 0.78 10.05
6/7/2022 11:45:00 AM 13.55 56.39 0.033 7.09 1.18 10.05
6/7/2022 12:00:00 PM 13.61 56.498 0.033 7.09 0.78 10.06
6/7/2022 12:15:00 PM 13.62 56.516 0.033 7.09 0.76 10.02
6/7/2022 12:30:00 PM 13.58 56.444 0.033 7.07 0.74 9.95
6/7/2022 12:45:00 PM 13.58 56.444 0.034 7.07 0.8 9.93
6/7/2022 1:00:00 PM 13.57 56.426 0.034 7.05 0.91 9.92
6/7/2022 1:15:00 PM 13.56 56.408 0.034 7.09 0.88 9.9
6/7/2022 1:30:00 PM 13.55 56.39 0.034 7.02 0.88 9.89
6/7/2022 1:45:00 PM 13.55 56.39 0.034 7.01 0.92 9.87
6/7/2022 2:00:00 PM 13.54 56.372 0.034 6.99 1 9.85
6/7/2022 2:15:00 PM 13.55 56.39 0.034 7.03 1.02 9.85
6/7/2022 2:30:00 PM 13.58 56.444 0.034 7 0.94 9.87
6/7/2022 2:45:00 PM 13.57 56.426 0.034 7.05 0.85 9.85
6/7/2022 3:00:00 PM 13.57 56.426 0.034 6.97 0.87 9.83
6/7/2022 3:15:00 PM 13.61 56.498 0.034 6.98 0.99 9.85
6/7/2022 3:30:00 PM 13.64 56.552 0.034 6.98 1.16 9.82
6/7/2022 3:45:00 PM 13.69 56.642 0.033 6.99 1.28 9.82
6/7/2022 4:00:00 PM 13.69 56.642 0.033 6.98 1.24 9.8
6/7/2022 4:15:00 PM 13.69 56.642 0.033 6.97 1.11 9.77
6/7/2022 4:30:00 PM 13.69 56.642 0.033 7.04 1.07 9.77
6/7/2022 4:45:00 PM 13.72 56.696 0.033 6.96 1.17 9.78
6/7/2022 5:00:00 PM 13.71 56.678 0.033 6.97 1.21 9.77
6/7/2022 5:15:00 PM 13.72 56.696 0.033 6.98 1.23 9.77
6/7/2022 5:30:00 PM 13.72 56.696 0.033 7.01 1.22 9.77
6/7/2022 5:45:00 PM 13.72 56.696 0.034 6.97 1.17 9.79
6/7/2022 6:00:00 PM 13.72 56.696 0.034 6.98 1.2 9.8
6/7/2022 6:15:00 PM 13.71 56.678 0.034 6.99 1.18 9.8
6/7/2022 6:30:00 PM 13.71 56.678 0.034 7.02 1.2 9.8
6/7/2022 6:45:00 PM 13.7 56.66 0.034 6.96 1.18 9.79
6/7/2022 7:00:00 PM 13.69 56.642 0.034 6.97 1.17 9.8
6/7/2022 7:15:00 PM 13.69 56.642 0.034 6.97 1.19 9.81
6/7/2022 7:30:00 PM 13.68 56.624 0.034 6.96 1.22 9.82
6/7/2022 7:45:00 PM 13.69 56.642 0.034 6.96 1.45 9.81
6/7/2022 8:00:00 PM 13.68 56.624 0.034 6.96 1.22 9.81
6/7/2022 8:15:00 PM 13.67 56.606 0.034 6.96 1.31 9.81
6/7/2022 8:30:00 PM 13.67 56.606 0.034 7 1.32 9.81
6/7/2022 8:45:00 PM 13.67 56.606 0.034 6.97 1.35 9.81
6/7/2022 9:00:00 PM 13.66 56.588 0.034 6.94 1.29 9.82
6/7/2022 9:15:00 PM 13.65 56.57 0.034 6.94 1.31 9.82
6/7/2022 9:30:00 PM 13.65 56.57 0.034 6.93 1.27 9.82
6/7/2022 9:45:00 PM 13.64 56.552 0.034 6.91 1.26 9.82
6/7/2022 10:00:00 PM 13.63 56.534 0.034 6.95 1.24 9.83
6/7/2022 10:15:00 PM 13.62 56.516 0.034 6.93 1.22 9.83
6/7/2022 10:30:00 PM 13.61 56.498 0.034 6.88 1.15 9.83
6/7/2022 10:45:00 PM 13.6 56.48 0.034 6.88 1.14 9.83
6/7/2022 11:00:00 PM 13.59 56.462 0.034 6.86 1.2 9.83
6/7/2022 11:15:00 PM 13.57 56.426 0.034 6.87 1.14 9.82
6/7/2022 11:30:00 PM 13.56 56.408 0.034 6.84 1.13 9.83
6/7/2022 11:45:00 PM 13.54 56.372 0.034 6.84 1.12 9.83
6/8/2022 12:00:00 AM 13.52 56.336 0.034 6.83 1.1 9.83
6/8/2022 12:15:00 AM 13.51 56.318 0.034 6.83 1.13 9.84
6/8/2022 12:30:00 AM 13.5 56.3 0.034 6.83 1.06 9.84
6/8/2022 12:45:00 AM 13.48 56.264 0.034 6.83 1.06 9.84
6/8/2022 1:00:00 AM 13.47 56.246 0.034 6.88 1 9.85
6/8/2022 1:15:00 AM 13.45 56.21 0.034 6.88 1.03 9.85
6/8/2022 1:30:00 AM 13.44 56.192 0.034 6.8 1 9.86
6/8/2022 1:45:00 AM 13.42 56.156 0.034 6.82 1.03 9.86
6/8/2022 2:00:00 AM 13.4 56.12 0.034 6.82 1.02 9.86
6/8/2022 2:15:00 AM 13.38 56.084 0.034 6.83 1.01 9.86
6/8/2022 2:30:00 AM 13.36 56.048 0.034 6.84 0.97 9.87
6/8/2022 2:45:00 AM 13.34 56.012 0.034 6.85 1 9.88
6/8/2022 3:00:00 AM 13.32 55.976 0.034 6.84 0.98 9.88
6/8/2022 3:15:00 AM 13.3 55.94 0.034 6.88 0.94 9.89
6/8/2022 3:30:00 AM 13.28 55.904 0.034 6.83 0.98 9.89
6/8/2022 3:45:00 AM 13.27 55.886 0.034 6.86 0.97 9.9
6/8/2022 4:00:00 AM 13.25 55.85 0.034 6.89 1 9.91
6/8/2022 4:15:00 AM 13.25 55.85 0.034 6.92 1.01 9.91
6/8/2022 4:30:00 AM 13.23 55.814 0.034 6.96 1 9.92
6/8/2022 4:45:00 AM 13.21 55.778 0.034 6.89 0.93 9.92
6/8/2022 5:00:00 AM 13.17 55.706 0.034 6.9 0.96 9.93
6/8/2022 5:15:00 AM 13.14 55.652 0.034 6.9 0.99 9.94
6/8/2022 5:30:00 AM 13.11 55.598 0.034 6.91 0.95 9.95
6/8/2022 5:45:00 AM 13.07 55.526 0.034 6.92 0.93 9.96
6/8/2022 6:00:00 AM 13.04 55.472 0.034 6.92 0.88 9.98
6/8/2022 6:15:00 AM 13.01 55.418 0.034 6.98 0.92 9.99
6/8/2022 6:30:00 AM 12.98 55.364 0.034 6.92 0.9 10.01
6/8/2022 6:45:00 AM 12.94 55.292 0.034 6.93 0.86 10.02
6/8/2022 7:00:00 AM 12.91 55.238 0.034 6.98 0.85 10.03
6/8/2022 7:15:00 AM 12.88 55.184 0.034 6.91 0.84 10.05
6/8/2022 7:30:00 AM 12.86 55.148 0.034 6.93 0.88 10.06
6/8/2022 7:45:00 AM 12.84 55.112 0.034 6.93 0.89 10.07
6/8/2022 8:00:00 AM 12.82 55.076 0.034 6.99 0.87 10.08
6/8/2022 8:15:00 AM 12.81 55.058 0.034 6.94 0.81 10.09
6/8/2022 8:30:00 AM 12.81 55.058 0.034 6.92 0.83 10.1
6/8/2022 8:45:00 AM 12.81 55.058 0.034 6.94 0.86 10.11
6/8/2022 9:00:00 AM 12.81 55.058 0.034 6.92 0.78 10.12
6/8/2022 9:15:00 AM 12.82 55.076 0.034 6.95 0.81 10.13
6/8/2022 9:30:00 AM 12.85 55.13 0.034 6.94 0.84 10.15
6/8/2022 9:45:00 AM 12.91 55.238 0.034 6.95 0.77 10.18
6/8/2022 10:00:00 AM 12.93 55.274 0.034 6.95 0.8 10.19
6/8/2022 10:15:00 AM 12.97 55.346 0.034 6.96 0.84 10.2
6/8/2022 10:30:00 AM 13.04 55.472 0.034 6.95 0.79 10.2
6/8/2022 10:45:00 AM 13.08 55.544 0.033 6.96 0.78 10.19
6/8/2022 11:00:00 AM 13.17 55.706 0.033 6.97 0.79 10.19
6/8/2022 11:15:00 AM 13.2 55.76 0.033 6.96 0.79 10.18
6/8/2022 11:30:00 AM 13.3 55.94 0.033 6.96 0.76 10.18
6/8/2022 11:45:00 AM 13.37 56.066 0.033 6.97 0.8 10.17
6/8/2022 12:00:00 PM 13.41 56.138 0.033 6.98 0.79 10.16
6/8/2022 12:15:00 PM 13.6 56.48 0.033 6.96 0.82 10.14
6/8/2022 12:30:00 PM 13.78 56.804 0.033 7.05 0.8 10.13
6/8/2022 12:45:00 PM 13.92 57.056 0.033 6.98 0.77 10.11
6/8/2022 1:00:00 PM 14.09 57.362 0.033 7.04 0.77 10.08
6/8/2022 1:15:00 PM 14.24 57.632 0.033 6.98 0.75 10.06
6/8/2022 1:30:00 PM 14.29 57.722 0.033 6.98 0.81 10.01
6/8/2022 1:45:00 PM 14.36 57.848 0.033 6.98 0.79 9.97
6/8/2022 2:00:00 PM 14.56 58.208 0.033 6.99 0.77 9.96
6/8/2022 2:15:00 PM 14.49 58.082 0.033 6.99 0.8 9.94
6/8/2022 2:30:00 PM 14.65 58.37 0.033 6.98 0.8 9.89
6/8/2022 2:45:00 PM 14.67 58.406 0.033 6.99 0.79 9.85
6/8/2022 3:00:00 PM 14.66 58.388 0.033 6.97 0.75 9.81
6/8/2022 3:15:00 PM 14.64 58.352 0.033 6.97 0.77 9.79
6/8/2022 3:30:00 PM 14.62 58.316 0.033 7 0.75 9.77
6/8/2022 3:45:00 PM 14.61 58.298 0.033 6.97 0.77 9.76
6/8/2022 4:00:00 PM 14.6 58.28 0.033 6.99 0.77 9.74
6/8/2022 4:15:00 PM 14.6 58.28 0.033 6.95 0.77 9.72
6/8/2022 4:30:00 PM 14.6 58.28 0.033 6.94 0.8 9.71
6/8/2022 4:45:00 PM 14.61 58.298 0.033 7.01 0.8 9.7
6/8/2022 5:00:00 PM 14.61 58.298 0.034 6.94 0.81 9.69
6/8/2022 5:15:00 PM 14.6 58.28 0.034 6.93 0.79 9.68
6/8/2022 5:30:00 PM 14.59 58.262 0.034 6.96 0.75 9.67
6/8/2022 5:45:00 PM 14.56 58.208 0.034 6.91 0.83 9.66
6/8/2022 6:00:00 PM 14.54 58.172 0.034 6.92 0.77 9.67
6/8/2022 6:15:00 PM 14.5 58.1 0.034 6.93 0.79 9.66
6/8/2022 6:30:00 PM 14.46 58.028 0.034 6.96 0.82 9.65
6/8/2022 6:45:00 PM 14.42 57.956 0.034 6.87 0.72 9.66
6/8/2022 7:00:00 PM 14.38 57.884 0.034 6.9 0.75 9.66
6/8/2022 7:15:00 PM 14.35 57.83 0.034 6.88 0.78 9.67
6/8/2022 7:30:00 PM 14.33 57.794 0.034 6.95 0.72 9.68
6/8/2022 7:45:00 PM 14.29 57.722 0.034 6.86 0.78 9.68
6/8/2022 8:00:00 PM 14.26 57.668 0.034 6.92 0.76 9.67
6/8/2022 8:15:00 PM 14.22 57.596 0.034 6.9 0.85 9.66
6/8/2022 8:30:00 PM 14.18 57.524 0.034 6.92 0.9 9.66
6/8/2022 8:45:00 PM 14.14 57.452 0.034 6.85 0.79 9.65
6/8/2022 9:00:00 PM 14.11 57.398 0.034 6.86 0.95 9.66
6/8/2022 9:15:00 PM 14.08 57.344 0.034 6.83 0.95 9.65
6/8/2022 9:30:00 PM 14.05 57.29 0.034 6.85 0.93 9.66
6/8/2022 9:45:00 PM 14.02 57.236 0.034 6.91 1.05 9.66
6/8/2022 10:00:00 PM 13.99 57.182 0.034 6.81 1.06 9.67
6/8/2022 10:15:00 PM 13.96 57.128 0.034 6.84 1 9.67
6/8/2022 10:30:00 PM 13.93 57.074 0.034 6.85 1 9.68
6/8/2022 10:45:00 PM 13.91 57.038 0.034 6.87 1.04 9.69
6/8/2022 11:00:00 PM 13.88 56.984 0.034 6.83 1.02 9.69
6/8/2022 11:15:00 PM 13.86 56.948 0.034 6.89 0.99 9.69
6/8/2022 11:30:00 PM 13.84 56.912 0.034 6.83 0.95 9.7
6/8/2022 11:45:00 PM 13.81 56.858 0.034 6.83 0.99 9.69
6/9/2022 12:00:00 AM 13.79 56.822 0.034 6.84 1.01 9.7
6/9/2022 12:15:00 AM 13.76 56.768 0.034 6.85 1.08 9.69
6/9/2022 12:30:00 AM 13.74 56.732 0.034 6.83 1.08 9.71
6/9/2022 12:45:00 AM 13.74 56.732 0.034 6.81 1.39 9.69
6/9/2022 1:00:00 AM 13.74 56.732 0.033 6.86 1.91 9.66
6/9/2022 1:15:00 AM 13.72 56.696 0.033 6.77 1.97 9.63
6/9/2022 1:30:00 AM 13.72 56.696 0.033 6.82 1.74 9.63
6/9/2022 1:45:00 AM 13.72 56.696 0.033 6.84 1.82 9.63
6/9/2022 2:00:00 AM 13.72 56.696 0.033 6.79 1.92 9.63
6/9/2022 2:15:00 AM 13.72 56.696 0.033 6.85 2.2 9.63
6/9/2022 2:30:00 AM 13.68 56.624 0.034 6.79 4.1 9.62
6/9/2022 2:45:00 AM 13.68 56.624 0.035 6.9 11.73 9.62
6/9/2022 3:00:00 AM 13.75 56.75 0.035 6.82 11.03 9.61
6/9/2022 3:15:00 AM 13.78 56.804 0.035 6.87 9.04 9.62
6/9/2022 3:30:00 AM 13.79 56.822 0.035 6.86 7.47 9.64
6/9/2022 3:45:00 AM 13.79 56.822 0.034 6.91 6.42 9.63
6/9/2022 4:00:00 AM 13.79 56.822 0.034 6.85 5.48 9.64
6/9/2022 4:15:00 AM 13.79 56.822 0.034 6.9 4.58 9.65
6/9/2022 4:30:00 AM 13.79 56.822 0.035 6.87 4.08 9.66
6/9/2022 4:45:00 AM 13.79 56.822 0.035 6.88 3.81 9.66
6/9/2022 5:00:00 AM 13.79 56.822 0.035 6.9 3.59 9.67
6/9/2022 5:15:00 AM 13.8 56.84 0.035 6.9 3.56 9.68
6/9/2022 5:30:00 AM 13.81 56.858 0.035 6.9 3.52 9.69
6/9/2022 5:45:00 AM 13.81 56.858 0.035 6.93 3.36 9.7
6/9/2022 6:00:00 AM 13.81 56.858 0.035 6.9 3.26 9.71
6/9/2022 6:15:00 AM 13.82 56.876 0.035 6.88 3.04 9.72
6/9/2022 6:30:00 AM 13.83 56.894 0.035 6.92 2.86 9.72
6/9/2022 6:45:00 AM 13.83 56.894 0.035 6.9 2.6 9.73
6/9/2022 7:00:00 AM 13.84 56.912 0.034 6.95 2.52 9.74
6/9/2022 7:15:00 AM 13.84 56.912 0.034 6.86 2.27 9.74
6/9/2022 7:30:00 AM 13.85 56.93 0.034 6.88 2.04 9.76
6/9/2022 7:45:00 AM 13.85 56.93 0.034 6.91 2.02 9.77
6/9/2022 8:00:00 AM 13.88 56.984 0.034 6.92 1.93 9.79
6/9/2022 8:15:00 AM 13.9 57.02 0.034 6.93 1.98 9.8
6/9/2022 8:30:00 AM 13.92 57.056 0.034 6.95 1.93 9.82
6/9/2022 8:45:00 AM 13.93 57.074 0.034 6.98 1.9 9.83
6/9/2022 9:00:00 AM 13.93 57.074 0.034 6.95 1.84 9.83
6/9/2022 9:15:00 AM 13.92 57.056 0.034 6.98 1.7 9.83
6/9/2022 9:30:00 AM 13.92 57.056 0.034 6.95 1.71 9.84
6/9/2022 9:45:00 AM 13.94 57.092 0.034 6.95 1.7 9.87
6/9/2022 10:00:00 AM 13.91 57.038 0.034 6.96 1.59 9.85
6/9/2022 10:15:00 AM 13.93 57.074 0.034 6.99 1.62 9.88
6/9/2022 10:30:00 AM 13.92 57.056 0.034 6.86 1.58 9.87
6/9/2022 10:45:00 AM 13.9 57.02 0.034 7.01 1.5 9.85
6/9/2022 11:00:00 AM 13.92 57.056 0.034 6.93 1.46 9.88
6/9/2022 11:15:00 AM 13.94 57.092 0.034 6.95 1.46 9.91
6/9/2022 11:30:00 AM 13.95 57.11 0.034 6.99 1.43 9.9
6/9/2022 11:45:00 AM 13.95 57.11 0.034 7.01 1.47 9.9
6/9/2022 12:00:00 PM 14.03 57.254 0.034 6.95 1.5 9.93
6/9/2022 12:15:00 PM 14 57.2 0.034 6.96 1.53 9.89
6/9/2022 12:30:00 PM 13.99 57.182 0.034 6.96 1.49 9.88
6/9/2022 12:45:00 PM 13.97 57.146 0.034 6.93 1.44 9.89
6/9/2022 1:00:00 PM 14.13 57.434 0.033 6.97 1.42 9.92
6/9/2022 1:15:00 PM 14.14 57.452 0.033 6.97 1.46 9.9
6/9/2022 1:30:00 PM 14.13 57.434 0.034 6.95 1.57 9.88
6/9/2022 1:45:00 PM 14.19 57.542 0.033 6.95 1.47 9.88
6/9/2022 2:00:00 PM 14.2 57.56 0.033 6.96 1.42 9.88
6/9/2022 2:15:00 PM 14.31 57.758 0.033 6.97 1.37 9.86
6/9/2022 2:30:00 PM 14.4 57.92 0.033 6.97 1.37 9.85
6/9/2022 2:45:00 PM 14.4 57.92 0.033 6.96 1.39 9.85
6/9/2022 3:00:00 PM 14.38 57.884 0.033 6.96 1.43 9.81
6/9/2022 3:15:00 PM 14.35 57.83 0.034 6.96 1.46 9.8
6/9/2022 3:30:00 PM 14.34 57.812 0.034 6.98 1.43 9.8
6/9/2022 3:45:00 PM 14.31 57.758 0.034 6.97 1.48 9.79
6/9/2022 4:00:00 PM 14.32 57.776 0.034 6.98 1.48 9.82
6/9/2022 4:15:00 PM 14.31 57.758 0.034 6.94 1.45 9.83
6/9/2022 4:30:00 PM 14.29 57.722 0.034 6.96 1.44 9.81
6/9/2022 4:45:00 PM 14.27 57.686 0.034 6.94 1.44 9.78
6/9/2022 5:00:00 PM 14.25 57.65 0.034 6.93 1.39 9.77
6/9/2022 5:15:00 PM 14.26 57.668 0.034 6.95 1.46 9.8
6/9/2022 5:30:00 PM 14.25 57.65 0.034 6.93 1.44 9.79
6/9/2022 5:45:00 PM 14.24 57.632 0.034 6.95 1.38 9.8
6/9/2022 6:00:00 PM 14.23 57.614 0.034 6.92 1.41 9.8
6/9/2022 6:15:00 PM 14.2 57.56 0.034 6.92 1.36 9.76
6/9/2022 6:30:00 PM 14.2 57.56 0.034 6.92 1.48 9.77
6/9/2022 6:45:00 PM 14.17 57.506 0.034 6.92 1.45 9.77
6/9/2022 7:00:00 PM 14.16 57.488 0.034 6.92 1.38 9.76
6/9/2022 7:15:00 PM 14.13 57.434 0.034 6.9 1.47 9.75
6/9/2022 7:30:00 PM 14.1 57.38 0.034 6.91 1.38 9.74
6/9/2022 7:45:00 PM 14.07 57.326 0.034 6.91 1.42 9.74
6/9/2022 8:00:00 PM 14.04 57.272 0.034 6.9 1.51 9.74
6/9/2022 8:15:00 PM 14 57.2 0.034 6.9 1.51 9.74
6/9/2022 8:30:00 PM 13.95 57.11 0.034 6.88 1.46 9.74
6/9/2022 8:45:00 PM 13.89 57.002 0.034 6.88 1.48 9.75
6/9/2022 9:00:00 PM 13.84 56.912 0.034 6.88 1.48 9.75
6/9/2022 9:15:00 PM 13.79 56.822 0.034 6.88 1.47 9.76
6/9/2022 9:30:00 PM 13.74 56.732 0.034 6.89 1.54 9.77
6/9/2022 9:45:00 PM 13.69 56.642 0.034 6.91 1.53 9.78
6/9/2022 10:00:00 PM 13.64 56.552 0.034 6.88 1.5 9.79
6/9/2022 10:15:00 PM 13.59 56.462 0.034 6.88 1.54 9.8
6/9/2022 10:30:00 PM 13.54 56.372 0.034 6.88 1.53 9.82
6/9/2022 10:45:00 PM 13.48 56.264 0.034 6.86 1.57 9.83
6/9/2022 11:00:00 PM 13.43 56.174 0.034 6.89 1.52 9.84
6/9/2022 11:15:00 PM 13.38 56.084 0.034 6.89 1.59 9.86
6/9/2022 11:30:00 PM 13.32 55.976 0.034 6.87 1.57 9.87
6/9/2022 11:45:00 PM 13.27 55.886 0.034 6.86 1.51 9.88
6/10/2022 12:00:00 AM 13.21 55.778 0.034 6.86 1.54 9.89
6/10/2022 12:15:00 AM 13.17 55.706 0.034 6.86 1.56 9.9
6/10/2022 12:30:00 AM 13.11 55.598 0.034 6.88 1.56 9.92
6/10/2022 12:45:00 AM 13.06 55.508 0.034 6.87 1.55 9.93
6/10/2022 1:00:00 AM 13.01 55.418 0.034 6.86 1.49 9.94
6/10/2022 1:15:00 AM 12.96 55.328 0.034 6.86 1.52 9.95
6/10/2022 1:30:00 AM 12.91 55.238 0.034 6.9 1.5 9.96
6/10/2022 1:45:00 AM 12.86 55.148 0.034 6.86 1.51 9.97
6/10/2022 2:00:00 AM 12.82 55.076 0.034 6.87 1.47 9.99
6/10/2022 2:15:00 AM 12.77 54.986 0.034 6.87 1.5 9.99
6/10/2022 2:30:00 AM 12.72 54.896 0.034 6.89 1.48 10
6/10/2022 2:45:00 AM 12.67 54.806 0.034 6.9 1.45 10.02
6/10/2022 3:00:00 AM 12.62 54.716 0.034 6.81 1.47 10.03
6/10/2022 3:15:00 AM 12.57 54.626 0.034 6.83 1.46 10.04
6/10/2022 3:30:00 AM 12.52 54.536 0.034 6.87 1.49 10.05
6/10/2022 3:45:00 AM 12.47 54.446 0.034 6.84 1.48 10.06
6/10/2022 4:00:00 AM 12.43 54.374 0.034 6.83 1.48 10.07
6/10/2022 4:15:00 AM 12.38 54.284 0.034 6.87 1.49 10.08
6/10/2022 4:30:00 AM 12.34 54.212 0.034 6.81 1.47 10.1
6/10/2022 4:45:00 AM 12.29 54.122 0.034 6.81 1.47 10.11
6/10/2022 5:00:00 AM 12.25 54.05 0.034 6.79 1.42 10.12
6/10/2022 5:15:00 AM 12.2 53.96 0.034 6.78 1.44 10.13
6/10/2022 5:30:00 AM 12.16 53.888 0.034 6.82 1.42 10.15
6/10/2022 5:45:00 AM 12.12 53.816 0.034 6.76 1.38 10.16
6/10/2022 6:00:00 AM 12.08 53.744 0.034 6.83 1.38 10.18
6/10/2022 6:15:00 AM 12.04 53.672 0.034 6.79 1.4 10.2
6/10/2022 6:30:00 AM 12 53.6 0.034 6.78 1.38 10.21
6/10/2022 6:45:00 AM 11.96 53.528 0.034 6.78 1.42 10.22
6/10/2022 7:00:00 AM 11.93 53.474 0.034 6.8 1.45 10.24
6/10/2022 7:15:00 AM 11.9 53.42 0.034 6.8 1.38 10.25
6/10/2022 7:30:00 AM 11.89 53.402 0.034 6.8 1.41 10.26
6/10/2022 7:45:00 AM 11.89 53.402 0.034 6.81 1.38 10.27
6/10/2022 8:00:00 AM 11.89 53.402 0.034 6.81 1.39 10.28
6/10/2022 8:15:00 AM 11.91 53.438 0.034 6.82 1.35 10.29
6/10/2022 8:30:00 AM 11.94 53.492 0.034 6.84 1.39 10.29
6/10/2022 8:45:00 AM 11.97 53.546 0.034 6.85 1.37 10.3
6/10/2022 9:00:00 AM 12.02 53.636 0.034 6.85 1.41 10.29
6/10/2022 9:15:00 AM 12.07 53.726 0.034 6.85 1.32 10.3
6/10/2022 9:30:00 AM 12.12 53.816 0.034 6.85 1.32 10.29
6/10/2022 9:45:00 AM 12.19 53.942 0.034 6.86 1.33 10.29
6/10/2022 10:00:00 AM 12.25 54.05 0.034 6.87 1.34 10.3
6/10/2022 10:15:00 AM 12.34 54.212 0.034 6.87 1.31